Darstellungsparameter: Aktuell verwendete Einstellungen:
Skalierung der Graphiken ... ?
xyx+y,   Skalierungsfaktor:      Skalierung: Modus: x, Faktor: 1
Darstellungszeitraum ... ?
Vom - - bis: - -   Zeitraum: 23.02.2019 - 08.03.2019
Min/Max/Avg-Anzeige ... ?
Zeige MMA aktuell
Zeige MMA Monat
Zeige MMA alles
Zeige --A aktuell
Zeige --A Monat
Zeige --A alles
Keine MMA-Anzeige
MMA:
Minimum Maximum Average (ber die Originaldaten)
MMA-Basis: 23.02.2019 - 08.03.2019
Quicknavigation für Darstellung... ?
Tage:      1T, 2T, 3T, 5T -1T -2T -3T -5T +1T +2T +3T +5T
Wochen: 1W, 2W, 3W -1W -2W -3W +1W +2W +3W
Monate: 1M, 3M, 6M -1M -3M -6M +1M +3M +6M
Jahre:    1J, 3J, 5J, 10J -1J -3J -5J -10J +1J +3J +5J +10J
Nutze für die Darstellung ... ?
Originaldaten oder Mittelwerte auf ...
Stundenbasis Tagesbasis Wochenbasis
Monatsbasis Jahresbasis      Datenbasis: Original-Daten
Darstellen als:
Statistik (Auto) Statistik J:M      Darstellung:
Zur Graphik,    zurück zur Übersicht aller Sensoren.
 
Tabellarische Datenbersicht: ?
 
Sensor: Nr:Datum:Temp:Feuchte:Taupunkt:
Aussen-T/F 1 23-02-2019 00:00:00 5.7 C 92 % 4.5 C
2 23-02-2019 00:05:00 5.7 C 92 % 4.5 C
3 23-02-2019 00:10:00 5.6 C 92 % 4.41 C
4 23-02-2019 00:15:00 5.4 C 92 % 4.21 C
5 23-02-2019 00:20:00 5.3 C 92 % 4.11 C
6 23-02-2019 00:25:00 5.3 C 92 % 4.11 C
7 23-02-2019 00:30:00 5.2 C 92 % 4.01 C
8 23-02-2019 00:35:00 5.2 C 92 % 4.01 C
9 23-02-2019 00:40:00 5.2 C 93 % 4.16 C
10 23-02-2019 00:45:00 5.1 C 93 % 4.06 C
11 23-02-2019 00:50:00 5.1 C 93 % 4.06 C
12 23-02-2019 00:55:00 5 C 93 % 3.96 C
13 23-02-2019 01:00:00 4.9 C 93 % 3.87 C
14 23-02-2019 01:05:00 4.8 C 93 % 3.77 C
15 23-02-2019 01:10:00 4.8 C 93 % 3.77 C
16 23-02-2019 01:15:00 4.7 C 93 % 3.67 C
17 23-02-2019 01:20:00 4.7 C 93 % 3.67 C
18 23-02-2019 01:25:00 4.6 C 93 % 3.57 C
19 23-02-2019 01:30:00 4.4 C 93 % 3.37 C
20 23-02-2019 01:35:00 4.4 C 93 % 3.37 C
21 23-02-2019 01:40:00 4.4 C 93 % 3.37 C
22 23-02-2019 01:45:00 4.3 C 94 % 3.42 C
23 23-02-2019 01:50:00 4.3 C 94 % 3.42 C
24 23-02-2019 01:55:00 4.3 C 94 % 3.42 C
25 23-02-2019 02:00:00 4.3 C 94 % 3.42 C
Sensor: Nr:Datum:Temp:Feuchte:Taupunkt:
Aussen-T/F 26 23-02-2019 02:05:00 4.3 C 94 % 3.42 C
27 23-02-2019 02:10:00 4.4 C 94 % 3.52 C
28 23-02-2019 02:15:00 4.4 C 94 % 3.52 C
29 23-02-2019 02:20:00 4.3 C 94 % 3.42 C
30 23-02-2019 02:25:00 4.3 C 94 % 3.42 C
31 23-02-2019 02:30:00 4.2 C 94 % 3.32 C
32 23-02-2019 02:35:00 4.1 C 94 % 3.22 C
33 23-02-2019 02:40:00 4 C 94 % 3.12 C
34 23-02-2019 02:45:00 4 C 94 % 3.12 C
35 23-02-2019 02:50:00 4 C 94 % 3.12 C
36 23-02-2019 02:55:00 3.9 C 94 % 3.02 C
37 23-02-2019 03:00:00 3.8 C 94 % 2.93 C
38 23-02-2019 03:05:00 3.8 C 95 % 3.07 C
39 23-02-2019 03:10:00 3.8 C 95 % 3.07 C
40 23-02-2019 03:15:00 3.8 C 95 % 3.07 C
41 23-02-2019 03:20:00 3.9 C 95 % 3.17 C
42 23-02-2019 03:25:00 3.8 C 95 % 3.07 C
43 23-02-2019 03:30:00 3.7 C 95 % 2.98 C
44 23-02-2019 03:35:00 3.7 C 95 % 2.98 C
45 23-02-2019 03:40:00 3.8 C 95 % 3.07 C
46 23-02-2019 03:45:00 3.8 C 95 % 3.07 C
47 23-02-2019 03:50:00 3.9 C 95 % 3.17 C
48 23-02-2019 03:55:00 4 C 95 % 3.27 C
49 23-02-2019 04:00:00 4.1 C 95 % 3.37 C
50 23-02-2019 04:05:00 4.2 C 95 % 3.47 C
Sensor: Nr:Datum:Temp:Feuchte:Taupunkt:
Aussen-T/F 51 23-02-2019 04:10:00 4.2 C 95 % 3.47 C
52 23-02-2019 04:15:00 4.3 C 95 % 3.57 C
53 23-02-2019 04:20:00 4.3 C 95 % 3.57 C
54 23-02-2019 04:25:00 4.3 C 95 % 3.57 C
55 23-02-2019 04:30:00 4.4 C 95 % 3.67 C
56 23-02-2019 04:35:00 4.3 C 95 % 3.57 C
57 23-02-2019 04:40:00 4.3 C 95 % 3.57 C
58 23-02-2019 04:45:00 4.3 C 95 % 3.57 C
59 23-02-2019 04:50:00 4.3 C 95 % 3.57 C
60 23-02-2019 04:55:00 4.2 C 95 % 3.47 C
61 23-02-2019 05:00:00 4.2 C 95 % 3.47 C
62 23-02-2019 05:05:00 4.2 C 95 % 3.47 C
63 23-02-2019 05:10:00 4.3 C 95 % 3.57 C
64 23-02-2019 05:15:00 4.3 C 95 % 3.57 C
65 23-02-2019 05:20:00 4.5 C 94 % 3.62 C
66 23-02-2019 05:25:00 4.6 C 94 % 3.72 C
67 23-02-2019 05:30:00 4.6 C 93 % 3.57 C
68 23-02-2019 05:35:00 4.7 C 93 % 3.67 C
69 23-02-2019 05:40:00 4.7 C 93 % 3.67 C
70 23-02-2019 05:45:00 4.7 C 92 % 3.51 C
71 23-02-2019 05:50:00 4.7 C 92 % 3.51 C
72 23-02-2019 05:55:00 4.8 C 91 % 3.46 C
73 23-02-2019 06:00:00 4.8 C 91 % 3.46 C
74 23-02-2019 06:05:00 4.8 C 91 % 3.46 C
75 23-02-2019 06:10:00 4.9 C 90 % 3.4 C
Sensor: Nr:Datum:Temp:Feuchte:Taupunkt:
Aussen-T/F 76 23-02-2019 06:15:00 4.8 C 91 % 3.46 C
77 23-02-2019 06:20:00 4.8 C 91 % 3.46 C
78 23-02-2019 06:25:00 4.8 C 89 % 3.14 C
79 23-02-2019 06:30:00 4.8 C 89 % 3.14 C
80 23-02-2019 06:35:00 4.8 C 89 % 3.14 C
81 23-02-2019 06:40:00 4.9 C 89 % 3.24 C
82 23-02-2019 06:45:00 4.9 C 90 % 3.4 C
83 23-02-2019 06:50:00 4.9 C 89 % 3.24 C
84 23-02-2019 06:55:00 4.8 C 89 % 3.14 C
85 23-02-2019 07:00:00 4.8 C 88 % 2.99 C
86 23-02-2019 07:05:00 4.8 C 88 % 2.99 C
87 23-02-2019 07:10:00 4.8 C 88 % 2.99 C
88 23-02-2019 07:15:00 4.7 C 87 % 2.73 C
89 23-02-2019 07:20:00 4.8 C 87 % 2.82 C
90 23-02-2019 07:25:00 4.8 C 87 % 2.82 C
91 23-02-2019 07:30:00 4.8 C 87 % 2.82 C
92 23-02-2019 07:35:00 4.8 C 86 % 2.66 C
93 23-02-2019 07:40:00 4.8 C 86 % 2.66 C
94 23-02-2019 07:45:00 4.8 C 87 % 2.82 C
95 23-02-2019 07:50:00 4.8 C 86 % 2.66 C
96 23-02-2019 07:55:00 4.8 C 86 % 2.66 C
97 23-02-2019 08:00:00 4.8 C 86 % 2.66 C
98 23-02-2019 08:05:00 4.8 C 87 % 2.82 C
99 23-02-2019 08:10:00 4.8 C 86 % 2.66 C
100 23-02-2019 08:15:00 4.8 C 85 % 2.5 C
Sensor: Nr:Datum:Temp:Feuchte:Taupunkt:
Aussen-T/F 101 23-02-2019 08:20:00 4.8 C 85 % 2.5 C
102 23-02-2019 08:25:00 4.8 C 85 % 2.5 C
103 23-02-2019 08:30:00 4.9 C 85 % 2.6 C
104 23-02-2019 08:35:00 4.9 C 85 % 2.6 C
105 23-02-2019 08:40:00 4.9 C 84 % 2.43 C
106 23-02-2019 08:45:00 4.9 C 84 % 2.43 C
107 23-02-2019 08:50:00 4.9 C 84 % 2.43 C
108 23-02-2019 08:55:00 4.9 C 84 % 2.43 C
109 23-02-2019 09:00:00 4.9 C 84 % 2.43 C
110 23-02-2019 09:05:00 4.9 C 83 % 2.26 C
111 23-02-2019 09:10:00 4.8 C 83 % 2.16 C
112 23-02-2019 09:15:00 4.8 C 83 % 2.16 C
113 23-02-2019 09:20:00 4.8 C 84 % 2.33 C
114 23-02-2019 09:25:00 4.8 C 84 % 2.33 C
115 23-02-2019 09:30:00 4.8 C 84 % 2.33 C
116 23-02-2019 09:35:00 4.7 C 84 % 2.23 C
117 23-02-2019 09:40:00 4.7 C 83 % 2.07 C
118 23-02-2019 09:45:00 4.7 C 83 % 2.07 C
119 23-02-2019 09:50:00 4.7 C 83 % 2.07 C
120 23-02-2019 09:55:00 4.7 C 83 % 2.07 C
121 23-02-2019 10:00:00 4.7 C 83 % 2.07 C
122 23-02-2019 10:05:00 4.7 C 83 % 2.07 C
123 23-02-2019 10:10:00 4.7 C 83 % 2.07 C
124 23-02-2019 10:15:00 4.8 C 83 % 2.16 C
125 23-02-2019 10:20:00 4.8 C 82 % 1.99 C
Sensor: Nr:Datum:Temp:Feuchte:Taupunkt:
Aussen-T/F 126 23-02-2019 10:25:00 4.8 C 82 % 1.99 C
127 23-02-2019 10:30:00 4.9 C 82 % 2.09 C
128 23-02-2019 10:35:00 5 C 81 % 2.02 C
129 23-02-2019 10:40:00 5.1 C 81 % 2.12 C
130 23-02-2019 10:45:00 5.2 C 81 % 2.21 C
131 23-02-2019 10:50:00 5.3 C 81 % 2.31 C
132 23-02-2019 10:55:00 5.4 C 80 % 2.23 C
133 23-02-2019 11:00:00 5.4 C 81 % 2.41 C
134 23-02-2019 11:05:00 5.6 C 81 % 2.6 C
135 23-02-2019 11:10:00 5.7 C 80 % 2.53 C
136 23-02-2019 11:15:00 5.8 C 80 % 2.62 C
137 23-02-2019 11:20:00 5.9 C 80 % 2.72 C
138 23-02-2019 11:25:00 6.1 C 80 % 2.92 C
139 23-02-2019 11:30:00 6.2 C 79 % 2.84 C
140 23-02-2019 11:35:00 6.3 C 79 % 2.93 C
141 23-02-2019 11:40:00 6.4 C 78 % 2.85 C
142 23-02-2019 11:45:00 6.6 C 77 % 2.86 C
143 23-02-2019 11:50:00 6.7 C 77 % 2.96 C
144 23-02-2019 11:55:00 6.8 C 76 % 2.87 C
145 23-02-2019 12:00:00 6.9 C 76 % 2.97 C
146 23-02-2019 12:05:00 7.1 C 75 % 2.98 C
147 23-02-2019 12:10:00 7.2 C 74 % 2.89 C
148 23-02-2019 12:15:00 7.3 C 74 % 2.98 C
149 23-02-2019 12:20:00 7.5 C 73 % 2.98 C
150 23-02-2019 12:25:00 7.7 C 72 % 2.98 C
Sensor: Nr:Datum:Temp:Feuchte:Taupunkt:
Aussen-T/F 151 23-02-2019 12:30:00 7.8 C 71 % 2.88 C
152 23-02-2019 12:35:00 7.8 C 71 % 2.88 C
153 23-02-2019 12:40:00 7.9 C 70 % 2.78 C
154 23-02-2019 12:45:00 8 C 71 % 3.07 C
155 23-02-2019 12:50:00 8.1 C 70 % 2.97 C
156 23-02-2019 12:55:00 8.2 C 71 % 3.26 C
157 23-02-2019 13:00:00 8.3 C 69 % 2.96 C
158 23-02-2019 13:05:00 8.4 C 68 % 2.85 C
159 23-02-2019 13:10:00 8.4 C 69 % 3.05 C
160 23-02-2019 13:15:00 8.7 C 68 % 3.13 C
161 23-02-2019 13:20:00 8.9 C 68 % 3.32 C
162 23-02-2019 13:25:00 9.1 C 67 % 3.31 C
163 23-02-2019 13:30:00 9.3 C 66 % 3.28 C
164 23-02-2019 13:35:00 9.3 C 66 % 3.28 C
165 23-02-2019 13:40:00 9.4 C 67 % 3.59 C
166 23-02-2019 13:45:00 9.6 C 65 % 3.35 C
167 23-02-2019 13:50:00 9.6 C 65 % 3.35 C
168 23-02-2019 13:55:00 9.7 C 64 % 3.23 C
169 23-02-2019 14:00:00 9.7 C 64 % 3.23 C
170 23-02-2019 14:05:00 9.7 C 63 % 3.01 C
171 23-02-2019 14:10:00 9.7 C 64 % 3.23 C
172 23-02-2019 14:15:00 9.8 C 63 % 3.1 C
173 23-02-2019 14:20:00 9.8 C 62 % 2.88 C
174 23-02-2019 14:25:00 9.9 C 62 % 2.97 C
175 23-02-2019 14:30:00 10 C 61 % 2.84 C
Sensor: Nr:Datum:Temp:Feuchte:Taupunkt:
Aussen-T/F 176 23-02-2019 14:35:00 10.1 C 60 % 2.7 C
177 23-02-2019 14:40:00 10.2 C 59 % 2.56 C
178 23-02-2019 14:45:00 10.3 C 54 % 1.41 C
179 23-02-2019 14:50:00 10.4 C 52 % 0.98 C
180 23-02-2019 14:55:00 10.6 C 49 % 0.35 C
181 23-02-2019 15:00:00 10.6 C 47 % -0.23 C
182 23-02-2019 15:05:00 10.7 C 46 % -0.43 C
183 23-02-2019 15:10:00 10.8 C 48 % 0.24 C
184 23-02-2019 15:15:00 10.8 C 46 % -0.34 C
185 23-02-2019 15:20:00 10.8 C 46 % -0.34 C
186 23-02-2019 15:25:00 10.8 C 46 % -0.34 C
187 23-02-2019 15:30:00 10.8 C 45 % -0.64 C
188 23-02-2019 15:35:00 10.8 C 42 % -1.58 C
189 23-02-2019 15:40:00 10.8 C 42 % -1.58 C
190 23-02-2019 15:45:00 10.8 C 43 % -1.26 C
191 23-02-2019 15:50:00 10.8 C 42 % -1.58 C
192 23-02-2019 15:55:00 10.9 C 44 % -0.86 C
193 23-02-2019 16:00:00 10.9 C 43 % -1.17 C
194 23-02-2019 16:05:00 10.9 C 43 % -1.17 C
195 23-02-2019 16:10:00 11.1 C 46 % -0.07 C
196 23-02-2019 16:15:00 11.1 C 52 % 1.63 C
197 23-02-2019 16:20:00 11 C 43 % -1.08 C
198 23-02-2019 16:25:00 10.9 C 42 % -1.49 C
199 23-02-2019 16:30:00 10.8 C 44 % -0.95 C
200 23-02-2019 16:35:00 10.8 C 47 % -0.04 C
Sensor: Nr:Datum:Temp:Feuchte:Taupunkt:
Aussen-T/F 201 23-02-2019 16:40:00 10.6 C 46 % -0.52 C
202 23-02-2019 16:45:00 10.4 C 52 % 0.98 C
203 23-02-2019 16:50:00 10.2 C 53 % 1.06 C
204 23-02-2019 16:55:00 9.9 C 54 % 1.04 C
205 23-02-2019 17:00:00 9.6 C 56 % 1.27 C
206 23-02-2019 17:05:00 9.3 C 59 % 1.71 C
207 23-02-2019 17:10:00 8.9 C 61 % 1.8 C
208 23-02-2019 17:15:00 8.7 C 62 % 1.84 C
209 23-02-2019 17:20:00 8.3 C 62 % 1.46 C
210 23-02-2019 17:25:00 8 C 64 % 1.62 C
211 23-02-2019 17:30:00 7.8 C 64 % 1.43 C
212 23-02-2019 17:35:00 7.5 C 65 % 1.36 C
213 23-02-2019 17:40:00 7.3 C 65 % 1.17 C
214 23-02-2019 17:45:00 7.1 C 66 % 1.19 C
215 23-02-2019 17:50:00 6.8 C 67 % 1.11 C
216 23-02-2019 17:55:00 6.6 C 67 % 0.92 C
217 23-02-2019 18:00:00 6.4 C 69 % 1.14 C
218 23-02-2019 18:05:00 6.2 C 70 % 1.15 C
219 23-02-2019 18:10:00 5.9 C 70 % 0.86 C
220 23-02-2019 18:15:00 5.7 C 70 % 0.67 C
221 23-02-2019 18:20:00 5.6 C 71 % 0.77 C
222 23-02-2019 18:25:00 5.4 C 71 % 0.58 C
223 23-02-2019 18:30:00 5.3 C 71 % 0.48 C
224 23-02-2019 18:35:00 5.2 C 71 % 0.38 C
225 23-02-2019 18:40:00 5.1 C 72 % 0.48 C
Sensor: Nr:Datum:Temp:Feuchte:Taupunkt:
Aussen-T/F 226 23-02-2019 18:45:00 5 C 72 % 0.38 C
227 23-02-2019 18:50:00 4.9 C 72 % 0.29 C
228 23-02-2019 18:55:00 4.8 C 72 % 0.19 C
229 23-02-2019 19:00:00 4.7 C 73 % 0.28 C
230 23-02-2019 19:05:00 4.7 C 73 % 0.28 C
231 23-02-2019 19:10:00 4.6 C 73 % 0.19 C
232 23-02-2019 19:15:00 4.6 C 74 % 0.38 C
233 23-02-2019 19:20:00 4.5 C 74 % 0.28 C
234 23-02-2019 19:25:00 4.4 C 73 % 0 C
235 23-02-2019 19:30:00 4.3 C 74 % 0.09 C
236 23-02-2019 19:35:00 4.3 C 75 % 0.27 C
237 23-02-2019 19:40:00 4.2 C 75 % 0.17 C
238 23-02-2019 19:45:00 4.1 C 74 % -0.11 C
239 23-02-2019 19:50:00 4.1 C 75 % 0.08 C
240 23-02-2019 19:55:00 3.9 C 75 % -0.12 C
241 23-02-2019 20:00:00 3.9 C 75 % -0.12 C
242 23-02-2019 20:05:00 3.8 C 75 % -0.21 C
243 23-02-2019 20:10:00 3.7 C 75 % -0.31 C
244 23-02-2019 20:15:00 3.7 C 75 % -0.31 C
245 23-02-2019 20:20:00 3.6 C 75 % -0.41 C
246 23-02-2019 20:25:00 3.5 C 76 % -0.32 C
247 23-02-2019 20:30:00 3.4 C 76 % -0.42 C
248 23-02-2019 20:35:00 3.3 C 77 % -0.34 C
249 23-02-2019 20:40:00 3.2 C 77 % -0.43 C
250 23-02-2019 20:45:00 3 C 77 % -0.63 C
Sensor: Nr:Datum:Temp:Feuchte:Taupunkt:
Aussen-T/F 251 23-02-2019 20:50:00 2.8 C 77 % -0.82 C
252 23-02-2019 20:55:00 2.7 C 78 % -0.74 C
253 23-02-2019 21:00:00 2.6 C 78 % -0.84 C
254 23-02-2019 21:05:00 2.4 C 79 % -0.86 C
255 23-02-2019 21:10:00 2.3 C 78 % -1.13 C
256 23-02-2019 21:15:00 2.2 C 78 % -1.23 C
257 23-02-2019 21:20:00 2.2 C 79 % -1.05 C
258 23-02-2019 21:25:00 2.1 C 79 % -1.15 C
259 23-02-2019 21:30:00 2.1 C 80 % -0.98 C
260 23-02-2019 21:35:00 2 C 79 % -1.25 C
261 23-02-2019 21:40:00 1.8 C 80 % -1.27 C
262 23-02-2019 21:45:00 1.7 C 80 % -1.37 C
263 23-02-2019 21:50:00 1.6 C 81 % -1.3 C
264 23-02-2019 21:55:00 1.4 C 81 % -1.49 C
265 23-02-2019 22:00:00 1.3 C 81 % -1.59 C
266 23-02-2019 22:05:00 1.2 C 82 % -1.52 C
267 23-02-2019 22:10:00 1.2 C 82 % -1.52 C
268 23-02-2019 22:15:00 1.1 C 83 % -1.46 C
269 23-02-2019 22:20:00 1.1 C 84 % -1.29 C
270 23-02-2019 22:25:00 1.1 C 84 % -1.29 C
271 23-02-2019 22:30:00 1.1 C 83 % -1.46 C
272 23-02-2019 22:35:00 0.9 C 83 % -1.65 C
273 23-02-2019 22:40:00 0.8 C 83 % -1.75 C
274 23-02-2019 22:45:00 0.7 C 83 % -1.85 C
275 23-02-2019 22:50:00 0.7 C 83 % -1.85 C
Sensor: Nr:Datum:Temp:Feuchte:Taupunkt:
Aussen-T/F 276 23-02-2019 22:55:00 0.6 C 83 % -1.95 C
277 23-02-2019 23:00:00 0.6 C 84 % -1.78 C
278 23-02-2019 23:05:00 0.6 C 84 % -1.78 C
279 23-02-2019 23:10:00 0.5 C 83 % -2.04 C
280 23-02-2019 23:15:00 0.4 C 83 % -2.14 C
281 23-02-2019 23:20:00 0.4 C 84 % -1.98 C
282 23-02-2019 23:25:00 0.5 C 83 % -2.04 C
283 23-02-2019 23:30:00 0.4 C 83 % -2.14 C
284 23-02-2019 23:35:00 0.5 C 83 % -2.04 C
285 23-02-2019 23:40:00 0.4 C 83 % -2.14 C
286 23-02-2019 23:45:00 0.4 C 84 % -1.98 C
287 23-02-2019 23:50:00 0.4 C 84 % -1.98 C
288 23-02-2019 23:55:00 0.4 C 84 % -1.98 C
289 24-02-2019 00:00:00 0.2 C 84 % -2.18 C
290 24-02-2019 00:05:00 0.1 C 84 % -2.27 C
291 24-02-2019 00:10:00 -0.1 C 84 % -2.47 C
292 24-02-2019 00:15:00 -0.2 C 85 % -2.41 C
293 24-02-2019 00:20:00 -0.3 C 85 % -2.51 C
294 24-02-2019 00:25:00 -0.3 C 85 % -2.51 C
295 24-02-2019 00:30:00 -0.3 C 86 % -2.35 C
296 24-02-2019 00:35:00 -0.3 C 86 % -2.35 C
297 24-02-2019 00:40:00 -0.4 C 86 % -2.45 C
298 24-02-2019 00:45:00 -0.4 C 86 % -2.45 C
299 24-02-2019 00:50:00 -0.5 C 87 % -2.39 C
300 24-02-2019 00:55:00 -0.6 C 87 % -2.49 C
Sensor: Nr:Datum:Temp:Feuchte:Taupunkt:
Aussen-T/F 301 24-02-2019 01:00:00 -0.6 C 87 % -2.49 C
302 24-02-2019 01:05:00 -0.6 C 87 % -2.49 C
303 24-02-2019 01:10:00 -0.6 C 87 % -2.49 C
304 24-02-2019 01:15:00 -0.6 C 87 % -2.49 C
305 24-02-2019 01:20:00 -0.6 C 87 % -2.49 C
306 24-02-2019 01:25:00 -0.6 C 87 % -2.49 C
307 24-02-2019 01:30:00 -0.7 C 87 % -2.59 C
308 24-02-2019 01:35:00 -0.7 C 87 % -2.59 C
309 24-02-2019 01:40:00 -0.7 C 87 % -2.59 C
310 24-02-2019 01:45:00 -0.7 C 87 % -2.59 C
311 24-02-2019 01:50:00 -0.8 C 87 % -2.69 C
312 24-02-2019 01:55:00 -0.8 C 87 % -2.69 C
313 24-02-2019 02:00:00 -0.9 C 87 % -2.79 C
314 24-02-2019 02:05:00 -1 C 87 % -2.88 C
315 24-02-2019 02:10:00 -1.1 C 88 % -2.83 C
316 24-02-2019 02:15:00 -1.1 C 88 % -2.83 C
317 24-02-2019 02:20:00 -1.1 C 88 % -2.83 C
318 24-02-2019 02:25:00 -1.2 C 88 % -2.93 C
319 24-02-2019 02:30:00 -1.2 C 88 % -2.93 C
320 24-02-2019 02:35:00 -1.2 C 88 % -2.93 C
321 24-02-2019 02:40:00 -1.3 C 88 % -3.03 C
322 24-02-2019 02:45:00 -1.3 C 88 % -3.03 C
323 24-02-2019 02:50:00 -1.3 C 88 % -3.03 C
324 24-02-2019 02:55:00 -1.3 C 89 % -2.88 C
325 24-02-2019 03:00:00 -1.3 C 89 % -2.88 C
Sensor: Nr:Datum:Temp:Feuchte:Taupunkt:
Aussen-T/F 326 24-02-2019 03:05:00 -1.4 C 89 % -2.97 C
327 24-02-2019 03:10:00 -1.4 C 89 % -2.97 C
328 24-02-2019 03:15:00 -1.4 C 89 % -2.97 C
329 24-02-2019 03:20:00 -1.4 C 89 % -2.97 C
330 24-02-2019 03:25:00 -1.5 C 89 % -3.07 C
331 24-02-2019 03:30:00 -1.5 C 89 % -3.07 C
332 24-02-2019 03:35:00 -1.6 C 89 % -3.17 C
333 24-02-2019 03:40:00 -1.6 C 89 % -3.17 C
334 24-02-2019 03:45:00 -1.6 C 89 % -3.17 C
335 24-02-2019 03:50:00 -1.6 C 90 % -3.02 C
336 24-02-2019 03:55:00 -1.7 C 90 % -3.12 C
337 24-02-2019 04:00:00 -1.7 C 90 % -3.12 C
338 24-02-2019 04:05:00 -1.7 C 90 % -3.12 C
339 24-02-2019 04:10:00 -1.7 C 90 % -3.12 C
340 24-02-2019 04:15:00 -1.6 C 90 % -3.02 C
341 24-02-2019 04:20:00 -1.7 C 90 % -3.12 C
342 24-02-2019 04:25:00 -1.7 C 90 % -3.12 C
343 24-02-2019 04:30:00 -1.7 C 90 % -3.12 C
344 24-02-2019 04:35:00 -1.8 C 90 % -3.22 C
345 24-02-2019 04:40:00 -1.8 C 90 % -3.22 C
346 24-02-2019 04:45:00 -1.8 C 90 % -3.22 C
347 24-02-2019 04:50:00 -1.8 C 90 % -3.22 C
348 24-02-2019 04:55:00 -1.8 C 90 % -3.22 C
349 24-02-2019 05:00:00 -1.8 C 90 % -3.22 C
350 24-02-2019 05:05:00 -1.8 C 90 % -3.22 C
Sensor: Nr:Datum:Temp:Feuchte:Taupunkt:
Aussen-T/F 351 24-02-2019 05:10:00 -1.8 C 90 % -3.22 C
352 24-02-2019 05:15:00 -1.8 C 90 % -3.22 C
353 24-02-2019 05:20:00 -1.8 C 90 % -3.22 C
354 24-02-2019 05:25:00 -1.9 C 90 % -3.32 C
355 24-02-2019 05:30:00 -1.9 C 90 % -3.32 C
356 24-02-2019 05:35:00 -1.9 C 90 % -3.32 C
357 24-02-2019 05:40:00 -2 C 90 % -3.42 C
358 24-02-2019 05:45:00 -2 C 90 % -3.42 C
359 24-02-2019 05:50:00 -1.9 C 90 % -3.32 C
360 24-02-2019 05:55:00 -1.9 C 90 % -3.32 C
361 24-02-2019 06:00:00 -1.9 C 90 % -3.32 C
362 24-02-2019 06:05:00 -1.9 C 90 % -3.32 C
363 24-02-2019 06:10:00 -2 C 90 % -3.42 C
364 24-02-2019 06:15:00 -2 C 90 % -3.42 C
365 24-02-2019 06:20:00 -2.1 C 90 % -3.52 C
366 24-02-2019 06:25:00 -2.1 C 90 % -3.52 C
367 24-02-2019 06:30:00 -2.1 C 91 % -3.37 C
368 24-02-2019 06:35:00 -2.1 C 91 % -3.37 C
369 24-02-2019 06:40:00 -2.1 C 91 % -3.37 C
370 24-02-2019 06:45:00 -2.1 C 91 % -3.37 C
371 24-02-2019 06:50:00 -2.2 C 91 % -3.47 C
372 24-02-2019 06:55:00 -2.2 C 91 % -3.47 C
373 24-02-2019 07:00:00 -2.2 C 91 % -3.47 C
374 24-02-2019 07:05:00 -2.3 C 91 % -3.57 C
375 24-02-2019 07:10:00 -2.3 C 91 % -3.57 C
Sensor: Nr:Datum:Temp:Feuchte:Taupunkt:
Aussen-T/F 376 24-02-2019 07:15:00 -2.3 C 91 % -3.57 C
377 24-02-2019 07:20:00 -2.4 C 91 % -3.66 C
378 24-02-2019 07:25:00 -2.4 C 91 % -3.66 C
379 24-02-2019 07:30:00 -2.4 C 91 % -3.66 C
380 24-02-2019 07:35:00 -2.4 C 91 % -3.66 C
381 24-02-2019 07:40:00 -2.4 C 91 % -3.66 C
382 24-02-2019 07:45:00 -2.4 C 92 % -3.52 C
383 24-02-2019 07:50:00 -2.4 C 92 % -3.52 C
384 24-02-2019 07:55:00 -2.4 C 92 % -3.52 C
385 24-02-2019 08:00:00 -2.3 C 92 % -3.42 C
386 24-02-2019 08:05:00 -2.3 C 92 % -3.42 C
387 24-02-2019 08:10:00 -2.2 C 92 % -3.32 C
388 24-02-2019 08:15:00 -2.2 C 92 % -3.32 C
389 24-02-2019 08:20:00 -2.2 C 92 % -3.32 C
390 24-02-2019 08:25:00 -2.1 C 92 % -3.22 C
391 24-02-2019 08:30:00 -2.1 C 92 % -3.22 C
392 24-02-2019 08:35:00 -2 C 92 % -3.12 C
393 24-02-2019 08:40:00 -2 C 92 % -3.12 C
394 24-02-2019 08:45:00 -2 C 92 % -3.12 C
395 24-02-2019 08:50:00 -2 C 92 % -3.12 C
396 24-02-2019 08:55:00 -1.9 C 92 % -3.02 C
397 24-02-2019 09:00:00 -1.9 C 92 % -3.02 C
398 24-02-2019 09:05:00 -1.8 C 92 % -2.92 C
399 24-02-2019 09:10:00 -1.8 C 92 % -2.92 C
400 24-02-2019 09:15:00 -1.7 C 92 % -2.83 C
Sensor: Nr:Datum:Temp:Feuchte:Taupunkt:
Aussen-T/F 401 24-02-2019 09:20:00 -1.6 C 92 % -2.73 C
402 24-02-2019 09:25:00 -1.6 C 92 % -2.73 C
403 24-02-2019 09:30:00 -1.5 C 92 % -2.63 C
404 24-02-2019 09:35:00 -1.4 C 92 % -2.53 C
405 24-02-2019 09:40:00 -1.3 C 92 % -2.43 C
406 24-02-2019 09:45:00 -1.2 C 92 % -2.33 C
407 24-02-2019 09:50:00 -1.1 C 92 % -2.23 C
408 24-02-2019 09:55:00 -1 C 91 % -2.28 C
409 24-02-2019 10:00:00 -0.9 C 91 % -2.18 C
410 24-02-2019 10:05:00 -0.8 C 91 % -2.08 C
411 24-02-2019 10:10:00 -0.6 C 90 % -2.03 C
412 24-02-2019 10:15:00 -0.4 C 90 % -1.84 C
413 24-02-2019 10:20:00 -0.2 C 90 % -1.64 C
414 24-02-2019 10:25:00 0 C 89 % -1.59 C
415 24-02-2019 10:30:00 0.3 C 89 % -1.29 C
416 24-02-2019 10:35:00 0.7 C 88 % -1.05 C
417 24-02-2019 10:40:00 1 C 88 % -0.76 C
418 24-02-2019 10:45:00 1.4 C 87 % -0.52 C
419 24-02-2019 10:50:00 1.7 C 86 % -0.38 C
420 24-02-2019 10:55:00 2.2 C 85 % -0.05 C
421 24-02-2019 11:00:00 2.6 C 83 % 0.01 C
422 24-02-2019 11:05:00 2.9 C 82 % 0.14 C
423 24-02-2019 11:10:00 3.2 C 82 % 0.43 C
424 24-02-2019 11:15:00 3.4 C 81 % 0.46 C
425 24-02-2019 11:20:00 3.7 C 80 % 0.58 C
Sensor: Nr:Datum:Temp:Feuchte:Taupunkt:
Aussen-T/F 426 24-02-2019 11:25:00 3.9 C 79 % 0.6 C
427 24-02-2019 11:30:00 4.2 C 76 % 0.36 C
428 24-02-2019 11:35:00 4.6 C 75 % 0.56 C
429 24-02-2019 11:40:00 4.8 C 76 % 0.94 C
430 24-02-2019 11:45:00 5.1 C 74 % 0.86 C
431 24-02-2019 11:50:00 5.3 C 74 % 1.05 C
432 24-02-2019 11:55:00 5.4 C 73 % 0.96 C
433 24-02-2019 12:00:00 5.6 C 73 % 1.15 C
434 24-02-2019 12:05:00 5.7 C 72 % 1.06 C
435 24-02-2019 12:10:00 5.9 C 72 % 1.25 C
436 24-02-2019 12:15:00 6.3 C 70 % 1.24 C
437 24-02-2019 12:20:00 6.6 C 69 % 1.33 C
438 24-02-2019 12:25:00 6.9 C 68 % 1.41 C
439 24-02-2019 12:30:00 7.4 C 67 % 1.69 C
440 24-02-2019 12:35:00 8.1 C 66 % 2.14 C
441 24-02-2019 12:40:00 8.6 C 63 % 1.97 C
442 24-02-2019 12:45:00 8.8 C 58 % 1 C
443 24-02-2019 12:50:00 9.1 C 58 % 1.29 C
444 24-02-2019 12:55:00 9.2 C 57 % 1.14 C
445 24-02-2019 13:00:00 9.2 C 55 % 0.64 C
446 24-02-2019 13:05:00 9.3 C 49 % -0.85 C
447 24-02-2019 13:10:00 9.4 C 48 % -1.04 C
448 24-02-2019 13:15:00 9.7 C 46 % -1.34 C
449 24-02-2019 13:20:00 9.9 C 42 % -2.39 C
450 24-02-2019 13:25:00 10.3 C 45 % -1.1 C
Sensor: Nr:Datum:Temp:Feuchte:Taupunkt:
Aussen-T/F 451 24-02-2019 13:30:00 10.6 C 44 % -1.13 C
452 24-02-2019 13:35:00 10.9 C 44 % -0.86 C
453 24-02-2019 13:40:00 11.2 C 40 % -1.88 C
454 24-02-2019 13:45:00 11.4 C 40 % -1.7 C
455 24-02-2019 13:50:00 11.7 C 40 % -1.43 C
456 24-02-2019 13:55:00 11.9 C 37 % -2.31 C
457 24-02-2019 14:00:00 11.9 C 35 % -3.05 C
458 24-02-2019 14:05:00 11.9 C 36 % -2.68 C
459 24-02-2019 14:10:00 11.9 C 36 % -2.68 C
460 24-02-2019 14:15:00 11.9 C 36 % -2.68 C
461 24-02-2019 14:20:00 11.9 C 38 % -1.95 C
462 24-02-2019 14:25:00 11.8 C 37 % -2.4 C
463 24-02-2019 14:30:00 11.8 C 37 % -2.4 C
464 24-02-2019 14:35:00 11.8 C 38 % -2.04 C
465 24-02-2019 14:40:00 11.8 C 40 % -1.34 C
466 24-02-2019 14:45:00 11.9 C 36 % -2.68 C
467 24-02-2019 14:50:00 12 C 35 % -2.97 C
468 24-02-2019 14:55:00 12.1 C 34 % -3.27 C
469 24-02-2019 15:00:00 12.2 C 36 % -2.41 C
470 24-02-2019 15:05:00 12.3 C 35 % -2.7 C
471 24-02-2019 15:10:00 12.4 C 35 % -2.61 C
472 24-02-2019 15:15:00 12.4 C 35 % -2.61 C
473 24-02-2019 15:20:00 12.5 C 34 % -2.91 C
474 24-02-2019 15:25:00 12.6 C 36 % -2.06 C
475 24-02-2019 15:30:00 12.6 C 39 % -0.97 C
Sensor: Nr:Datum:Temp:Feuchte:Taupunkt:
Aussen-T/F 476 24-02-2019 15:35:00 12.6 C 44 % 0.69 C
477 24-02-2019 15:40:00 12.4 C 42 % -0.14 C
478 24-02-2019 15:45:00 12.4 C 44 % 0.5 C
479 24-02-2019 15:50:00 12.3 C 44 % 0.41 C
480 24-02-2019 15:55:00 12.3 C 44 % 0.41 C
481 24-02-2019 16:00:00 12.3 C 45 % 0.72 C
482 24-02-2019 16:05:00 12.2 C 46 % 0.94 C
483 24-02-2019 16:10:00 12.3 C 41 % -0.56 C
484 24-02-2019 16:15:00 12.4 C 44 % 0.5 C
485 24-02-2019 16:20:00 12.3 C 45 % 0.72 C
486 24-02-2019 16:25:00 12.2 C 44 % 0.32 C
487 24-02-2019 16:30:00 11.9 C 46 % 0.66 C
488 24-02-2019 16:35:00 11.6 C 47 % 0.69 C
489 24-02-2019 16:40:00 11.3 C 48 % 0.7 C
490 24-02-2019 16:45:00 11.2 C 50 % 1.18 C
491 24-02-2019 16:50:00 11.1 C 51 % 1.36 C
492 24-02-2019 16:55:00 10.9 C 51 % 1.17 C
493 24-02-2019 17:00:00 10.8 C 52 % 1.35 C
494 24-02-2019 17:05:00 10.7 C 52 % 1.26 C
495 24-02-2019 17:10:00 10.7 C 52 % 1.26 C
496 24-02-2019 17:15:00 10.5 C 52 % 1.07 C
497 24-02-2019 17:20:00 10.4 C 52 % 0.98 C
498 24-02-2019 17:25:00 10.3 C 52 % 0.89 C
499 24-02-2019 17:30:00 10.3 C 52 % 0.89 C
500 24-02-2019 17:35:00 10.3 C 52 % 0.89 C
Sensor: Nr:Datum:Temp:Feuchte:Taupunkt:
Aussen-T/F 501 24-02-2019 17:40:00 10.2 C 53 % 1.06 C
502 24-02-2019 17:45:00 10 C 53 % 0.87 C
503 24-02-2019 17:50:00 9.8 C 53 % 0.69 C
504 24-02-2019 17:55:00 9.6 C 54 % 0.76 C
505 24-02-2019 18:00:00 9.3 C 55 % 0.74 C
506 24-02-2019 18:05:00 9.1 C 56 % 0.8 C
507 24-02-2019 18:10:00 8.8 C 56 % 0.52 C
508 24-02-2019 18:15:00 8.7 C 56 % 0.43 C
509 24-02-2019 18:20:00 8.6 C 56 % 0.33 C
510 24-02-2019 18:25:00 8.4 C 56 % 0.15 C
511 24-02-2019 18:30:00 8.4 C 57 % 0.39 C
512 24-02-2019 18:35:00 8.3 C 56 % 0.05 C
513 24-02-2019 18:40:00 8.2 C 57 % 0.2 C
514 24-02-2019 18:45:00 8 C 58 % 0.25 C
515 24-02-2019 18:50:00 7.8 C 59 % 0.3 C
516 24-02-2019 18:55:00 7.7 C 58 % -0.03 C
517 24-02-2019 19:00:00 7.6 C 59 % 0.11 C
518 24-02-2019 19:05:00 7.4 C 59 % -0.07 C
519 24-02-2019 19:10:00 7.2 C 60 % -0.03 C
520 24-02-2019 19:15:00 7.2 C 60 % -0.03 C
521 24-02-2019 19:20:00 7.1 C 59 % -0.36 C
522 24-02-2019 19:25:00 7 C 62 % 0.23 C
523 24-02-2019 19:30:00 6.8 C 61 % -0.18 C
524 24-02-2019 19:35:00 6.7 C 61 % -0.28 C
525 24-02-2019 19:40:00 6.6 C 62 % -0.15 C
Sensor: Nr:Datum:Temp:Feuchte:Taupunkt:
Aussen-T/F 526 24-02-2019 19:45:00 6.4 C 62 % -0.34 C
527 24-02-2019 19:50:00 6.3 C 64 % 0 C
528 24-02-2019 19:55:00 6.1 C 64 % -0.19 C
529 24-02-2019 20:00:00 5.9 C 62 % -0.81 C
530 24-02-2019 20:05:00 5.8 C 65 % -0.26 C
531 24-02-2019 20:10:00 5.7 C 64 % -0.56 C
532 24-02-2019 20:15:00 5.5 C 64 % -0.75 C
533 24-02-2019 20:20:00 5.2 C 65 % -0.83 C
534 24-02-2019 20:25:00 4.9 C 67 % -0.7 C
535 24-02-2019 20:30:00 4.6 C 69 % -0.58 C
536 24-02-2019 20:35:00 4.4 C 68 % -0.98 C
537 24-02-2019 20:40:00 4.3 C 67 % -1.27 C
538 24-02-2019 20:45:00 4.4 C 68 % -0.98 C
539 24-02-2019 20:50:00 4.3 C 68 % -1.07 C
540 24-02-2019 20:55:00 4.2 C 70 % -0.77 C
541 24-02-2019 21:00:00 4.1 C 71 % -0.67 C
542 24-02-2019 21:05:00 3.9 C 70 % -1.06 C
543 24-02-2019 21:10:00 3.8 C 71 % -0.96 C
544 24-02-2019 21:15:00 3.7 C 71 % -1.06 C
545 24-02-2019 21:20:00 3.7 C 71 % -1.06 C
546 24-02-2019 21:25:00 3.5 C 72 % -1.06 C
547 24-02-2019 21:30:00 3.3 C 71 % -1.44 C
548 24-02-2019 21:35:00 3.1 C 72 % -1.45 C
549 24-02-2019 21:40:00 2.9 C 73 % -1.45 C
550 24-02-2019 21:45:00 2.8 C 73 % -1.55 C
Sensor: Nr:Datum:Temp:Feuchte:Taupunkt:
Aussen-T/F 551 24-02-2019 21:50:00 2.8 C 72 % -1.73 C
552 24-02-2019 21:55:00 2.8 C 71 % -1.92 C
553 24-02-2019 22:00:00 2.8 C 71 % -1.92 C
554 24-02-2019 22:05:00 2.8 C 74 % -1.36 C
555 24-02-2019 22:10:00 2.6 C 76 % -1.19 C
556 24-02-2019 22:15:00 2.5 C 77 % -1.11 C
557 24-02-2019 22:20:00 2.4 C 76 % -1.39 C
558 24-02-2019 22:25:00 2.4 C 76 % -1.39 C
559 24-02-2019 22:30:00 2.4 C 74 % -1.75 C
560 24-02-2019 22:35:00 2.5 C 74 % -1.65 C
561 24-02-2019 22:40:00 2.6 C 74 % -1.56 C
562 24-02-2019 22:45:00 2.6 C 74 % -1.56 C
563 24-02-2019 22:50:00 2.5 C 74 % -1.65 C
564 24-02-2019 22:55:00 2.4 C 74 % -1.75 C
565 24-02-2019 23:00:00 2.2 C 75 % -1.76 C
566 24-02-2019 23:05:00 2.1 C 76 % -1.68 C
567 24-02-2019 23:10:00 1.9 C 77 % -1.69 C
568 24-02-2019 23:15:00 1.7 C 78 % -1.71 C
569 24-02-2019 23:20:00 1.6 C 79 % -1.64 C
570 24-02-2019 23:25:00 1.5 C 79 % -1.74 C
571 24-02-2019 23:30:00 1.6 C 78 % -1.81 C
572 24-02-2019 23:35:00 1.7 C 77 % -1.89 C
573 24-02-2019 23:40:00 1.8 C 77 % -1.79 C
574 24-02-2019 23:45:00 1.8 C 77 % -1.79 C
575 24-02-2019 23:50:00 1.9 C 77 % -1.69 C
Sensor: Nr:Datum:Temp:Feuchte:Taupunkt:
Aussen-T/F 576 24-02-2019 23:55:00 2 C 76 % -1.77 C
577 25-02-2019 00:00:00 1.8 C 76 % -1.97 C
578 25-02-2019 00:05:00 1.8 C 77 % -1.79 C
579 25-02-2019 00:10:00 1.7 C 77 % -1.89 C
580 25-02-2019 00:15:00 1.4 C 77 % -2.18 C
581 25-02-2019 00:20:00 1.3 C 78 % -2.1 C
582 25-02-2019 00:25:00 1.2 C 79 % -2.03 C
583 25-02-2019 00:30:00 1.1 C 80 % -1.96 C
584 25-02-2019 00:35:00 0.9 C 80 % -2.15 C
585 25-02-2019 00:40:00 0.8 C 80 % -2.25 C
586 25-02-2019 00:45:00 0.7 C 81 % -2.18 C
587 25-02-2019 00:50:00 0.7 C 81 % -2.18 C
588 25-02-2019 00:55:00 0.7 C 81 % -2.18 C
589 25-02-2019 01:00:00 1 C 81 % -1.88 C
590 25-02-2019 01:05:00 1.2 C 80 % -1.86 C
591 25-02-2019 01:10:00 1.3 C 80 % -1.76 C
592 25-02-2019 01:15:00 1.1 C 80 % -1.96 C
593 25-02-2019 01:20:00 0.9 C 81 % -1.98 C
594 25-02-2019 01:25:00 0.9 C 81 % -1.98 C
595 25-02-2019 01:30:00 0.9 C 81 % -1.98 C
596 25-02-2019 01:35:00 1 C 81 % -1.88 C
597 25-02-2019 01:40:00 0.9 C 81 % -1.98 C
598 25-02-2019 01:45:00 0.7 C 81 % -2.18 C
599 25-02-2019 01:50:00 0.6 C 82 % -2.11 C
600 25-02-2019 01:55:00 0.6 C 83 % -1.95 C
Sensor: Nr:Datum:Temp:Feuchte:Taupunkt:
Aussen-T/F 601 25-02-2019 02:00:00 0.7 C 83 % -1.85 C
602 25-02-2019 02:05:00 0.6 C 82 % -2.11 C
603 25-02-2019 02:10:00 0.4 C 82 % -2.3 C
604 25-02-2019 02:15:00 0.3 C 83 % -2.24 C
605 25-02-2019 02:20:00 0.2 C 83 % -2.34 C
606 25-02-2019 02:25:00 0 C 83 % -2.53 C
607 25-02-2019 02:30:00 -0.1 C 84 % -2.47 C
608 25-02-2019 02:35:00 -0.1 C 84 % -2.47 C
609 25-02-2019 02:40:00 -0.2 C 85 % -2.41 C
610 25-02-2019 02:45:00 -0.2 C 85 % -2.41 C
611 25-02-2019 02:50:00 -0.1 C 85 % -2.31 C
612 25-02-2019 02:55:00 0.1 C 85 % -2.11 C
613 25-02-2019 03:00:00 0.2 C 84 % -2.18 C
614 25-02-2019 03:05:00 0.3 C 84 % -2.08 C
615 25-02-2019 03:10:00 0.3 C 84 % -2.08 C
616 25-02-2019 03:15:00 0.3 C 83 % -2.24 C
617 25-02-2019 03:20:00 0.2 C 83 % -2.34 C
618 25-02-2019 03:25:00 0.1 C 83 % -2.44 C
619 25-02-2019 03:30:00 -0.1 C 83 % -2.63 C
620 25-02-2019 03:35:00 -0.2 C 84 % -2.57 C
621 25-02-2019 03:40:00 -0.2 C 85 % -2.41 C
622 25-02-2019 03:45:00 -0.3 C 85 % -2.51 C
623 25-02-2019 03:50:00 -0.3 C 85 % -2.51 C
624 25-02-2019 03:55:00 -0.4 C 85 % -2.61 C
625 25-02-2019 04:00:00 -0.5 C 85 % -2.71 C
Sensor: Nr:Datum:Temp:Feuchte:Taupunkt:
Aussen-T/F 626 25-02-2019 04:05:00 -0.5 C 86 % -2.55 C
627 25-02-2019 04:10:00 -0.5 C 86 % -2.55 C
628 25-02-2019 04:15:00 -0.5 C 86 % -2.55 C
629 25-02-2019 04:20:00 -0.6 C 86 % -2.65 C
630 25-02-2019 04:25:00 -0.6 C 86 % -2.65 C
631 25-02-2019 04:30:00 -0.6 C 86 % -2.65 C
632 25-02-2019 04:35:00 -0.6 C 86 % -2.65 C
633 25-02-2019 04:40:00 -0.6 C 86 % -2.65 C
634 25-02-2019 04:45:00 -0.7 C 86 % -2.74 C
635 25-02-2019 04:50:00 -0.7 C 87 % -2.59 C
636 25-02-2019 04:55:00 -0.6 C 87 % -2.49 C
637 25-02-2019 05:00:00 -0.6 C 87 % -2.49 C
638 25-02-2019 05:05:00 -0.6 C 87 % -2.49 C
639 25-02-2019 05:10:00 -0.6 C 87 % -2.49 C
640 25-02-2019 05:15:00 -0.6 C 87 % -2.49 C
641 25-02-2019 05:20:00 -0.7 C 87 % -2.59 C
642 25-02-2019 05:25:00 -0.8 C 87 % -2.69 C
643 25-02-2019 05:30:00 -0.8 C 87 % -2.69 C
644 25-02-2019 05:35:00 -0.8 C 87 % -2.69 C
645 25-02-2019 05:40:00 -0.9 C 87 % -2.79 C
646 25-02-2019 05:45:00 -0.8 C 88 % -2.53 C
647 25-02-2019 05:50:00 -0.7 C 88 % -2.44 C
648 25-02-2019 05:55:00 -0.6 C 88 % -2.34 C
649 25-02-2019 06:00:00 -0.6 C 88 % -2.34 C
650 25-02-2019 06:05:00 -0.6 C 87 % -2.49 C
Sensor: Nr:Datum:Temp:Feuchte:Taupunkt:
Aussen-T/F 651 25-02-2019 06:10:00 -0.7 C 87 % -2.59 C
652 25-02-2019 06:15:00 -0.8 C 87 % -2.69 C
653 25-02-2019 06:20:00 -0.8 C 88 % -2.53 C
654 25-02-2019 06:25:00 -0.8 C 88 % -2.53 C
655 25-02-2019 06:30:00 -0.9 C 88 % -2.63 C
656 25-02-2019 06:35:00 -1 C 88 % -2.73 C
657 25-02-2019 06:40:00 -1.1 C 88 % -2.83 C
658 25-02-2019 06:45:00 -1.1 C 88 % -2.83 C
659 25-02-2019 06:50:00 -1.1 C 89 % -2.68 C
660 25-02-2019 06:55:00 -0.9 C 89 % -2.48 C
661 25-02-2019 07:00:00 -0.9 C 88 % -2.63 C
662 25-02-2019 07:05:00 -1 C 88 % -2.73 C
663 25-02-2019 07:10:00 -1.1 C 88 % -2.83 C
664 25-02-2019 07:15:00 -1.1 C 88 % -2.83 C
665 25-02-2019 07:20:00 -1.2 C 88 % -2.93 C
666 25-02-2019 07:25:00 -1.2 C 88 % -2.93 C
667 25-02-2019 07:30:00 -1.3 C 88 % -3.03 C
668 25-02-2019 07:35:00 -1.3 C 88 % -3.03 C
669 25-02-2019 07:40:00 -1.3 C 88 % -3.03 C
670 25-02-2019 07:45:00 -1.4 C 88 % -3.13 C
671 25-02-2019 07:50:00 -1.4 C 89 % -2.97 C
672 25-02-2019 07:55:00 -1.4 C 89 % -2.97 C
673 25-02-2019 08:00:00 -1.4 C 89 % -2.97 C
674 25-02-2019 08:05:00 -1.3 C 90 % -2.73 C
675 25-02-2019 08:10:00 -1.2 C 90 % -2.63 C
Sensor: Nr:Datum:Temp:Feuchte:Taupunkt:
Aussen-T/F 676 25-02-2019 08:15:00 -1.2 C 90 % -2.63 C
677 25-02-2019 08:20:00 -1.2 C 89 % -2.78 C
678 25-02-2019 08:25:00 -1.3 C 89 % -2.88 C
679 25-02-2019 08:30:00 -1.2 C 90 % -2.63 C
680 25-02-2019 08:35:00 -1.2 C 90 % -2.63 C
681 25-02-2019 08:40:00 -1.1 C 90 % -2.53 C
682 25-02-2019 08:45:00 -1.1 C 90 % -2.53 C
683 25-02-2019 08:50:00 -1.1 C 90 % -2.53 C
684 25-02-2019 08:55:00 -1.1 C 90 % -2.53 C
685 25-02-2019 09:00:00 -0.9 C 90 % -2.33 C
686 25-02-2019 09:05:00 -0.9 C 89 % -2.48 C
687 25-02-2019 09:10:00 -0.9 C 89 % -2.48 C
688 25-02-2019 09:15:00 -0.9 C 89 % -2.48 C
689 25-02-2019 09:20:00 -0.8 C 89 % -2.38 C
690 25-02-2019 09:25:00 -0.8 C 89 % -2.38 C
691 25-02-2019 09:30:00 -0.7 C 89 % -2.28 C
692 25-02-2019 09:35:00 -0.6 C 89 % -2.18 C
693 25-02-2019 09:40:00 -0.6 C 89 % -2.18 C
694 25-02-2019 09:45:00 -0.5 C 88 % -2.24 C
695 25-02-2019 09:50:00 -0.4 C 88 % -2.14 C
696 25-02-2019 09:55:00 -0.3 C 88 % -2.04 C
697 25-02-2019 10:00:00 -0.3 C 88 % -2.04 C
698 25-02-2019 10:05:00 -0.2 C 88 % -1.94 C
699 25-02-2019 10:10:00 0 C 88 % -1.74 C
700 25-02-2019 10:15:00 0.1 C 87 % -1.8 C
Sensor: Nr:Datum:Temp:Feuchte:Taupunkt:
Aussen-T/F 701 25-02-2019 10:20:00 0.3 C 87 % -1.6 C
702 25-02-2019 10:25:00 0.5 C 87 % -1.41 C
703 25-02-2019 10:30:00 0.7 C 88 % -1.05 C
704 25-02-2019 10:35:00 1 C 87 % -0.91 C
705 25-02-2019 10:40:00 1.3 C 87 % -0.62 C
706 25-02-2019 10:45:00 1.7 C 87 % -0.23 C
707 25-02-2019 10:50:00 2.1 C 86 % 0.01 C
708 25-02-2019 10:55:00 2.6 C 85 % 0.34 C
709 25-02-2019 11:00:00 2.9 C 82 % 0.14 C
710 25-02-2019 11:05:00 3.3 C 81 % 0.36 C
711 25-02-2019 11:10:00 3.7 C 82 % 0.92 C
712 25-02-2019 11:15:00 3.9 C 79 % 0.6 C
713 25-02-2019 11:20:00 4.3 C 78 % 0.81 C
714 25-02-2019 11:25:00 4.6 C 77 % 0.92 C
715 25-02-2019 11:30:00 4.9 C 78 % 1.39 C
716 25-02-2019 11:35:00 5.1 C 77 % 1.41 C
717 25-02-2019 11:40:00 5.4 C 77 % 1.7 C
718 25-02-2019 11:45:00 5.8 C 76 % 1.91 C
719 25-02-2019 11:50:00 6 C 74 % 1.73 C
720 25-02-2019 11:55:00 6.2 C 72 % 1.54 C
721 25-02-2019 12:00:00 6.5 C 72 % 1.83 C
722 25-02-2019 12:05:00 6.8 C 72 % 2.12 C
723 25-02-2019 12:10:00 7.3 C 71 % 2.4 C
724 25-02-2019 12:15:00 7.7 C 70 % 2.58 C
725 25-02-2019 12:20:00 8.1 C 69 % 2.77 C
Sensor: Nr:Datum:Temp:Feuchte:Taupunkt:
Aussen-T/F 726 25-02-2019 12:25:00 8.4 C 69 % 3.05 C
727 25-02-2019 12:30:00 8.9 C 68 % 3.32 C
728 25-02-2019 12:35:00 9.5 C 66 % 3.47 C
729 25-02-2019 12:40:00 9.9 C 64 % 3.42 C
730 25-02-2019 12:45:00 10.3 C 62 % 3.35 C
731 25-02-2019 12:50:00 10.5 C 62 % 3.54 C
732 25-02-2019 12:55:00 10.6 C 61 % 3.4 C
733 25-02-2019 13:00:00 10.7 C 61 % 3.5 C
734 25-02-2019 13:05:00 11 C 62 % 4.01 C
735 25-02-2019 13:10:00 11.3 C 60 % 3.83 C
736 25-02-2019 13:15:00 11.6 C 53 % 2.36 C
737 25-02-2019 13:20:00 11.9 C 54 % 2.9 C
738 25-02-2019 13:25:00 12.3 C 47 % 1.33 C
739 25-02-2019 13:30:00 12.7 C 51 % 2.84 C
740 25-02-2019 13:35:00 13.1 C 50 % 2.93 C
741 25-02-2019 13:40:00 13.4 C 53 % 4.03 C
742 25-02-2019 13:45:00 13.8 C 51 % 3.85 C
743 25-02-2019 13:50:00 14.2 C 50 % 3.94 C
744 25-02-2019 13:55:00 14.6 C 48 % 3.73 C
745 25-02-2019 14:00:00 14.8 C 49 % 4.2 C
746 25-02-2019 14:05:00 14.9 C 48 % 4 C
747 25-02-2019 14:10:00 15 C 49 % 4.39 C
748 25-02-2019 14:15:00 15.1 C 48 % 4.18 C
749 25-02-2019 14:20:00 15 C 45 % 3.18 C
750 25-02-2019 14:25:00 14.9 C 45 % 3.09 C
Sensor: Nr:Datum:Temp:Feuchte:Taupunkt:
Aussen-T/F 751 25-02-2019 14:30:00 14.7 C 46 % 3.22 C
752 25-02-2019 14:35:00 14.6 C 46 % 3.12 C
753 25-02-2019 14:40:00 14.4 C 44 % 2.32 C
754 25-02-2019 14:45:00 14.4 C 46 % 2.94 C
755 25-02-2019 14:50:00 14.5 C 46 % 3.03 C
756 25-02-2019 14:55:00 14.6 C 48 % 3.73 C
757 25-02-2019 15:00:00 14.5 C 48 % 3.63 C
758 25-02-2019 15:05:00 14.5 C 46 % 3.03 C
759 25-02-2019 15:10:00 14.5 C 47 % 3.34 C
760 25-02-2019 15:15:00 14.4 C 50 % 4.12 C
761 25-02-2019 15:20:00 14.4 C 47 % 3.25 C
762 25-02-2019 15:25:00 14.3 C 49 % 3.74 C
763 25-02-2019 15:30:00 14.2 C 50 % 3.94 C
764 25-02-2019 15:35:00 14 C 51 % 4.04 C
765 25-02-2019 15:40:00 13.9 C 52 % 4.22 C
766 25-02-2019 15:45:00 13.8 C 52 % 4.13 C
767 25-02-2019 15:50:00 13.8 C 52 % 4.13 C
768 25-02-2019 15:55:00 13.8 C 51 % 3.85 C
769 25-02-2019 16:00:00 13.9 C 51 % 3.94 C
770 25-02-2019 16:05:00 13.9 C 51 % 3.94 C
771 25-02-2019 16:10:00 14.1 C 51 % 4.13 C
772 25-02-2019 16:15:00 14.1 C 46 % 2.67 C
773 25-02-2019 16:20:00 14.3 C 51 % 4.31 C
774 25-02-2019 16:25:00 14.5 C 48 % 3.63 C
775 25-02-2019 16:30:00 14.7 C 50 % 4.4 C
Sensor: Nr:Datum:Temp:Feuchte:Taupunkt:
Aussen-T/F 776 25-02-2019 16:35:00 14.7 C 50 % 4.4 C
777 25-02-2019 16:40:00 14.6 C 48 % 3.73 C
778 25-02-2019 16:45:00 14.6 C 49 % 4.02 C
779 25-02-2019 16:50:00 14.6 C 50 % 4.31 C
780 25-02-2019 16:55:00 14.5 C 50 % 4.21 C
781 25-02-2019 17:00:00 14.4 C 51 % 4.4 C
782 25-02-2019 17:05:00 14.2 C 51 % 4.22 C
783 25-02-2019 17:10:00 14.1 C 52 % 4.4 C
784 25-02-2019 17:15:00 13.9 C 52 % 4.22 C
785 25-02-2019 17:20:00 13.7 C 53 % 4.31 C
786 25-02-2019 17:25:00 13.6 C 53 % 4.21 C
787 25-02-2019 17:30:00 13.6 C 54 % 4.48 C
788 25-02-2019 17:35:00 13.6 C 53 % 4.21 C
789 25-02-2019 17:40:00 13.4 C 53 % 4.03 C
790 25-02-2019 17:45:00 13.3 C 54 % 4.2 C
791 25-02-2019 17:50:00 13.1 C 54 % 4.01 C
792 25-02-2019 17:55:00 12.8 C 55 % 4 C
793 25-02-2019 18:00:00 12.6 C 56 % 4.07 C
794 25-02-2019 18:05:00 12.2 C 56 % 3.69 C
795 25-02-2019 18:10:00 11.8 C 58 % 3.82 C
796 25-02-2019 18:15:00 11.4 C 58 % 3.44 C
797 25-02-2019 18:20:00 11.2 C 59 % 3.5 C
798 25-02-2019 18:25:00 11 C 60 % 3.55 C
799 25-02-2019 18:30:00 10.8 C 60 % 3.36 C
800 25-02-2019 18:35:00 10.7 C 61 % 3.5 C
Sensor: Nr:Datum:Temp:Feuchte:Taupunkt:
Aussen-T/F 801 25-02-2019 18:40:00 10.6 C 62 % 3.63 C
802 25-02-2019 18:45:00 10.4 C 62 % 3.44 C
803 25-02-2019 18:50:00 10.3 C 63 % 3.58 C
804 25-02-2019 18:55:00 10.2 C 63 % 3.48 C
805 25-02-2019 19:00:00 10 C 63 % 3.29 C
806 25-02-2019 19:05:00 9.8 C 64 % 3.32 C
807 25-02-2019 19:10:00 9.6 C 65 % 3.35 C
808 25-02-2019 19:15:00 9.4 C 66 % 3.38 C
809 25-02-2019 19:20:00 9.2 C 67 % 3.4 C
810 25-02-2019 19:25:00 8.9 C 68 % 3.32 C
811 25-02-2019 19:30:00 8.8 C 68 % 3.23 C
812 25-02-2019 19:35:00 8.8 C 68 % 3.23 C
813 25-02-2019 19:40:00 8.8 C 68 % 3.23 C
814 25-02-2019 19:45:00 8.7 C 68 % 3.13 C
815 25-02-2019 19:50:00 8.6 C 68 % 3.04 C
816 25-02-2019 19:55:00 8.3 C 69 % 2.96 C
817 25-02-2019 20:00:00 8.1 C 70 % 2.97 C
818 25-02-2019 20:05:00 8 C 71 % 3.07 C
819 25-02-2019 20:10:00 7.8 C 71 % 2.88 C
820 25-02-2019 20:15:00 7.4 C 72 % 2.69 C
821 25-02-2019 20:20:00 7.1 C 72 % 2.4 C
822 25-02-2019 20:25:00 6.9 C 73 % 2.4 C
823 25-02-2019 20:30:00 6.8 C 74 % 2.5 C
824 25-02-2019 20:35:00 6.8 C 75 % 2.69 C
825 25-02-2019 20:40:00 6.6 C 74 % 2.31 C
Sensor: Nr:Datum:Temp:Feuchte:Taupunkt:
Aussen-T/F 826 25-02-2019 20:45:00 6.4 C 74 % 2.11 C
827 25-02-2019 20:50:00 6.3 C 74 % 2.02 C
828 25-02-2019 20:55:00 6.3 C 75 % 2.2 C
829 25-02-2019 21:00:00 6.3 C 75 % 2.2 C
830 25-02-2019 21:05:00 6.1 C 75 % 2.01 C
831 25-02-2019 21:10:00 5.9 C 75 % 1.82 C
832 25-02-2019 21:15:00 5.9 C 75 % 1.82 C
833 25-02-2019 21:20:00 5.8 C 75 % 1.72 C
834 25-02-2019 21:25:00 5.6 C 76 % 1.71 C
835 25-02-2019 21:30:00 5.4 C 77 % 1.7 C
836 25-02-2019 21:35:00 5.3 C 77 % 1.6 C
837 25-02-2019 21:40:00 5.2 C 78 % 1.69 C
838 25-02-2019 21:45:00 5.2 C 78 % 1.69 C
839 25-02-2019 21:50:00 5.1 C 79 % 1.77 C
840 25-02-2019 21:55:00 5.1 C 79 % 1.77 C
841 25-02-2019 22:00:00 5 C 79 % 1.67 C
842 25-02-2019 22:05:00 5 C 78 % 1.49 C
843 25-02-2019 22:10:00 4.9 C 78 % 1.39 C
844 25-02-2019 22:15:00 4.8 C 79 % 1.47 C
845 25-02-2019 22:20:00 4.8 C 79 % 1.47 C
846 25-02-2019 22:25:00 4.7 C 79 % 1.38 C
847 25-02-2019 22:30:00 4.5 C 79 % 1.18 C
848 25-02-2019 22:35:00 4.4 C 80 % 1.26 C
849 25-02-2019 22:40:00 4.2 C 80 % 1.07 C
850 25-02-2019 22:45:00 4.2 C 80 % 1.07 C
Sensor: Nr:Datum:Temp:Feuchte:Taupunkt:
Aussen-T/F 851 25-02-2019 22:50:00 4.1 C 80 % 0.97 C
852 25-02-2019 22:55:00 4 C 82 % 1.21 C
853 25-02-2019 23:00:00 3.9 C 82 % 1.12 C
854 25-02-2019 23:05:00 3.8 C 83 % 1.19 C
855 25-02-2019 23:10:00 3.8 C 83 % 1.19 C
856 25-02-2019 23:15:00 3.7 C 82 % 0.92 C
857 25-02-2019 23:20:00 3.4 C 82 % 0.63 C
858 25-02-2019 23:25:00 3.2 C 83 % 0.6 C
859 25-02-2019 23:30:00 3.1 C 84 % 0.67 C
860 25-02-2019 23:35:00 3 C 84 % 0.57 C
861 25-02-2019 23:40:00 2.8 C 84 % 0.37 C
862 25-02-2019 23:45:00 2.7 C 85 % 0.44 C
863 25-02-2019 23:50:00 2.8 C 86 % 0.7 C
864 25-02-2019 23:55:00 2.8 C 85 % 0.54 C
865 26-02-2019 00:00:00 2.7 C 85 % 0.44 C
866 26-02-2019 00:05:00 2.8 C 86 % 0.7 C
867 26-02-2019 00:10:00 2.7 C 85 % 0.44 C
868 26-02-2019 00:15:00 2.6 C 86 % 0.5 C
869 26-02-2019 00:20:00 2.6 C 86 % 0.5 C
870 26-02-2019 00:25:00 2.6 C 86 % 0.5 C
871 26-02-2019 00:30:00 2.6 C 87 % 0.66 C
872 26-02-2019 00:35:00 2.5 C 86 % 0.4 C
873 26-02-2019 00:40:00 2.3 C 85 % 0.04 C
874 26-02-2019 00:45:00 2 C 86 % -0.09 C
875 26-02-2019 00:50:00 1.9 C 87 % -0.03 C
Sensor: Nr:Datum:Temp:Feuchte:Taupunkt:
Aussen-T/F 876 26-02-2019 00:55:00 1.8 C 88 % 0.03 C
877 26-02-2019 01:00:00 1.8 C 89 % 0.19 C
878 26-02-2019 01:05:00 1.9 C 89 % 0.28 C
879 26-02-2019 01:10:00 1.9 C 89 % 0.28 C
880 26-02-2019 01:15:00 1.9 C 88 % 0.13 C
881 26-02-2019 01:20:00 1.8 C 89 % 0.19 C
882 26-02-2019 01:25:00 1.9 C 89 % 0.28 C
883 26-02-2019 01:30:00 1.9 C 89 % 0.28 C
884 26-02-2019 01:35:00 2.1 C 90 % 0.64 C
885 26-02-2019 01:40:00 2.2 C 89 % 0.58 C
886 26-02-2019 01:45:00 2.1 C 88 % 0.33 C
887 26-02-2019 01:50:00 1.9 C 88 % 0.13 C
888 26-02-2019 01:55:00 1.8 C 88 % 0.03 C
889 26-02-2019 02:00:00 1.6 C 89 % -0.01 C
890 26-02-2019 02:05:00 1.6 C 89 % -0.01 C
891 26-02-2019 02:10:00 1.7 C 90 % 0.24 C
892 26-02-2019 02:15:00 1.7 C 90 % 0.24 C
893 26-02-2019 02:20:00 1.6 C 89 % -0.01 C
894 26-02-2019 02:25:00 1.4 C 89 % -0.21 C
895 26-02-2019 02:30:00 1.3 C 89 % -0.31 C
896 26-02-2019 02:35:00 1.3 C 90 % -0.15 C
897 26-02-2019 02:40:00 1.2 C 90 % -0.25 C
898 26-02-2019 02:45:00 1.3 C 91 % 0 C
899 26-02-2019 02:50:00 1.1 C 90 % -0.35 C
900 26-02-2019 02:55:00 0.9 C 89 % -0.7 C
Sensor: Nr:Datum:Temp:Feuchte:Taupunkt:
Aussen-T/F 901 26-02-2019 03:00:00 0.7 C 90 % -0.75 C
902 26-02-2019 03:05:00 0.6 C 90 % -0.85 C
903 26-02-2019 03:10:00 0.5 C 90 % -0.95 C
904 26-02-2019 03:15:00 0.4 C 91 % -0.89 C
905 26-02-2019 03:20:00 0.5 C 91 % -0.79 C
906 26-02-2019 03:25:00 0.5 C 91 % -0.79 C
907 26-02-2019 03:30:00 0.6 C 92 % -0.55 C
908 26-02-2019 03:35:00 0.8 C 92 % -0.35 C
909 26-02-2019 03:40:00 0.8 C 92 % -0.35 C
910 26-02-2019 03:45:00 0.7 C 91 % -0.6 C
911 26-02-2019 03:50:00 0.7 C 92 % -0.45 C
912 26-02-2019 03:55:00 0.8 C 92 % -0.35 C
913 26-02-2019 04:00:00 0.7 C 92 % -0.45 C
914 26-02-2019 04:05:00 0.4 C 91 % -0.89 C
915 26-02-2019 04:10:00 0.3 C 92 % -0.84 C
916 26-02-2019 04:15:00 0.3 C 92 % -0.84 C
917 26-02-2019 04:20:00 0.4 C 92 % -0.74 C
918 26-02-2019 04:25:00 0.4 C 92 % -0.74 C
919 26-02-2019 04:30:00 0.4 C 92 % -0.74 C
920 26-02-2019 04:35:00 0.3 C 92 % -0.84 C
921 26-02-2019 04:40:00 0.2 C 92 % -0.94 C
922 26-02-2019 04:45:00 0.1 C 92 % -1.04 C
923 26-02-2019 04:50:00 0.2 C 93 % -0.79 C
924 26-02-2019 04:55:00 0.2 C 93 % -0.79 C
925 26-02-2019 05:00:00 0.2 C 93 % -0.79 C
Sensor: Nr:Datum:Temp:Feuchte:Taupunkt:
Aussen-T/F 926 26-02-2019 05:05:00 0.1 C 93 % -0.89 C
927 26-02-2019 05:10:00 0.1 C 93 % -0.89 C
928 26-02-2019 05:15:00 0.1 C 93 % -0.89 C
929 26-02-2019 05:20:00 0 C 93 % -0.99 C
930 26-02-2019 05:25:00 0.1 C 93 % -0.89 C
931 26-02-2019 05:30:00 0.2 C 93 % -0.79 C
932 26-02-2019 05:35:00 0.3 C 93 % -0.7 C
933 26-02-2019 05:40:00 0.4 C 94 % -0.45 C
934 26-02-2019 05:45:00 0.4 C 93 % -0.6 C
935 26-02-2019 05:50:00 0.4 C 93 % -0.6 C
936 26-02-2019 05:55:00 0.3 C 93 % -0.7 C
937 26-02-2019 06:00:00 0.2 C 92 % -0.94 C
938 26-02-2019 06:05:00 -0.1 C 92 % -1.24 C
939 26-02-2019 06:10:00 -0.2 C 92 % -1.34 C
940 26-02-2019 06:15:00 -0.3 C 92 % -1.44 C
941 26-02-2019 06:20:00 -0.3 C 93 % -1.29 C
942 26-02-2019 06:25:00 -0.4 C 93 % -1.39 C
943 26-02-2019 06:30:00 -0.4 C 93 % -1.39 C
944 26-02-2019 06:35:00 -0.4 C 93 % -1.39 C
945 26-02-2019 06:40:00 -0.4 C 93 % -1.39 C
946 26-02-2019 06:45:00 -0.6 C 93 % -1.59 C
947 26-02-2019 06:50:00 -0.5 C 93 % -1.49 C
948 26-02-2019 06:55:00 -0.4 C 94 % -1.25 C
949 26-02-2019 07:00:00 -0.2 C 94 % -1.05 C
950 26-02-2019 07:05:00 -0.2 C 94 % -1.05 C
Sensor: Nr:Datum:Temp:Feuchte:Taupunkt:
Aussen-T/F 951 26-02-2019 07:10:00 -0.2 C 94 % -1.05 C
952 26-02-2019 07:15:00 -0.3 C 93 % -1.29 C
953 26-02-2019 07:20:00 -0.4 C 93 % -1.39 C
954 26-02-2019 07:25:00 -0.6 C 93 % -1.59 C
955 26-02-2019 07:30:00 -0.8 C 93 % -1.79 C
956 26-02-2019 07:35:00 -0.8 C 93 % -1.79 C
957 26-02-2019 07:40:00 -0.8 C 94 % -1.64 C
958 26-02-2019 07:45:00 -0.6 C 94 % -1.44 C
959 26-02-2019 07:50:00 -0.5 C 94 % -1.34 C
960 26-02-2019 07:55:00 -0.4 C 94 % -1.25 C
961 26-02-2019 08:00:00 -0.4 C 94 % -1.25 C
962 26-02-2019 08:05:00 -0.3 C 94 % -1.15 C
963 26-02-2019 08:10:00 -0.3 C 94 % -1.15 C
964 26-02-2019 08:15:00 -0.3 C 94 % -1.15 C
965 26-02-2019 08:20:00 -0.3 C 94 % -1.15 C
966 26-02-2019 08:25:00 -0.3 C 94 % -1.15 C
967 26-02-2019 08:30:00 -0.2 C 94 % -1.05 C
968 26-02-2019 08:35:00 -0.1 C 95 % -0.8 C
969 26-02-2019 08:40:00 0 C 95 % -0.7 C
970 26-02-2019 08:45:00 0.2 C 95 % -0.5 C
971 26-02-2019 08:50:00 0.3 C 95 % -0.4 C
972 26-02-2019 08:55:00 0.4 C 95 % -0.31 C
973 26-02-2019 09:00:00 0.4 C 94 % -0.45 C
974 26-02-2019 09:05:00 0.4 C 94 % -0.45 C
975 26-02-2019 09:10:00 0.5 C 94 % -0.35 C
Sensor: Nr:Datum:Temp:Feuchte:Taupunkt:
Aussen-T/F 976 26-02-2019 09:15:00 0.6 C 95 % -0.11 C
977 26-02-2019 09:20:00 0.7 C 95 % -0.01 C
978 26-02-2019 09:25:00 0.8 C 95 % 0.09 C
979 26-02-2019 09:30:00 0.9 C 95 % 0.19 C
980 26-02-2019 09:35:00 0.9 C 95 % 0.19 C
981 26-02-2019 09:40:00 0.9 C 95 % 0.19 C
982 26-02-2019 09:45:00 1.1 C 95 % 0.39 C
983 26-02-2019 09:50:00 1.2 C 95 % 0.49 C
984 26-02-2019 09:55:00 1.3 C 95 % 0.59 C
985 26-02-2019 10:00:00 1.6 C 95 % 0.89 C
986 26-02-2019 10:05:00 1.7 C 95 % 0.99 C
987 26-02-2019 10:10:00 1.8 C 95 % 1.09 C
988 26-02-2019 10:15:00 1.9 C 95 % 1.19 C
989 26-02-2019 10:20:00 2.1 C 95 % 1.38 C
990 26-02-2019 10:25:00 2.3 C 95 % 1.58 C
991 26-02-2019 10:30:00 2.5 C 95 % 1.78 C
992 26-02-2019 10:35:00 2.9 C 95 % 2.18 C
993 26-02-2019 10:40:00 3.2 C 94 % 2.33 C
994 26-02-2019 10:45:00 3.5 C 94 % 2.63 C
995 26-02-2019 10:50:00 3.8 C 93 % 2.77 C
996 26-02-2019 10:55:00 4 C 92 % 2.82 C
997 26-02-2019 11:00:00 4.3 C 91 % 2.96 C
998 26-02-2019 11:05:00 4.5 C 90 % 3.01 C
999 26-02-2019 11:10:00 4.8 C 90 % 3.3 C
1000 26-02-2019 11:15:00 5.1 C 90 % 3.6 C
Sensor: Nr:Datum:Temp:Feuchte:Taupunkt:
Aussen-T/F 1001 26-02-2019 11:20:00 5.4 C 90 % 3.89 C
1002 26-02-2019 11:25:00 5.7 C 89 % 4.03 C
1003 26-02-2019 11:30:00 5.9 C 87 % 3.91 C
1004 26-02-2019 11:35:00 6.2 C 85 % 3.87 C
1005 26-02-2019 11:40:00 6.4 C 84 % 3.9 C
1006 26-02-2019 11:45:00 6.7 C 82 % 3.85 C
1007 26-02-2019 11:50:00 6.9 C 81 % 3.87 C
1008 26-02-2019 11:55:00 7.1 C 81 % 4.07 C
1009 26-02-2019 12:00:00 7.3 C 81 % 4.26 C
1010 26-02-2019 12:05:00 7.5 C 80 % 4.28 C
1011 26-02-2019 12:10:00 7.8 C 76 % 3.84 C
1012 26-02-2019 12:15:00 8.3 C 75 % 4.14 C
1013 26-02-2019 12:20:00 8.8 C 73 % 4.24 C
1014 26-02-2019 12:25:00 9.3 C 73 % 4.72 C
1015 26-02-2019 12:30:00 9.8 C 71 % 4.8 C
1016 26-02-2019 12:35:00 10.3 C 69 % 4.87 C
1017 26-02-2019 12:40:00 10.8 C 69 % 5.35 C
1018 26-02-2019 12:45:00 11.2 C 65 % 4.87 C
1019 26-02-2019 12:50:00 11.4 C 68 % 5.71 C
1020 26-02-2019 12:55:00 11.6 C 69 % 6.11 C
1021 26-02-2019 13:00:00 11.7 C 68 % 6 C
1022 26-02-2019 13:05:00 11.9 C 68 % 6.19 C
1023 26-02-2019 13:10:00 12.3 C 70 % 6.99 C
1024 26-02-2019 13:15:00 12.7 C 69 % 7.17 C
1025 26-02-2019 13:20:00 13.2 C 67 % 7.21 C
Sensor: Nr:Datum:Temp:Feuchte:Taupunkt:
Aussen-T/F 1026 26-02-2019 13:25:00 13.7 C 66 % 7.47 C
1027 26-02-2019 13:30:00 14.1 C 66 % 7.85 C
1028 26-02-2019 13:35:00 14.5 C 65 % 8.01 C
1029 26-02-2019 13:40:00 14.9 C 64 % 8.16 C
1030 26-02-2019 13:45:00 15.4 C 61 % 7.93 C
1031 26-02-2019 13:50:00 15.8 C 60 % 8.06 C
1032 26-02-2019 13:55:00 16.1 C 59 % 8.09 C
1033 26-02-2019 14:00:00 16.4 C 58 % 8.12 C
1034 26-02-2019 14:05:00 16.6 C 55 % 7.53 C
1035 26-02-2019 14:10:00 16.7 C 55 % 7.62 C
1036 26-02-2019 14:15:00 16.8 C 54 % 7.45 C
1037 26-02-2019 14:20:00 16.7 C 54 % 7.36 C
1038 26-02-2019 14:25:00 16.4 C 54 % 7.08 C
1039 26-02-2019 14:30:00 16.2 C 54 % 6.89 C
1040 26-02-2019 14:35:00 15.9 C 54 % 6.61 C
1041 26-02-2019 14:40:00 15.7 C 56 % 6.96 C
1042 26-02-2019 14:45:00 15.6 C 56 % 6.86 C
1043 26-02-2019 14:50:00 15.5 C 57 % 7.03 C
1044 26-02-2019 14:55:00 15.4 C 57 % 6.93 C
1045 26-02-2019 15:00:00 15.3 C 55 % 6.32 C
1046 26-02-2019 15:05:00 15.4 C 57 % 6.93 C
1047 26-02-2019 15:10:00 15.5 C 56 % 6.77 C
1048 26-02-2019 15:15:00 15.5 C 56 % 6.77 C
1049 26-02-2019 15:20:00 15.5 C 55 % 6.51 C
1050 26-02-2019 15:25:00 15.5 C 55 % 6.51 C
Sensor: Nr:Datum:Temp:Feuchte:Taupunkt:
Aussen-T/F 1051 26-02-2019 15:30:00 15.4 C 55 % 6.42 C
1052 26-02-2019 15:35:00 15.4 C 54 % 6.15 C
1053 26-02-2019 15:40:00 15.6 C 55 % 6.6 C
1054 26-02-2019 15:45:00 15.6 C 55 % 6.6 C
1055 26-02-2019 15:50:00 15.6 C 55 % 6.6 C
1056 26-02-2019 15:55:00 15.6 C 55 % 6.6 C
1057 26-02-2019 16:00:00 15.6 C 54 % 6.34 C
1058 26-02-2019 16:05:00 15.7 C 54 % 6.43 C
1059 26-02-2019 16:10:00 15.7 C 54 % 6.43 C
1060 26-02-2019 16:15:00 15.7 C 54 % 6.43 C
1061 26-02-2019 16:20:00 15.7 C 55 % 6.69 C
1062 26-02-2019 16:25:00 15.6 C 54 % 6.34 C
1063 26-02-2019 16:30:00 15.5 C 55 % 6.51 C
1064 26-02-2019 16:35:00 15.4 C 56 % 6.68 C
1065 26-02-2019 16:40:00 15.2 C 57 % 6.75 C
1066 26-02-2019 16:45:00 15.1 C 57 % 6.65 C
1067 26-02-2019 16:50:00 15.1 C 58 % 6.91 C
1068 26-02-2019 16:55:00 15 C 58 % 6.81 C
1069 26-02-2019 17:00:00 14.9 C 58 % 6.72 C
1070 26-02-2019 17:05:00 14.9 C 58 % 6.72 C
1071 26-02-2019 17:10:00 14.9 C 58 % 6.72 C
1072 26-02-2019 17:15:00 14.8 C 59 % 6.87 C
1073 26-02-2019 17:20:00 14.8 C 59 % 6.87 C
1074 26-02-2019 17:25:00 14.9 C 59 % 6.97 C
1075 26-02-2019 17:30:00 14.9 C 58 % 6.72 C
Sensor: Nr:Datum:Temp:Feuchte:Taupunkt:
Aussen-T/F 1076 26-02-2019 17:35:00 14.8 C 58 % 6.63 C
1077 26-02-2019 17:40:00 14.8 C 58 % 6.63 C
1078 26-02-2019 17:45:00 14.7 C 59 % 6.78 C
1079 26-02-2019 17:50:00 14.5 C 59 % 6.59 C
1080 26-02-2019 17:55:00 14.2 C 59 % 6.31 C
1081 26-02-2019 18:00:00 13.9 C 60 % 6.27 C
1082 26-02-2019 18:05:00 13.6 C 61 % 6.23 C
1083 26-02-2019 18:10:00 13.3 C 61 % 5.95 C
1084 26-02-2019 18:15:00 13 C 62 % 5.9 C
1085 26-02-2019 18:20:00 12.8 C 63 % 5.94 C
1086 26-02-2019 18:25:00 12.6 C 64 % 5.98 C
1087 26-02-2019 18:30:00 12.3 C 64 % 5.69 C
1088 26-02-2019 18:35:00 12.2 C 64 % 5.6 C
1089 26-02-2019 18:40:00 12.1 C 65 % 5.73 C
1090 26-02-2019 18:45:00 11.9 C 66 % 5.76 C
1091 26-02-2019 18:50:00 11.7 C 66 % 5.57 C
1092 26-02-2019 18:55:00 11.4 C 67 % 5.5 C
1093 26-02-2019 19:00:00 11.3 C 68 % 5.62 C
1094 26-02-2019 19:05:00 11.1 C 68 % 5.43 C
1095 26-02-2019 19:10:00 10.8 C 69 % 5.35 C
1096 26-02-2019 19:15:00 10.7 C 70 % 5.46 C
1097 26-02-2019 19:20:00 10.6 C 71 % 5.57 C
1098 26-02-2019 19:25:00 10.4 C 71 % 5.38 C
1099 26-02-2019 19:30:00 10.4 C 72 % 5.58 C
1100 26-02-2019 19:35:00 10.3 C 72 % 5.48 C
Sensor: Nr:Datum:Temp:Feuchte:Taupunkt:
Aussen-T/F 1101 26-02-2019 19:40:00 10.1 C 72 % 5.29 C
1102 26-02-2019 19:45:00 9.7 C 73 % 5.1 C
1103 26-02-2019 19:50:00 9.4 C 75 % 5.2 C
1104 26-02-2019 19:55:00 9.3 C 75 % 5.1 C
1105 26-02-2019 20:00:00 9.2 C 74 % 4.81 C
1106 26-02-2019 20:05:00 8.8 C 74 % 4.43 C
1107 26-02-2019 20:10:00 8.6 C 75 % 4.43 C
1108 26-02-2019 20:15:00 8.5 C 76 % 4.52 C
1109 26-02-2019 20:20:00 8.4 C 77 % 4.61 C
1110 26-02-2019 20:25:00 8.1 C 77 % 4.32 C
1111 26-02-2019 20:30:00 7.9 C 77 % 4.12 C
1112 26-02-2019 20:35:00 7.9 C 77 % 4.12 C
1113 26-02-2019 20:40:00 7.9 C 77 % 4.12 C
1114 26-02-2019 20:45:00 7.8 C 77 % 4.03 C
1115 26-02-2019 20:50:00 7.7 C 77 % 3.93 C
1116 26-02-2019 20:55:00 7.4 C 78 % 3.82 C
1117 26-02-2019 21:00:00 7.3 C 79 % 3.91 C
1118 26-02-2019 21:05:00 7.2 C 79 % 3.81 C
1119 26-02-2019 21:10:00 7 C 79 % 3.61 C
1120 26-02-2019 21:15:00 6.9 C 80 % 3.7 C
1121 26-02-2019 21:20:00 6.7 C 81 % 3.68 C
1122 26-02-2019 21:25:00 6.8 C 83 % 4.12 C
1123 26-02-2019 21:30:00 6.8 C 82 % 3.95 C
1124 26-02-2019 21:35:00 6.8 C 81 % 3.77 C
1125 26-02-2019 21:40:00 6.7 C 81 % 3.68 C
Sensor: Nr:Datum:Temp:Feuchte:Taupunkt:
Aussen-T/F 1126 26-02-2019 21:45:00 6.6 C 82 % 3.75 C
1127 26-02-2019 21:50:00 6.4 C 82 % 3.56 C
1128 26-02-2019 21:55:00 6.4 C 82 % 3.56 C
1129 26-02-2019 22:00:00 6.3 C 82 % 3.46 C
1130 26-02-2019 22:05:00 6.2 C 83 % 3.53 C
1131 26-02-2019 22:10:00 6.2 C 83 % 3.53 C
1132 26-02-2019 22:15:00 6.2 C 82 % 3.36 C
1133 26-02-2019 22:20:00 5.9 C 82 % 3.07 C
1134 26-02-2019 22:25:00 5.7 C 83 % 3.04 C
1135 26-02-2019 22:30:00 5.6 C 84 % 3.12 C
1136 26-02-2019 22:35:00 5.4 C 84 % 2.92 C
1137 26-02-2019 22:40:00 5.2 C 84 % 2.72 C
1138 26-02-2019 22:45:00 4.9 C 85 % 2.6 C
1139 26-02-2019 22:50:00 4.9 C 86 % 2.76 C
1140 26-02-2019 22:55:00 4.9 C 87 % 2.92 C
1141 26-02-2019 23:00:00 4.8 C 85 % 2.5 C
1142 26-02-2019 23:05:00 4.7 C 86 % 2.56 C
1143 26-02-2019 23:10:00 4.7 C 87 % 2.73 C
1144 26-02-2019 23:15:00 4.8 C 88 % 2.99 C
1145 26-02-2019 23:20:00 4.8 C 87 % 2.82 C
1146 26-02-2019 23:25:00 4.8 C 87 % 2.82 C
1147 26-02-2019 23:30:00 4.6 C 86 % 2.47 C
1148 26-02-2019 23:35:00 4.4 C 86 % 2.27 C
1149 26-02-2019 23:40:00 4.3 C 87 % 2.33 C
1150 26-02-2019 23:45:00 4.3 C 88 % 2.49 C
Sensor: Nr:Datum:Temp:Feuchte:Taupunkt:
Aussen-T/F 1151 26-02-2019 23:50:00 4.3 C 89 % 2.65 C
1152 26-02-2019 23:55:00 4.3 C 88 % 2.49 C
1153 27-02-2019 00:00:00 4.1 C 88 % 2.3 C
1154 27-02-2019 00:05:00 4 C 88 % 2.2 C
1155 27-02-2019 00:10:00 3.8 C 89 % 2.16 C
1156 27-02-2019 00:15:00 3.6 C 88 % 1.8 C
1157 27-02-2019 00:20:00 3.6 C 89 % 1.96 C
1158 27-02-2019 00:25:00 3.6 C 90 % 2.12 C
1159 27-02-2019 00:30:00 3.6 C 90 % 2.12 C
1160 27-02-2019 00:35:00 3.5 C 90 % 2.02 C
1161 27-02-2019 00:40:00 3.3 C 89 % 1.67 C
1162 27-02-2019 00:45:00 3.1 C 89 % 1.47 C
1163 27-02-2019 00:50:00 3.2 C 91 % 1.88 C
1164 27-02-2019 00:55:00 3.3 C 91 % 1.98 C
1165 27-02-2019 01:00:00 3.2 C 90 % 1.72 C
1166 27-02-2019 01:05:00 3 C 90 % 1.52 C
1167 27-02-2019 01:10:00 2.9 C 90 % 1.43 C
1168 27-02-2019 01:15:00 2.8 C 91 % 1.48 C
1169 27-02-2019 01:20:00 2.8 C 91 % 1.48 C
1170 27-02-2019 01:25:00 2.9 C 92 % 1.73 C
1171 27-02-2019 01:30:00 3 C 92 % 1.83 C
1172 27-02-2019 01:35:00 2.9 C 91 % 1.58 C
1173 27-02-2019 01:40:00 2.8 C 91 % 1.48 C
1174 27-02-2019 01:45:00 2.7 C 92 % 1.53 C
1175 27-02-2019 01:50:00 2.7 C 92 % 1.53 C
Sensor: Nr:Datum:Temp:Feuchte:Taupunkt:
Aussen-T/F 1176 27-02-2019 01:55:00 2.5 C 91 % 1.18 C
1177 27-02-2019 02:00:00 2.3 C 91 % 0.99 C
1178 27-02-2019 02:05:00 2.3 C 91 % 0.99 C
1179 27-02-2019 02:10:00 2.2 C 92 % 1.04 C
1180 27-02-2019 02:15:00 2.2 C 92 % 1.04 C
1181 27-02-2019 02:20:00 2 C 92 % 0.84 C
1182 27-02-2019 02:25:00 2.1 C 93 % 1.09 C
1183 27-02-2019 02:30:00 2.3 C 93 % 1.29 C
1184 27-02-2019 02:35:00 2.6 C 94 % 1.73 C
1185 27-02-2019 02:40:00 2.6 C 94 % 1.73 C
1186 27-02-2019 02:45:00 2.4 C 92 % 1.24 C
1187 27-02-2019 02:50:00 2.1 C 92 % 0.94 C
1188 27-02-2019 02:55:00 1.9 C 92 % 0.74 C
1189 27-02-2019 03:00:00 1.9 C 93 % 0.89 C
1190 27-02-2019 03:05:00 1.9 C 93 % 0.89 C
1191 27-02-2019 03:10:00 1.9 C 93 % 0.89 C
1192 27-02-2019 03:15:00 1.7 C 92 % 0.54 C
1193 27-02-2019 03:20:00 1.6 C 93 % 0.59 C
1194 27-02-2019 03:25:00 1.5 C 93 % 0.49 C
1195 27-02-2019 03:30:00 1.3 C 93 % 0.3 C
1196 27-02-2019 03:35:00 1.2 C 93 % 0.2 C
1197 27-02-2019 03:40:00 1.3 C 94 % 0.44 C
1198 27-02-2019 03:45:00 1.3 C 93 % 0.3 C
1199 27-02-2019 03:50:00 1 C 93 % 0 C
1200 27-02-2019 03:55:00 0.9 C 93 % -0.1 C
Sensor: Nr:Datum:Temp:Feuchte:Taupunkt:
Aussen-T/F 1201 27-02-2019 04:00:00 1 C 94 % 0.15 C
1202 27-02-2019 04:05:00 0.9 C 93 % -0.1 C
1203 27-02-2019 04:10:00 0.9 C 94 % 0.05 C
1204 27-02-2019 04:15:00 1 C 94 % 0.15 C
1205 27-02-2019 04:20:00 0.9 C 94 % 0.05 C
1206 27-02-2019 04:25:00 0.8 C 93 % -0.2 C
1207 27-02-2019 04:30:00 0.7 C 94 % -0.15 C
1208 27-02-2019 04:35:00 0.7 C 94 % -0.15 C
1209 27-02-2019 04:40:00 0.7 C 94 % -0.15 C
1210 27-02-2019 04:45:00 0.6 C 94 % -0.25 C
1211 27-02-2019 04:50:00 0.6 C 94 % -0.25 C
1212 27-02-2019 04:55:00 0.6 C 94 % -0.25 C
1213 27-02-2019 05:00:00 0.7 C 94 % -0.15 C
1214 27-02-2019 05:05:00 0.7 C 94 % -0.15 C
1215 27-02-2019 05:10:00 0.6 C 94 % -0.25 C
1216 27-02-2019 05:15:00 0.6 C 95 % -0.11 C
1217 27-02-2019 05:20:00 0.6 C 95 % -0.11 C
1218 27-02-2019 05:25:00 0.6 C 95 % -0.11 C
1219 27-02-2019 05:30:00 0.5 C 94 % -0.35 C
1220 27-02-2019 05:35:00 0.4 C 94 % -0.45 C
1221 27-02-2019 05:40:00 0.4 C 94 % -0.45 C
1222 27-02-2019 05:45:00 0.4 C 95 % -0.31 C
1223 27-02-2019 05:50:00 0.3 C 95 % -0.4 C
1224 27-02-2019 05:55:00 0.2 C 94 % -0.65 C
1225 27-02-2019 06:00:00 0.2 C 94 % -0.65 C
Sensor: Nr:Datum:Temp:Feuchte:Taupunkt:
Aussen-T/F 1226 27-02-2019 06:05:00 0.2 C 95 % -0.5 C
1227 27-02-2019 06:10:00 0.2 C 95 % -0.5 C
1228 27-02-2019 06:15:00 0.1 C 95 % -0.6 C
1229 27-02-2019 06:20:00 0 C 95 % -0.7 C
1230 27-02-2019 06:25:00 0.1 C 95 % -0.6 C
1231 27-02-2019 06:30:00 0.2 C 95 % -0.5 C
1232 27-02-2019 06:35:00 0.3 C 95 % -0.4 C
1233 27-02-2019 06:40:00 0.3 C 95 % -0.4 C
1234 27-02-2019 06:45:00 0.1 C 95 % -0.6 C
1235 27-02-2019 06:50:00 -0.1 C 95 % -0.8 C
1236 27-02-2019 06:55:00 -0.1 C 95 % -0.8 C
1237 27-02-2019 07:00:00 -0.2 C 95 % -0.9 C
1238 27-02-2019 07:05:00 -0.2 C 95 % -0.9 C
1239 27-02-2019 07:10:00 -0.2 C 95 % -0.9 C
1240 27-02-2019 07:15:00 -0.2 C 95 % -0.9 C
1241 27-02-2019 07:20:00 -0.3 C 95 % -1 C
1242 27-02-2019 07:25:00 -0.4 C 95 % -1.1 C
1243 27-02-2019 07:30:00 -0.6 C 95 % -1.3 C
1244 27-02-2019 07:35:00 -0.6 C 95 % -1.3 C
1245 27-02-2019 07:40:00 -0.6 C 95 % -1.3 C
1246 27-02-2019 07:45:00 -0.4 C 95 % -1.1 C
1247 27-02-2019 07:50:00 -0.4 C 95 % -1.1 C
1248 27-02-2019 07:55:00 -0.4 C 95 % -1.1 C
1249 27-02-2019 08:00:00 -0.4 C 95 % -1.1 C
1250 27-02-2019 08:05:00 -0.4 C 95 % -1.1 C
Sensor: Nr:Datum:Temp:Feuchte:Taupunkt:
Aussen-T/F 1251 27-02-2019 08:10:00 -0.4 C 95 % -1.1 C
1252 27-02-2019 08:15:00 -0.4 C 95 % -1.1 C
1253 27-02-2019 08:20:00 -0.4 C 95 % -1.1 C
1254 27-02-2019 08:25:00 -0.4 C 95 % -1.1 C
1255 27-02-2019 08:30:00 -0.3 C 96 % -0.86 C
1256 27-02-2019 08:35:00 -0.2 C 96 % -0.76 C
1257 27-02-2019 08:40:00 -0.2 C 96 % -0.76 C
1258 27-02-2019 08:45:00 -0.1 C 96 % -0.66 C
1259 27-02-2019 08:50:00 0 C 96 % -0.56 C
1260 27-02-2019 08:55:00 0.1 C 96 % -0.46 C
1261 27-02-2019 09:00:00 0.1 C 96 % -0.46 C
1262 27-02-2019 09:05:00 0.2 C 96 % -0.36 C
1263 27-02-2019 09:10:00 0.2 C 96 % -0.36 C
1264 27-02-2019 09:15:00 0.2 C 96 % -0.36 C
1265 27-02-2019 09:20:00 0.2 C 96 % -0.36 C
1266 27-02-2019 09:25:00 0.3 C 96 % -0.26 C
1267 27-02-2019 09:30:00 0.3 C 96 % -0.26 C
1268 27-02-2019 09:35:00 0.4 C 96 % -0.16 C
1269 27-02-2019 09:40:00 0.6 C 96 % 0.04 C
1270 27-02-2019 09:45:00 0.7 C 96 % 0.14 C
1271 27-02-2019 09:50:00 0.8 C 96 % 0.24 C
1272 27-02-2019 09:55:00 1 C 96 % 0.44 C
1273 27-02-2019 10:00:00 1.2 C 96 % 0.63 C
1274 27-02-2019 10:05:00 1.3 C 96 % 0.73 C
1275 27-02-2019 10:10:00 1.4 C 96 % 0.83 C
Sensor: Nr:Datum:Temp:Feuchte:Taupunkt:
Aussen-T/F 1276 27-02-2019 10:15:00 1.6 C 97 % 1.18 C
1277 27-02-2019 10:20:00 1.7 C 96 % 1.13 C
1278 27-02-2019 10:25:00 2 C 97 % 1.58 C
1279 27-02-2019 10:30:00 2.4 C 97 % 1.97 C
1280 27-02-2019 10:35:00 2.8 C 97 % 2.37 C
1281 27-02-2019 10:40:00 3.2 C 97 % 2.77 C
1282 27-02-2019 10:45:00 3.4 C 97 % 2.97 C
1283 27-02-2019 10:50:00 3.7 C 97 % 3.27 C
1284 27-02-2019 10:55:00 4.1 C 97 % 3.67 C
1285 27-02-2019 11:00:00 4.3 C 97 % 3.87 C
1286 27-02-2019 11:05:00 4.5 C 97 % 4.07 C
1287 27-02-2019 11:10:00 4.7 C 97 % 4.27 C
1288 27-02-2019 11:15:00 5 C 97 % 4.56 C
1289 27-02-2019 11:20:00 5.2 C 97 % 4.76 C
1290 27-02-2019 11:25:00 5.4 C 97 % 4.96 C
1291 27-02-2019 11:30:00 5.7 C 96 % 5.11 C
1292 27-02-2019 11:35:00 5.8 C 95 % 5.06 C
1293 27-02-2019 11:40:00 6 C 94 % 5.11 C
1294 27-02-2019 11:45:00 6.2 C 93 % 5.15 C
1295 27-02-2019 11:50:00 6.5 C 91 % 5.14 C
1296 27-02-2019 11:55:00 6.7 C 90 % 5.18 C
1297 27-02-2019 12:00:00 7 C 89 % 5.31 C
1298 27-02-2019 12:05:00 7.4 C 90 % 5.87 C
1299 27-02-2019 12:10:00 7.8 C 88 % 5.94 C
1300 27-02-2019 12:15:00 8.4 C 89 % 6.7 C
Sensor: Nr:Datum:Temp:Feuchte:Taupunkt:
Aussen-T/F 1301 27-02-2019 12:20:00 9.1 C 87 % 7.05 C
1302 27-02-2019 12:25:00 9.6 C 85 % 7.21 C
1303 27-02-2019 12:30:00 10.2 C 83 % 7.45 C
1304 27-02-2019 12:35:00 10.8 C 81 % 7.67 C
1305 27-02-2019 12:40:00 11.3 C 80 % 7.98 C
1306 27-02-2019 12:45:00 11.7 C 74 % 7.23 C
1307 27-02-2019 12:50:00 11.8 C 74 % 7.32 C
1308 27-02-2019 12:55:00 12 C 73 % 7.32 C
1309 27-02-2019 13:00:00 12.4 C 73 % 7.7 C
1310 27-02-2019 13:05:00 12.7 C 73 % 7.99 C
1311 27-02-2019 13:10:00 13.1 C 72 % 8.17 C
1312 27-02-2019 13:15:00 13.5 C 72 % 8.56 C
1313 27-02-2019 13:20:00 14.1 C 68 % 8.29 C
1314 27-02-2019 13:25:00 14.6 C 67 % 8.55 C
1315 27-02-2019 13:30:00 15.1 C 65 % 8.58 C
1316 27-02-2019 13:35:00 15.4 C 63 % 8.4 C
1317 27-02-2019 13:40:00 15.8 C 62 % 8.54 C
1318 27-02-2019 13:45:00 16.2 C 59 % 8.19 C
1319 27-02-2019 13:50:00 16.4 C 58 % 8.12 C
1320 27-02-2019 13:55:00 17 C 56 % 8.17 C
1321 27-02-2019 14:00:00 17.6 C 54 % 8.19 C
1322 27-02-2019 14:05:00 17.8 C 53 % 8.1 C
1323 27-02-2019 14:10:00 17.9 C 53 % 8.19 C
1324 27-02-2019 14:15:00 17.9 C 52 % 7.91 C
1325 27-02-2019 14:20:00 17.8 C 52 % 7.82 C
Sensor: Nr:Datum:Temp:Feuchte:Taupunkt:
Aussen-T/F 1326 27-02-2019 14:25:00 17.5 C 52 % 7.54 C
1327 27-02-2019 14:30:00 17.1 C 51 % 6.89 C
1328 27-02-2019 14:35:00 16.8 C 51 % 6.62 C
1329 27-02-2019 14:40:00 16.6 C 52 % 6.71 C
1330 27-02-2019 14:45:00 16.5 C 50 % 6.05 C
1331 27-02-2019 14:50:00 16.4 C 53 % 6.81 C
1332 27-02-2019 14:55:00 16.4 C 53 % 6.81 C
1333 27-02-2019 15:00:00 16.3 C 53 % 6.71 C
1334 27-02-2019 15:05:00 16.3 C 51 % 6.16 C
1335 27-02-2019 15:10:00 16.2 C 51 % 6.06 C
1336 27-02-2019 15:15:00 16.2 C 52 % 6.34 C
1337 27-02-2019 15:20:00 16.1 C 51 % 5.97 C
1338 27-02-2019 15:25:00 16 C 51 % 5.88 C
1339 27-02-2019 15:30:00 15.9 C 51 % 5.79 C
1340 27-02-2019 15:35:00 15.9 C 52 % 6.07 C
1341 27-02-2019 15:40:00 16 C 52 % 6.16 C
1342 27-02-2019 15:45:00 16.1 C 51 % 5.97 C
1343 27-02-2019 15:50:00 16.1 C 51 % 5.97 C
1344 27-02-2019 15:55:00 16.2 C 51 % 6.06 C
1345 27-02-2019 16:00:00 16.3 C 51 % 6.16 C
1346 27-02-2019 16:05:00 16.3 C 50 % 5.87 C
1347 27-02-2019 16:10:00 16.4 C 50 % 5.96 C
1348 27-02-2019 16:15:00 16.5 C 50 % 6.05 C
1349 27-02-2019 16:20:00 16.5 C 51 % 6.34 C
1350 27-02-2019 16:25:00 16.4 C 49 % 5.67 C
Sensor: Nr:Datum:Temp:Feuchte:Taupunkt:
Aussen-T/F 1351 27-02-2019 16:30:00 16.3 C 50 % 5.87 C
1352 27-02-2019 16:35:00 16.2 C 50 % 5.78 C
1353 27-02-2019 16:40:00 16.2 C 51 % 6.06 C
1354 27-02-2019 16:45:00 16.1 C 51 % 5.97 C
1355 27-02-2019 16:50:00 16 C 52 % 6.16 C
1356 27-02-2019 16:55:00 15.8 C 52 % 5.97 C
1357 27-02-2019 17:00:00 15.8 C 52 % 5.97 C
1358 27-02-2019 17:05:00 15.8 C 52 % 5.97 C
1359 27-02-2019 17:10:00 15.8 C 53 % 6.25 C
1360 27-02-2019 17:15:00 15.7 C 52 % 5.88 C
1361 27-02-2019 17:20:00 15.7 C 52 % 5.88 C
1362 27-02-2019 17:25:00 15.7 C 51 % 5.6 C
1363 27-02-2019 17:30:00 15.8 C 51 % 5.69 C
1364 27-02-2019 17:35:00 15.8 C 50 % 5.41 C
1365 27-02-2019 17:40:00 15.8 C 50 % 5.41 C
1366 27-02-2019 17:45:00 15.8 C 50 % 5.41 C
1367 27-02-2019 17:50:00 15.6 C 50 % 5.23 C
1368 27-02-2019 17:55:00 15.3 C 49 % 4.66 C
1369 27-02-2019 18:00:00 15 C 51 % 4.96 C
1370 27-02-2019 18:05:00 14.6 C 52 % 4.87 C
1371 27-02-2019 18:10:00 14.3 C 54 % 5.13 C
1372 27-02-2019 18:15:00 13.9 C 52 % 4.22 C
1373 27-02-2019 18:20:00 13.8 C 55 % 4.93 C
1374 27-02-2019 18:25:00 13.6 C 54 % 4.48 C
1375 27-02-2019 18:30:00 13.5 C 55 % 4.65 C
Sensor: Nr:Datum:Temp:Feuchte:Taupunkt:
Aussen-T/F 1376 27-02-2019 18:35:00 13.3 C 56 % 4.72 C
1377 27-02-2019 18:40:00 13 C 56 % 4.44 C
1378 27-02-2019 18:45:00 12.8 C 57 % 4.5 C
1379 27-02-2019 18:50:00 12.6 C 58 % 4.57 C
1380 27-02-2019 18:55:00 12.3 C 58 % 4.28 C
1381 27-02-2019 19:00:00 12.2 C 59 % 4.43 C
1382 27-02-2019 19:05:00 11.9 C 59 % 4.15 C
1383 27-02-2019 19:10:00 11.7 C 60 % 4.2 C
1384 27-02-2019 19:15:00 11.5 C 61 % 4.25 C
1385 27-02-2019 19:20:00 11.3 C 62 % 4.29 C
1386 27-02-2019 19:25:00 11.1 C 64 % 4.56 C
1387 27-02-2019 19:30:00 10.8 C 65 % 4.49 C
1388 27-02-2019 19:35:00 10.5 C 66 % 4.43 C
1389 27-02-2019 19:40:00 10.2 C 67 % 4.36 C
1390 27-02-2019 19:45:00 10 C 67 % 4.16 C
1391 27-02-2019 19:50:00 9.8 C 68 % 4.18 C
1392 27-02-2019 19:55:00 9.7 C 69 % 4.3 C
1393 27-02-2019 20:00:00 9.5 C 70 % 4.31 C
1394 27-02-2019 20:05:00 9.4 C 69 % 4.01 C
1395 27-02-2019 20:10:00 9.3 C 70 % 4.12 C
1396 27-02-2019 20:15:00 9.1 C 69 % 3.72 C
1397 27-02-2019 20:20:00 9.1 C 70 % 3.93 C
1398 27-02-2019 20:25:00 8.8 C 70 % 3.64 C
1399 27-02-2019 20:30:00 8.7 C 70 % 3.54 C
1400 27-02-2019 20:35:00 8.6 C 70 % 3.45 C
Sensor: Nr:Datum:Temp:Feuchte:Taupunkt:
Aussen-T/F 1401 27-02-2019 20:40:00 8.3 C 71 % 3.36 C
1402 27-02-2019 20:45:00 8.1 C 72 % 3.37 C
1403 27-02-2019 20:50:00 7.8 C 72 % 3.08 C
1404 27-02-2019 20:55:00 7.7 C 72 % 2.98 C
1405 27-02-2019 21:00:00 7.4 C 73 % 2.89 C
1406 27-02-2019 21:05:00 7.3 C 74 % 2.98 C
1407 27-02-2019 21:10:00 7.3 C 73 % 2.79 C
1408 27-02-2019 21:15:00 7.2 C 74 % 2.89 C
1409 27-02-2019 21:20:00 7.1 C 76 % 3.16 C
1410 27-02-2019 21:25:00 6.9 C 76 % 2.97 C
1411 27-02-2019 21:30:00 6.8 C 76 % 2.87 C
1412 27-02-2019 21:35:00 6.5 C 77 % 2.77 C
1413 27-02-2019 21:40:00 6.4 C 78 % 2.85 C
1414 27-02-2019 21:45:00 6.4 C 77 % 2.67 C
1415 27-02-2019 21:50:00 6.3 C 77 % 2.57 C
1416 27-02-2019 21:55:00 6 C 78 % 2.46 C
1417 27-02-2019 22:00:00 5.8 C 80 % 2.62 C
1418 27-02-2019 22:05:00 5.8 C 81 % 2.8 C
1419 27-02-2019 22:10:00 5.9 C 80 % 2.72 C
1420 27-02-2019 22:15:00 5.8 C 79 % 2.45 C
1421 27-02-2019 22:20:00 5.7 C 80 % 2.53 C
1422 27-02-2019 22:25:00 5.6 C 80 % 2.43 C
1423 27-02-2019 22:30:00 5.5 C 81 % 2.51 C
1424 27-02-2019 22:35:00 5.4 C 81 % 2.41 C
1425 27-02-2019 22:40:00 5.3 C 81 % 2.31 C
Sensor: Nr:Datum:Temp:Feuchte:Taupunkt:
Aussen-T/F 1426 27-02-2019 22:45:00 5.3 C 81 % 2.31 C
1427 27-02-2019 22:50:00 5.3 C 81 % 2.31 C
1428 27-02-2019 22:55:00 5.2 C 81 % 2.21 C
1429 27-02-2019 23:00:00 5.2 C 81 % 2.21 C
1430 27-02-2019 23:05:00 5.2 C 81 % 2.21 C
1431 27-02-2019 23:10:00 5.1 C 82 % 2.29 C
1432 27-02-2019 23:15:00 5.1 C 81 % 2.12 C
1433 27-02-2019 23:20:00 5.1 C 82 % 2.29 C
1434 27-02-2019 23:25:00 4.9 C 82 % 2.09 C
1435 27-02-2019 23:30:00 4.7 C 82 % 1.9 C
1436 27-02-2019 23:35:00 4.6 C 83 % 1.97 C
1437 27-02-2019 23:40:00 4.5 C 84 % 2.04 C
1438 27-02-2019 23:45:00 4.5 C 85 % 2.2 C
1439 27-02-2019 23:50:00 4.5 C 84 % 2.04 C
1440 27-02-2019 23:55:00 4.6 C 84 % 2.14 C
1441 28-02-2019 00:00:00 4.5 C 84 % 2.04 C
1442 28-02-2019 00:05:00 4.6 C 85 % 2.3 C
1443 28-02-2019 00:10:00 4.7 C 85 % 2.4 C
1444 28-02-2019 00:15:00 4.8 C 85 % 2.5 C
1445 28-02-2019 00:20:00 5.1 C 85 % 2.79 C
1446 28-02-2019 00:25:00 5.4 C 84 % 2.92 C
1447 28-02-2019 00:30:00 5.6 C 83 % 2.95 C
1448 28-02-2019 00:35:00 5.7 C 82 % 2.87 C
1449 28-02-2019 00:40:00 5.8 C 82 % 2.97 C
1450 28-02-2019 00:45:00 5.9 C 81 % 2.9 C
Sensor: Nr:Datum:Temp:Feuchte:Taupunkt:
Aussen-T/F 1451 28-02-2019 00:50:00 6 C 80 % 2.82 C
1452 28-02-2019 00:55:00 6.1 C 80 % 2.92 C
1453 28-02-2019 01:00:00 6.1 C 80 % 2.92 C
1454 28-02-2019 01:05:00 5.9 C 79 % 2.54 C
1455 28-02-2019 01:10:00 5.8 C 79 % 2.45 C
1456 28-02-2019 01:15:00 5.4 C 79 % 2.06 C
1457 28-02-2019 01:20:00 5.2 C 81 % 2.21 C
1458 28-02-2019 01:25:00 5 C 81 % 2.02 C
1459 28-02-2019 01:30:00 4.7 C 82 % 1.9 C
1460 28-02-2019 01:35:00 4.5 C 83 % 1.87 C
1461 28-02-2019 01:40:00 4.3 C 83 % 1.67 C
1462 28-02-2019 01:45:00 4.1 C 84 % 1.65 C
1463 28-02-2019 01:50:00 4.1 C 85 % 1.81 C
1464 28-02-2019 01:55:00 4.1 C 86 % 1.97 C
1465 28-02-2019 02:00:00 4.1 C 86 % 1.97 C
1466 28-02-2019 02:05:00 4.1 C 86 % 1.97 C
1467 28-02-2019 02:10:00 4.2 C 86 % 2.07 C
1468 28-02-2019 02:15:00 4.1 C 85 % 1.81 C
1469 28-02-2019 02:20:00 3.8 C 85 % 1.52 C
1470 28-02-2019 02:25:00 3.6 C 86 % 1.48 C
1471 28-02-2019 02:30:00 3.4 C 86 % 1.29 C
1472 28-02-2019 02:35:00 3.3 C 87 % 1.35 C
1473 28-02-2019 02:40:00 3.3 C 88 % 1.51 C
1474 28-02-2019 02:45:00 3.4 C 89 % 1.76 C
1475 28-02-2019 02:50:00 3.4 C 89 % 1.76 C
Sensor: Nr:Datum:Temp:Feuchte:Taupunkt:
Aussen-T/F 1476 28-02-2019 02:55:00 3.4 C 88 % 1.61 C
1477 28-02-2019 03:00:00 3.3 C 88 % 1.51 C
1478 28-02-2019 03:05:00 3.1 C 87 % 1.15 C
1479 28-02-2019 03:10:00 2.9 C 88 % 1.11 C
1480 28-02-2019 03:15:00 2.9 C 89 % 1.27 C
1481 28-02-2019 03:20:00 2.8 C 89 % 1.17 C
1482 28-02-2019 03:25:00 2.8 C 90 % 1.33 C
1483 28-02-2019 03:30:00 2.9 C 90 % 1.43 C
1484 28-02-2019 03:35:00 3 C 90 % 1.52 C
1485 28-02-2019 03:40:00 3.1 C 90 % 1.62 C
1486 28-02-2019 03:45:00 3 C 89 % 1.37 C
1487 28-02-2019 03:50:00 2.8 C 89 % 1.17 C
1488 28-02-2019 03:55:00 2.7 C 89 % 1.07 C
1489 28-02-2019 04:00:00 2.6 C 89 % 0.97 C
1490 28-02-2019 04:05:00 2.4 C 89 % 0.78 C
1491 28-02-2019 04:10:00 2.2 C 88 % 0.42 C
1492 28-02-2019 04:15:00 2 C 89 % 0.38 C
1493 28-02-2019 04:20:00 1.9 C 90 % 0.44 C
1494 28-02-2019 04:25:00 2.1 C 91 % 0.79 C
1495 28-02-2019 04:30:00 2.3 C 92 % 1.14 C
1496 28-02-2019 04:35:00 2.3 C 91 % 0.99 C
1497 28-02-2019 04:40:00 2.3 C 91 % 0.99 C
1498 28-02-2019 04:45:00 2.3 C 91 % 0.99 C
1499 28-02-2019 04:50:00 2.4 C 92 % 1.24 C
1500 28-02-2019 04:55:00 2.5 C 91 % 1.18 C
Sensor: Nr:Datum:Temp:Feuchte:Taupunkt:
Aussen-T/F 1501 28-02-2019 05:00:00 2.6 C 91 % 1.28 C
1502 28-02-2019 05:05:00 2.5 C 91 % 1.18 C
1503 28-02-2019 05:10:00 2.5 C 91 % 1.18 C
1504 28-02-2019 05:15:00 2.4 C 90 % 0.93 C
1505 28-02-2019 05:20:00 2.3 C 91 % 0.99 C
1506 28-02-2019 05:25:00 2.3 C 91 % 0.99 C
1507 28-02-2019 05:30:00 2.3 C 91 % 0.99 C
1508 28-02-2019 05:35:00 2.3 C 91 % 0.99 C
1509 28-02-2019 05:40:00 2.3 C 91 % 0.99 C
1510 28-02-2019 05:45:00 2.3 C 91 % 0.99 C
1511 28-02-2019 05:50:00 2.2 C 91 % 0.89 C
1512 28-02-2019 05:55:00 2.3 C 92 % 1.14 C
1513 28-02-2019 06:00:00 2.5 C 92 % 1.34 C
1514 28-02-2019 06:05:00 2.7 C 92 % 1.53 C
1515 28-02-2019 06:10:00 2.7 C 92 % 1.53 C
1516 28-02-2019 06:15:00 2.7 C 91 % 1.38 C
1517 28-02-2019 06:20:00 2.6 C 91 % 1.28 C
1518 28-02-2019 06:25:00 2.7 C 91 % 1.38 C
1519 28-02-2019 06:30:00 2.9 C 92 % 1.73 C
1520 28-02-2019 06:35:00 3.4 C 92 % 2.23 C
1521 28-02-2019 06:40:00 3.8 C 90 % 2.31 C
1522 28-02-2019 06:45:00 4.2 C 88 % 2.39 C
1523 28-02-2019 06:50:00 4.2 C 87 % 2.23 C
1524 28-02-2019 06:55:00 4.2 C 87 % 2.23 C
1525 28-02-2019 07:00:00 4.2 C 87 % 2.23 C
Sensor: Nr:Datum:Temp:Feuchte:Taupunkt:
Aussen-T/F 1526 28-02-2019 07:05:00 4.2 C 86 % 2.07 C
1527 28-02-2019 07:10:00 4.1 C 86 % 1.97 C
1528 28-02-2019 07:15:00 3.9 C 86 % 1.78 C
1529 28-02-2019 07:20:00 3.9 C 87 % 1.94 C
1530 28-02-2019 07:25:00 3.8 C 87 % 1.84 C
1531 28-02-2019 07:30:00 3.8 C 87 % 1.84 C
1532 28-02-2019 07:35:00 3.7 C 87 % 1.74 C
1533 28-02-2019 07:40:00 3.6 C 88 % 1.8 C
1534 28-02-2019 07:45:00 3.4 C 87 % 1.45 C
1535 28-02-2019 07:50:00 3.3 C 87 % 1.35 C
1536 28-02-2019 07:55:00 3.1 C 87 % 1.15 C
1537 28-02-2019 08:00:00 2.9 C 88 % 1.11 C
1538 28-02-2019 08:05:00 2.7 C 88 % 0.92 C
1539 28-02-2019 08:10:00 2.7 C 88 % 0.92 C
1540 28-02-2019 08:15:00 2.6 C 89 % 0.97 C
1541 28-02-2019 08:20:00 2.7 C 90 % 1.23 C
1542 28-02-2019 08:25:00 2.8 C 90 % 1.33 C
1543 28-02-2019 08:30:00 2.9 C 91 % 1.58 C
1544 28-02-2019 08:35:00 3.1 C 91 % 1.78 C
1545 28-02-2019 08:40:00 3.3 C 91 % 1.98 C
1546 28-02-2019 08:45:00 3.6 C 92 % 2.42 C
1547 28-02-2019 08:50:00 3.7 C 91 % 2.37 C
1548 28-02-2019 08:55:00 3.9 C 91 % 2.57 C
1549 28-02-2019 09:00:00 4.1 C 91 % 2.77 C
1550 28-02-2019 09:05:00 4.2 C 90 % 2.71 C
Sensor: Nr:Datum:Temp:Feuchte:Taupunkt:
Aussen-T/F 1551 28-02-2019 09:10:00 4.3 C 90 % 2.81 C
1552 28-02-2019 09:15:00 4.4 C 89 % 2.75 C
1553 28-02-2019 09:20:00 4.5 C 89 % 2.85 C
1554 28-02-2019 09:25:00 4.6 C 89 % 2.95 C
1555 28-02-2019 09:30:00 4.7 C 89 % 3.05 C
1556 28-02-2019 09:35:00 4.8 C 88 % 2.99 C
1557 28-02-2019 09:40:00 4.9 C 88 % 3.08 C
1558 28-02-2019 09:45:00 5.1 C 88 % 3.28 C
1559 28-02-2019 09:50:00 5.2 C 88 % 3.38 C
1560 28-02-2019 09:55:00 5.4 C 89 % 3.74 C
1561 28-02-2019 10:00:00 5.6 C 89 % 3.93 C
1562 28-02-2019 10:05:00 5.8 C 89 % 4.13 C
1563 28-02-2019 10:10:00 6.3 C 88 % 4.46 C
1564 28-02-2019 10:15:00 6.7 C 88 % 4.86 C
1565 28-02-2019 10:20:00 7.1 C 86 % 4.92 C
1566 28-02-2019 10:25:00 7.5 C 85 % 5.15 C
1567 28-02-2019 10:30:00 7.9 C 84 % 5.37 C
1568 28-02-2019 10:35:00 8.4 C 83 % 5.69 C
1569 28-02-2019 10:40:00 8.7 C 82 % 5.8 C
1570 28-02-2019 10:45:00 9 C 81 % 5.92 C
1571 28-02-2019 10:50:00 9.3 C 80 % 6.03 C
1572 28-02-2019 10:55:00 9.6 C 79 % 6.14 C
1573 28-02-2019 11:00:00 9.9 C 78 % 6.25 C
1574 28-02-2019 11:05:00 10.2 C 77 % 6.35 C
1575 28-02-2019 11:10:00 10.6 C 76 % 6.55 C
Sensor: Nr:Datum:Temp:Feuchte:Taupunkt:
Aussen-T/F 1576 28-02-2019 11:15:00 10.9 C 75 % 6.65 C
1577 28-02-2019 11:20:00 11.3 C 73 % 6.64 C
1578 28-02-2019 11:25:00 11.7 C 72 % 6.83 C
1579 28-02-2019 11:30:00 11.9 C 71 % 6.82 C
1580 28-02-2019 11:35:00 12.2 C 70 % 6.9 C
1581 28-02-2019 11:40:00 12.4 C 69 % 6.88 C
1582 28-02-2019 11:45:00 12.5 C 69 % 6.97 C
1583 28-02-2019 11:50:00 12.6 C 69 % 7.07 C
1584 28-02-2019 11:55:00 12.6 C 69 % 7.07 C
1585 28-02-2019 12:00:00 12.7 C 68 % 6.95 C
1586 28-02-2019 12:05:00 12.8 C 69 % 7.26 C
1587 28-02-2019 12:10:00 12.8 C 68 % 7.05 C
1588 28-02-2019 12:15:00 12.9 C 68 % 7.14 C
1589 28-02-2019 12:20:00 13 C 68 % 7.24 C
1590 28-02-2019 12:25:00 13.1 C 67 % 7.12 C
1591 28-02-2019 12:30:00 13.2 C 67 % 7.21 C
1592 28-02-2019 12:35:00 13.4 C 68 % 7.62 C
1593 28-02-2019 12:40:00 13.7 C 66 % 7.47 C
1594 28-02-2019 12:45:00 13.8 C 66 % 7.57 C
1595 28-02-2019 12:50:00 13.9 C 66 % 7.66 C
1596 28-02-2019 12:55:00 13.9 C 66 % 7.66 C
1597 28-02-2019 13:00:00 14.1 C 66 % 7.85 C
1598 28-02-2019 13:05:00 14.2 C 65 % 7.72 C
1599 28-02-2019 13:10:00 14.3 C 66 % 8.04 C
1600 28-02-2019 13:15:00 14.5 C 64 % 7.78 C
Sensor: Nr:Datum:Temp:Feuchte:Taupunkt:
Aussen-T/F 1601 28-02-2019 13:20:00 14.7 C 65 % 8.2 C
1602 28-02-2019 13:25:00 14.9 C 63 % 7.93 C
1603 28-02-2019 13:30:00 15.1 C 64 % 8.35 C
1604 28-02-2019 13:35:00 15.2 C 63 % 8.21 C
1605 28-02-2019 13:40:00 15.4 C 62 % 8.16 C
1606 28-02-2019 13:45:00 15.6 C 62 % 8.35 C
1607 28-02-2019 13:50:00 15.7 C 61 % 8.21 C
1608 28-02-2019 13:55:00 15.8 C 61 % 8.3 C
1609 28-02-2019 14:00:00 16 C 62 % 8.73 C
1610 28-02-2019 14:05:00 16.2 C 61 % 8.68 C
1611 28-02-2019 14:10:00 16.3 C 61 % 8.77 C
1612 28-02-2019 14:15:00 16.4 C 61 % 8.87 C
1613 28-02-2019 14:20:00 16.4 C 61 % 8.87 C
1614 28-02-2019 14:25:00 16.5 C 61 % 8.96 C
1615 28-02-2019 14:30:00 16.6 C 61 % 9.06 C
1616 28-02-2019 14:35:00 16.7 C 61 % 9.15 C
1617 28-02-2019 14:40:00 16.8 C 61 % 9.24 C
1618 28-02-2019 14:45:00 17.1 C 60 % 9.28 C
1619 28-02-2019 14:50:00 17.2 C 60 % 9.37 C
1620 28-02-2019 14:55:00 17.2 C 60 % 9.37 C
1621 28-02-2019 15:00:00 17.2 C 60 % 9.37 C
1622 28-02-2019 15:05:00 17.1 C 60 % 9.28 C
1623 28-02-2019 15:10:00 17 C 62 % 9.67 C
1624 28-02-2019 15:15:00 17 C 61 % 9.43 C
1625 28-02-2019 15:20:00 16.9 C 61 % 9.34 C
Sensor: Nr:Datum:Temp:Feuchte:Taupunkt:
Aussen-T/F 1626 28-02-2019 15:25:00 16.8 C 62 % 9.49 C
1627 28-02-2019 15:30:00 16.8 C 62 % 9.49 C
1628 28-02-2019 15:35:00 16.7 C 62 % 9.39 C
1629 28-02-2019 15:40:00 16.7 C 60 % 8.9 C
1630 28-02-2019 15:45:00 16.5 C 60 % 8.72 C
1631 28-02-2019 15:50:00 16.3 C 61 % 8.77 C
1632 28-02-2019 15:55:00 16.2 C 61 % 8.68 C
1633 28-02-2019 16:00:00 16.2 C 62 % 8.92 C
1634 28-02-2019 16:05:00 16.2 C 64 % 9.39 C
1635 28-02-2019 16:10:00 16.1 C 65 % 9.53 C
1636 28-02-2019 16:15:00 16 C 66 % 9.66 C
1637 28-02-2019 16:20:00 15.9 C 66 % 9.56 C
1638 28-02-2019 16:25:00 15.7 C 66 % 9.37 C
1639 28-02-2019 16:30:00 15.5 C 67 % 9.41 C
1640 28-02-2019 16:35:00 15.3 C 63 % 8.31 C
1641 28-02-2019 16:40:00 14.7 C 60 % 7.03 C
1642 28-02-2019 16:45:00 14 C 61 % 6.61 C
1643 28-02-2019 16:50:00 13.6 C 63 % 6.7 C
1644 28-02-2019 16:55:00 13.3 C 64 % 6.64 C
1645 28-02-2019 17:00:00 13.1 C 64 % 6.45 C
1646 28-02-2019 17:05:00 13 C 65 % 6.58 C
1647 28-02-2019 17:10:00 12.9 C 66 % 6.71 C
1648 28-02-2019 17:15:00 12.9 C 67 % 6.93 C
1649 28-02-2019 17:20:00 12.8 C 67 % 6.83 C
1650 28-02-2019 17:25:00 12.8 C 68 % 7.05 C
Sensor: Nr:Datum:Temp:Feuchte:Taupunkt:
Aussen-T/F 1651 28-02-2019 17:30:00 12.7 C 69 % 7.17 C
1652 28-02-2019 17:35:00 12.6 C 69 % 7.07 C
1653 28-02-2019 17:40:00 12.6 C 69 % 7.07 C
1654 28-02-2019 17:45:00 12.5 C 69 % 6.97 C
1655 28-02-2019 17:50:00 12.5 C 70 % 7.18 C
1656 28-02-2019 17:55:00 12.4 C 70 % 7.09 C
1657 28-02-2019 18:00:00 12.4 C 70 % 7.09 C
1658 28-02-2019 18:05:00 12.4 C 70 % 7.09 C
1659 28-02-2019 18:10:00 12.3 C 71 % 7.2 C
1660 28-02-2019 18:15:00 12.3 C 71 % 7.2 C
1661 28-02-2019 18:20:00 12.2 C 71 % 7.1 C
1662 28-02-2019 18:25:00 12.2 C 71 % 7.1 C
1663 28-02-2019 18:30:00 12.1 C 71 % 7.01 C
1664 28-02-2019 18:35:00 12.1 C 72 % 7.21 C
1665 28-02-2019 18:40:00 12 C 72 % 7.12 C
1666 28-02-2019 18:45:00 11.9 C 73 % 7.22 C
1667 28-02-2019 18:50:00 11.9 C 73 % 7.22 C
1668 28-02-2019 18:55:00 11.8 C 73 % 7.12 C
1669 28-02-2019 19:00:00 11.8 C 74 % 7.32 C
1670 28-02-2019 19:05:00 11.7 C 74 % 7.23 C
1671 28-02-2019 19:10:00 11.6 C 74 % 7.13 C
1672 28-02-2019 19:15:00 11.4 C 75 % 7.13 C
1673 28-02-2019 19:20:00 11.3 C 75 % 7.04 C
1674 28-02-2019 19:25:00 11.2 C 75 % 6.94 C
1675 28-02-2019 19:30:00 11.1 C 76 % 7.04 C
Sensor: Nr:Datum:Temp:Feuchte:Taupunkt:
Aussen-T/F 1676 28-02-2019 19:35:00 11.1 C 76 % 7.04 C
1677 28-02-2019 19:40:00 11 C 77 % 7.13 C
1678 28-02-2019 19:45:00 11 C 77 % 7.13 C
1679 28-02-2019 19:50:00 11 C 77 % 7.13 C
1680 28-02-2019 19:55:00 11 C 78 % 7.32 C
1681 28-02-2019 20:00:00 11 C 78 % 7.32 C
1682 28-02-2019 20:05:00 11.1 C 78 % 7.41 C
1683 28-02-2019 20:10:00 11.1 C 78 % 7.41 C
1684 28-02-2019 20:15:00 11.1 C 78 % 7.41 C
1685 28-02-2019 20:20:00 11.1 C 78 % 7.41 C
1686 28-02-2019 20:25:00 11.1 C 79 % 7.6 C
1687 28-02-2019 20:30:00 11.1 C 79 % 7.6 C
1688 28-02-2019 20:35:00 11.1 C 79 % 7.6 C
1689 28-02-2019 20:40:00 11.1 C 79 % 7.6 C
1690 28-02-2019 20:45:00 11.1 C 79 % 7.6 C
1691 28-02-2019 20:50:00 11.1 C 79 % 7.6 C
1692 28-02-2019 20:55:00 11.1 C 79 % 7.6 C
1693 28-02-2019 21:00:00 11.1 C 80 % 7.79 C
1694 28-02-2019 21:05:00 11.1 C 80 % 7.79 C
1695 28-02-2019 21:10:00 11.1 C 81 % 7.97 C
1696 28-02-2019 21:15:00 11 C 81 % 7.87 C
1697 28-02-2019 21:20:00 10.9 C 81 % 7.77 C
1698 28-02-2019 21:25:00 10.9 C 81 % 7.77 C
1699 28-02-2019 21:30:00 10.9 C 81 % 7.77 C
1700 28-02-2019 21:35:00 10.9 C 81 % 7.77 C
Sensor: Nr:Datum:Temp:Feuchte:Taupunkt:
Aussen-T/F 1701 28-02-2019 21:40:00 10.9 C 81 % 7.77 C
1702 28-02-2019 21:45:00 10.9 C 81 % 7.77 C
1703 28-02-2019 21:50:00 11 C 81 % 7.87 C
1704 28-02-2019 21:55:00 11 C 80 % 7.69 C
1705 28-02-2019 22:00:00 10.9 C 80 % 7.59 C
1706 28-02-2019 22:05:00 10.9 C 81 % 7.77 C
1707 28-02-2019 22:10:00 10.9 C 81 % 7.77 C
1708 28-02-2019 22:15:00 10.9 C 81 % 7.77 C
1709 28-02-2019 22:20:00 10.9 C 82 % 7.95 C
1710 28-02-2019 22:25:00 10.9 C 82 % 7.95 C
1711 28-02-2019 22:30:00 10.8 C 82 % 7.85 C
1712 28-02-2019 22:35:00 10.8 C 82 % 7.85 C
1713 28-02-2019 22:40:00 10.8 C 82 % 7.85 C
1714 28-02-2019 22:45:00 10.8 C 82 % 7.85 C
1715 28-02-2019 22:50:00 10.8 C 83 % 8.03 C
1716 28-02-2019 22:55:00 10.7 C 83 % 7.93 C
1717 28-02-2019 23:00:00 10.7 C 83 % 7.93 C
1718 28-02-2019 23:05:00 10.7 C 83 % 7.93 C
1719 28-02-2019 23:10:00 10.7 C 84 % 8.11 C
1720 28-02-2019 23:15:00 10.6 C 85 % 8.19 C
1721 28-02-2019 23:20:00 10.6 C 85 % 8.19 C
1722 28-02-2019 23:25:00 10.4 C 86 % 8.16 C
1723 28-02-2019 23:30:00 10.3 C 87 % 8.23 C
1724 28-02-2019 23:35:00 10.2 C 88 % 8.3 C
1725 28-02-2019 23:40:00 9.9 C 89 % 8.17 C
Sensor: Nr:Datum:Temp:Feuchte:Taupunkt:
Aussen-T/F 1726 28-02-2019 23:45:00 9.8 C 89 % 8.08 C
1727 28-02-2019 23:50:00 9.7 C 90 % 8.14 C
1728 28-02-2019 23:55:00 9.6 C 90 % 8.04 C
1729 01-03-2019 00:00:00 9.5 C 91 % 8.11 C
1730 01-03-2019 00:05:00 9.4 C 91 % 8.01 C
1731 01-03-2019 00:10:00 9.3 C 92 % 8.07 C
1732 01-03-2019 00:15:00 9.3 C 92 % 8.07 C
1733 01-03-2019 00:20:00 9.2 C 92 % 7.97 C
1734 01-03-2019 00:25:00 9.1 C 92 % 7.87 C
1735 01-03-2019 00:30:00 9.1 C 92 % 7.87 C
1736 01-03-2019 00:35:00 9 C 92 % 7.77 C
1737 01-03-2019 00:40:00 8.9 C 92 % 7.67 C
1738 01-03-2019 00:45:00 8.8 C 92 % 7.57 C
1739 01-03-2019 00:50:00 8.7 C 92 % 7.47 C
1740 01-03-2019 00:55:00 8.6 C 93 % 7.53 C
1741 01-03-2019 01:00:00 8.6 C 93 % 7.53 C
1742 01-03-2019 01:05:00 8.7 C 93 % 7.63 C
1743 01-03-2019 01:10:00 8.8 C 94 % 7.89 C
1744 01-03-2019 01:15:00 8.8 C 94 % 7.89 C
1745 01-03-2019 01:20:00 8.8 C 94 % 7.89 C
1746 01-03-2019 01:25:00 8.7 C 94 % 7.79 C
1747 01-03-2019 01:30:00 8.7 C 94 % 7.79 C
1748 01-03-2019 01:35:00 8.7 C 94 % 7.79 C
1749 01-03-2019 01:40:00 8.6 C 93 % 7.53 C
1750 01-03-2019 01:45:00 8.6 C 94 % 7.69 C
Sensor: Nr:Datum:Temp:Feuchte:Taupunkt:
Aussen-T/F 1751 01-03-2019 01:50:00 8.6 C 94 % 7.69 C
1752 01-03-2019 01:55:00 8.6 C 94 % 7.69 C
1753 01-03-2019 02:00:00 8.6 C 94 % 7.69 C
1754 01-03-2019 02:05:00 8.6 C 94 % 7.69 C
1755 01-03-2019 02:10:00 8.7 C 94 % 7.79 C
1756 01-03-2019 02:15:00 8.7 C 94 % 7.79 C
1757 01-03-2019 02:20:00 8.7 C 93 % 7.63 C
1758 01-03-2019 02:25:00 8.7 C 93 % 7.63 C
1759 01-03-2019 02:30:00 8.8 C 93 % 7.73 C
1760 01-03-2019 02:35:00 8.7 C 93 % 7.63 C
1761 01-03-2019 02:40:00 8.7 C 93 % 7.63 C
1762 01-03-2019 02:45:00 8.7 C 93 % 7.63 C
1763 01-03-2019 02:50:00 8.7 C 93 % 7.63 C
1764 01-03-2019 02:55:00 8.7 C 93 % 7.63 C
1765 01-03-2019 03:00:00 8.7 C 92 % 7.47 C
1766 01-03-2019 03:05:00 8.8 C 92 % 7.57 C
1767 01-03-2019 03:10:00 8.7 C 92 % 7.47 C
1768 01-03-2019 03:15:00 8.7 C 92 % 7.47 C
1769 01-03-2019 03:20:00 8.8 C 92 % 7.57 C
1770 01-03-2019 03:25:00 8.8 C 92 % 7.57 C
1771 01-03-2019 03:30:00 8.8 C 91 % 7.41 C
1772 01-03-2019 03:35:00 8.9 C 91 % 7.51 C
1773 01-03-2019 03:40:00 8.9 C 91 % 7.51 C
1774 01-03-2019 03:45:00 8.9 C 91 % 7.51 C
1775 01-03-2019 03:50:00 8.8 C 91 % 7.41 C
Sensor: Nr:Datum:Temp:Feuchte:Taupunkt:
Aussen-T/F 1776 01-03-2019 03:55:00 8.8 C 91 % 7.41 C
1777 01-03-2019 04:00:00 8.8 C 91 % 7.41 C
1778 01-03-2019 04:05:00 8.8 C 91 % 7.41 C
1779 01-03-2019 04:10:00 8.8 C 91 % 7.41 C
1780 01-03-2019 04:15:00 8.8 C 91 % 7.41 C
1781 01-03-2019 04:20:00 8.8 C 91 % 7.41 C
1782 01-03-2019 04:25:00 8.8 C 91 % 7.41 C
1783 01-03-2019 04:30:00 8.8 C 91 % 7.41 C
1784 01-03-2019 04:35:00 8.7 C 91 % 7.32 C
1785 01-03-2019 04:40:00 8.7 C 91 % 7.32 C
1786 01-03-2019 04:45:00 8.7 C 91 % 7.32 C
1787 01-03-2019 04:50:00 8.7 C 91 % 7.32 C
1788 01-03-2019 04:55:00 8.7 C 91 % 7.32 C
1789 01-03-2019 05:00:00 8.7 C 91 % 7.32 C
1790 01-03-2019 05:05:00 8.7 C 91 % 7.32 C
1791 01-03-2019 05:10:00 8.7 C 91 % 7.32 C
1792 01-03-2019 05:15:00 8.7 C 91 % 7.32 C
1793 01-03-2019 05:20:00 8.7 C 91 % 7.32 C
1794 01-03-2019 05:25:00 8.7 C 92 % 7.47 C
1795 01-03-2019 05:30:00 8.7 C 92 % 7.47 C
1796 01-03-2019 05:35:00 8.6 C 92 % 7.38 C
1797 01-03-2019 05:40:00 8.6 C 92 % 7.38 C
1798 01-03-2019 05:45:00 8.5 C 92 % 7.28 C
1799 01-03-2019 05:50:00 8.5 C 93 % 7.43 C
1800 01-03-2019 05:55:00 8.5 C 93 % 7.43 C
Sensor: Nr:Datum:Temp:Feuchte:Taupunkt:
Aussen-T/F 1801 01-03-2019 06:00:00 8.4 C 93 % 7.34 C
1802 01-03-2019 06:05:00 8.4 C 93 % 7.34 C
1803 01-03-2019 06:10:00 8.4 C 93 % 7.34 C
1804 01-03-2019 06:15:00 8.3 C 94 % 7.39 C
1805 01-03-2019 06:20:00 8.3 C 93 % 7.24 C
1806 01-03-2019 06:25:00 8.2 C 93 % 7.14 C
1807 01-03-2019 06:30:00 8.2 C 94 % 7.29 C
1808 01-03-2019 06:35:00 8.1 C 94 % 7.19 C
1809 01-03-2019 06:40:00 8.1 C 94 % 7.19 C
1810 01-03-2019 06:45:00 8.1 C 94 % 7.19 C
1811 01-03-2019 06:50:00 8 C 94 % 7.09 C
1812 01-03-2019 06:55:00 8 C 94 % 7.09 C
1813 01-03-2019 07:00:00 8 C 94 % 7.09 C
1814 01-03-2019 07:05:00 8.1 C 95 % 7.35 C
1815 01-03-2019 07:10:00 8.1 C 95 % 7.35 C
1816 01-03-2019 07:15:00 8.2 C 95 % 7.45 C
1817 01-03-2019 07:20:00 8.2 C 95 % 7.45 C
1818 01-03-2019 07:25:00 8.2 C 95 % 7.45 C
1819 01-03-2019 07:30:00 8.3 C 95 % 7.55 C
1820 01-03-2019 07:35:00 8.3 C 95 % 7.55 C
1821 01-03-2019 07:40:00 8.3 C 95 % 7.55 C
1822 01-03-2019 07:45:00 8.3 C 95 % 7.55 C
1823 01-03-2019 07:50:00 8.3 C 95 % 7.55 C
1824 01-03-2019 07:55:00 8.3 C 95 % 7.55 C
1825 01-03-2019 08:00:00 8.3 C 95 % 7.55 C
Sensor: Nr:Datum:Temp:Feuchte:Taupunkt:
Aussen-T/F 1826 01-03-2019 08:05:00 8.3 C 95 % 7.55 C
1827 01-03-2019 08:10:00 8.4 C 95 % 7.65 C
1828 01-03-2019 08:15:00 8.4 C 95 % 7.65 C
1829 01-03-2019 08:20:00 8.5 C 95 % 7.75 C
1830 01-03-2019 08:25:00 8.6 C 95 % 7.85 C
1831 01-03-2019 08:30:00 8.6 C 95 % 7.85 C
1832 01-03-2019 08:35:00 8.6 C 95 % 7.85 C
1833 01-03-2019 08:40:00 8.6 C 95 % 7.85 C
1834 01-03-2019 08:45:00 8.7 C 95 % 7.94 C
1835 01-03-2019 08:50:00 8.7 C 95 % 7.94 C
1836 01-03-2019 08:55:00 8.7 C 95 % 7.94 C
1837 01-03-2019 09:00:00 8.7 C 95 % 7.94 C
1838 01-03-2019 09:05:00 8.7 C 95 % 7.94 C
1839 01-03-2019 09:10:00 8.7 C 95 % 7.94 C
1840 01-03-2019 09:15:00 8.7 C 95 % 7.94 C
1841 01-03-2019 09:20:00 8.7 C 95 % 7.94 C
1842 01-03-2019 09:25:00 8.7 C 95 % 7.94 C
1843 01-03-2019 09:30:00 8.7 C 95 % 7.94 C
1844 01-03-2019 09:35:00 8.7 C 95 % 7.94 C
1845 01-03-2019 09:40:00 8.7 C 95 % 7.94 C
1846 01-03-2019 09:45:00 8.7 C 95 % 7.94 C
1847 01-03-2019 09:50:00 8.6 C 95 % 7.85 C
1848 01-03-2019 09:55:00 8.6 C 95 % 7.85 C
1849 01-03-2019 10:00:00 8.6 C 95 % 7.85 C
1850 01-03-2019 10:05:00 8.6 C 96 % 8 C
Sensor: Nr:Datum:Temp:Feuchte:Taupunkt:
Aussen-T/F 1851 01-03-2019 10:10:00 8.6 C 96 % 8 C
1852 01-03-2019 10:15:00 8.6 C 96 % 8 C
1853 01-03-2019 10:20:00 8.6 C 96 % 8 C
1854 01-03-2019 10:25:00 8.6 C 96 % 8 C
1855 01-03-2019 10:30:00 8.6 C 96 % 8 C
1856 01-03-2019 10:35:00 8.7 C 96 % 8.1 C
1857 01-03-2019 10:40:00 8.7 C 96 % 8.1 C
1858 01-03-2019 10:45:00 8.8 C 96 % 8.2 C
1859 01-03-2019 10:50:00 8.8 C 96 % 8.2 C
1860 01-03-2019 10:55:00 8.8 C 96 % 8.2 C
1861 01-03-2019 11:00:00 8.8 C 96 % 8.2 C
1862 01-03-2019 11:05:00 8.7 C 95 % 7.94 C
1863 01-03-2019 11:10:00 8.7 C 95 % 7.94 C
1864 01-03-2019 11:15:00 8.7 C 95 % 7.94 C
1865 01-03-2019 11:20:00 8.7 C 95 % 7.94 C
1866 01-03-2019 11:25:00 8.7 C 95 % 7.94 C
1867 01-03-2019 11:30:00 8.6 C 95 % 7.85 C
1868 01-03-2019 11:35:00 8.7 C 95 % 7.94 C
1869 01-03-2019 11:40:00 8.7 C 95 % 7.94 C
1870 01-03-2019 11:45:00 8.8 C 95 % 8.04 C
1871 01-03-2019 11:50:00 8.9 C 95 % 8.14 C
1872 01-03-2019 11:55:00 9.1 C 95 % 8.34 C
1873 01-03-2019 12:00:00 9.1 C 94 % 8.19 C
1874 01-03-2019 12:05:00 9.1 C 94 % 8.19 C
1875 01-03-2019 12:10:00 9.1 C 93 % 8.03 C
Sensor: Nr:Datum:Temp:Feuchte:Taupunkt:
Aussen-T/F 1876 01-03-2019 12:15:00 9.1 C 92 % 7.87 C
1877 01-03-2019 12:20:00 9.1 C 92 % 7.87 C
1878 01-03-2019 12:25:00 9.1 C 91 % 7.71 C
1879 01-03-2019 12:30:00 9 C 91 % 7.61 C
1880 01-03-2019 12:35:00 9.1 C 90 % 7.55 C
1881 01-03-2019 12:40:00 9 C 90 % 7.45 C
1882 01-03-2019 12:45:00 8.9 C 90 % 7.35 C
1883 01-03-2019 12:50:00 8.8 C 90 % 7.25 C
1884 01-03-2019 12:55:00 8.8 C 90 % 7.25 C
1885 01-03-2019 13:00:00 8.7 C 91 % 7.32 C
1886 01-03-2019 13:05:00 8.7 C 91 % 7.32 C
1887 01-03-2019 13:10:00 8.7 C 91 % 7.32 C
1888 01-03-2019 13:15:00 8.6 C 91 % 7.22 C
1889 01-03-2019 13:20:00 8.5 C 91 % 7.12 C
1890 01-03-2019 13:25:00 8.4 C 91 % 7.02 C
1891 01-03-2019 13:30:00 8.4 C 92 % 7.18 C
1892 01-03-2019 13:35:00 8.4 C 92 % 7.18 C
1893 01-03-2019 13:40:00 8.3 C 92 % 7.08 C
1894 01-03-2019 13:45:00 8.4 C 92 % 7.18 C
1895 01-03-2019 13:50:00 8.4 C 92 % 7.18 C
1896 01-03-2019 13:55:00 8.4 C 92 % 7.18 C
1897 01-03-2019 14:00:00 8.4 C 92 % 7.18 C
1898 01-03-2019 14:05:00 8.4 C 92 % 7.18 C
1899 01-03-2019 14:10:00 8.4 C 92 % 7.18 C
1900 01-03-2019 14:15:00 8.3 C 91 % 6.92 C
Sensor: Nr:Datum:Temp:Feuchte:Taupunkt:
Aussen-T/F 1901 01-03-2019 14:20:00 8.4 C 91 % 7.02 C
1902 01-03-2019 14:25:00 8.4 C 91 % 7.02 C
1903 01-03-2019 14:30:00 8.3 C 90 % 6.76 C
1904 01-03-2019 14:35:00 8.4 C 90 % 6.86 C
1905 01-03-2019 14:40:00 8.4 C 89 % 6.7 C
1906 01-03-2019 14:45:00 8.4 C 89 % 6.7 C
1907 01-03-2019 14:50:00 8.4 C 89 % 6.7 C
1908 01-03-2019 14:55:00 8.4 C 89 % 6.7 C
1909 01-03-2019 15:00:00 8.4 C 89 % 6.7 C
1910 01-03-2019 15:05:00 8.4 C 89 % 6.7 C
1911 01-03-2019 15:10:00 8.4 C 90 % 6.86 C
1912 01-03-2019 15:15:00 8.3 C 89 % 6.6 C
1913 01-03-2019 15:20:00 8.3 C 89 % 6.6 C
1914 01-03-2019 15:25:00 8.3 C 90 % 6.76 C
1915 01-03-2019 15:30:00 8.3 C 90 % 6.76 C
1916 01-03-2019 15:35:00 8.3 C 90 % 6.76 C
1917 01-03-2019 15:40:00 8.3 C 90 % 6.76 C
1918 01-03-2019 15:45:00 8.3 C 90 % 6.76 C
1919 01-03-2019 15:50:00 8.3 C 90 % 6.76 C
1920 01-03-2019 15:55:00 8.3 C 90 % 6.76 C
1921 01-03-2019 16:00:00 8.3 C 90 % 6.76 C
1922 01-03-2019 16:05:00 8.4 C 90 % 6.86 C
1923 01-03-2019 16:10:00 8.4 C 90 % 6.86 C
1924 01-03-2019 16:15:00 8.4 C 90 % 6.86 C
1925 01-03-2019 16:20:00 8.4 C 90 % 6.86 C
Sensor: Nr:Datum:Temp:Feuchte:Taupunkt:
Aussen-T/F 1926 01-03-2019 16:25:00 8.3 C 91 % 6.92 C
1927 01-03-2019 16:30:00 8.3 C 91 % 6.92 C
1928 01-03-2019 16:35:00 8.3 C 90 % 6.76 C
1929 01-03-2019 16:40:00 8.3 C 91 % 6.92 C
1930 01-03-2019 16:45:00 8.3 C 91 % 6.92 C
1931 01-03-2019 16:50:00 8.4 C 91 % 7.02 C
1932 01-03-2019 16:55:00 8.3 C 91 % 6.92 C
1933 01-03-2019 17:00:00 8.3 C 91 % 6.92 C
1934 01-03-2019 17:05:00 8.3 C 91 % 6.92 C
1935 01-03-2019 17:10:00 8.3 C 91 % 6.92 C
1936 01-03-2019 17:15:00 8.3 C 91 % 6.92 C
1937 01-03-2019 17:20:00 8.3 C 91 % 6.92 C
1938 01-03-2019 17:25:00 8.3 C 91 % 6.92 C
1939 01-03-2019 17:30:00 8.2 C 91 % 6.82 C
1940 01-03-2019 17:35:00 8.2 C 91 % 6.82 C
1941 01-03-2019 17:40:00 8.3 C 91 % 6.92 C
1942 01-03-2019 17:45:00 8.3 C 91 % 6.92 C
1943 01-03-2019 17:50:00 8.3 C 91 % 6.92 C
1944 01-03-2019 17:55:00 8.3 C 91 % 6.92 C
1945 01-03-2019 18:00:00 8.2 C 90 % 6.66 C
1946 01-03-2019 18:05:00 8 C 90 % 6.46 C
1947 01-03-2019 18:10:00 7.8 C 90 % 6.27 C
1948 01-03-2019 18:15:00 7.8 C 90 % 6.27 C
1949 01-03-2019 18:20:00 7.7 C 89 % 6 C
1950 01-03-2019 18:25:00 7.6 C 89 % 5.91 C
Sensor: Nr:Datum:Temp:Feuchte:Taupunkt:
Aussen-T/F 1951 01-03-2019 18:30:00 7.6 C 89 % 5.91 C
1952 01-03-2019 18:35:00 7.5 C 89 % 5.81 C
1953 01-03-2019 18:40:00 7.4 C 89 % 5.71 C
1954 01-03-2019 18:45:00 7.3 C 89 % 5.61 C
1955 01-03-2019 18:50:00 7.3 C 89 % 5.61 C
1956 01-03-2019 18:55:00 7.2 C 90 % 5.67 C
1957 01-03-2019 19:00:00 7.2 C 90 % 5.67 C
1958 01-03-2019 19:05:00 7.1 C 90 % 5.57 C
1959 01-03-2019 19:10:00 7.1 C 89 % 5.41 C
1960 01-03-2019 19:15:00 7 C 90 % 5.48 C
1961 01-03-2019 19:20:00 6.9 C 90 % 5.38 C
1962 01-03-2019 19:25:00 6.9 C 90 % 5.38 C
1963 01-03-2019 19:30:00 6.8 C 90 % 5.28 C
1964 01-03-2019 19:35:00 6.8 C 90 % 5.28 C
1965 01-03-2019 19:40:00 6.8 C 90 % 5.28 C
1966 01-03-2019 19:45:00 6.8 C 90 % 5.28 C
1967 01-03-2019 19:50:00 6.7 C 90 % 5.18 C
1968 01-03-2019 19:55:00 6.7 C 90 % 5.18 C
1969 01-03-2019 20:00:00 6.7 C 91 % 5.34 C
1970 01-03-2019 20:05:00 6.7 C 91 % 5.34 C
1971 01-03-2019 20:10:00 6.7 C 91 % 5.34 C
1972 01-03-2019 20:15:00 6.7 C 91 % 5.34 C
1973 01-03-2019 20:20:00 6.6 C 91 % 5.24 C
1974 01-03-2019 20:25:00 6.6 C 91 % 5.24 C
1975 01-03-2019 20:30:00 6.6 C 91 % 5.24 C
Sensor: Nr:Datum:Temp:Feuchte:Taupunkt:
Aussen-T/F 1976 01-03-2019 20:35:00 6.6 C 91 % 5.24 C
1977 01-03-2019 20:40:00 6.6 C 91 % 5.24 C
1978 01-03-2019 20:45:00 6.6 C 91 % 5.24 C
1979 01-03-2019 20:50:00 6.6 C 91 % 5.24 C
1980 01-03-2019 20:55:00 6.5 C 91 % 5.14 C
1981 01-03-2019 21:00:00 6.5 C 91 % 5.14 C
1982 01-03-2019 21:05:00 6.5 C 91 % 5.14 C
1983 01-03-2019 21:10:00 6.4 C 91 % 5.04 C
1984 01-03-2019 21:15:00 6.4 C 91 % 5.04 C
1985 01-03-2019 21:20:00 6.4 C 91 % 5.04 C
1986 01-03-2019 21:25:00 6.4 C 91 % 5.04 C
1987 01-03-2019 21:30:00 6.5 C 90 % 4.98 C
1988 01-03-2019 21:35:00 6.5 C 91 % 5.14 C
1989 01-03-2019 21:40:00 6.5 C 91 % 5.14 C
1990 01-03-2019 21:45:00 6.5 C 90 % 4.98 C
1991 01-03-2019 21:50:00 6.4 C 90 % 4.88 C
1992 01-03-2019 21:55:00 6.4 C 90 % 4.88 C
1993 01-03-2019 22:00:00 6.4 C 90 % 4.88 C
1994 01-03-2019 22:05:00 6.4 C 91 % 5.04 C
1995 01-03-2019 22:10:00 6.3 C 91 % 4.94 C
1996 01-03-2019 22:15:00 6.3 C 91 % 4.94 C
1997 01-03-2019 22:20:00 6.3 C 91 % 4.94 C
1998 01-03-2019 22:25:00 6.3 C 91 % 4.94 C
1999 01-03-2019 22:30:00 6.3 C 91 % 4.94 C
2000 01-03-2019 22:35:00 6.3 C 90 % 4.78 C
Sensor: Nr:Datum:Temp:Feuchte:Taupunkt:
Aussen-T/F 2001 01-03-2019 22:40:00 6.4 C 90 % 4.88 C
2002 01-03-2019 22:45:00 6.4 C 89 % 4.72 C
2003 01-03-2019 22:50:00 6.5 C 89 % 4.82 C
2004 01-03-2019 22:55:00 6.6 C 88 % 4.76 C
2005 01-03-2019 23:00:00 6.6 C 88 % 4.76 C
2006 01-03-2019 23:05:00 6.7 C 88 % 4.86 C
2007 01-03-2019 23:10:00 6.7 C 88 % 4.86 C
2008 01-03-2019 23:15:00 6.6 C 88 % 4.76 C
2009 01-03-2019 23:20:00 6.6 C 88 % 4.76 C
2010 01-03-2019 23:25:00 6.6 C 88 % 4.76 C
2011 01-03-2019 23:30:00 6.6 C 88 % 4.76 C
2012 01-03-2019 23:35:00 6.5 C 89 % 4.82 C
2013 01-03-2019 23:40:00 6.4 C 89 % 4.72 C
2014 01-03-2019 23:45:00 6.4 C 89 % 4.72 C
2015 01-03-2019 23:50:00 6.4 C 90 % 4.88 C
2016 01-03-2019 23:55:00 6.3 C 90 % 4.78 C
2017 02-03-2019 00:00:00 6.3 C 90 % 4.78 C
2018 02-03-2019 00:05:00 6.3 C 89 % 4.62 C
2019 02-03-2019 00:10:00 6.2 C 90 % 4.69 C
2020 02-03-2019 00:15:00 6.2 C 90 % 4.69 C
2021 02-03-2019 00:20:00 6.2 C 90 % 4.69 C
2022 02-03-2019 00:25:00 6.2 C 90 % 4.69 C
2023 02-03-2019 00:30:00 6.2 C 90 % 4.69 C
2024 02-03-2019 00:35:00 6.2 C 89 % 4.53 C
2025 02-03-2019 00:40:00 6.2 C 88 % 4.36 C
Sensor: Nr:Datum:Temp:Feuchte:Taupunkt:
Aussen-T/F 2026 02-03-2019 00:45:00 6.1 C 88 % 4.27 C
2027 02-03-2019 00:50:00 6.1 C 88 % 4.27 C
2028 02-03-2019 00:55:00 6.1 C 88 % 4.27 C
2029 02-03-2019 01:00:00 6.1 C 88 % 4.27 C
2030 02-03-2019 01:05:00 6 C 88 % 4.17 C
2031 02-03-2019 01:10:00 5.9 C 88 % 4.07 C
2032 02-03-2019 01:15:00 5.9 C 89 % 4.23 C
2033 02-03-2019 01:20:00 5.9 C 89 % 4.23 C
2034 02-03-2019 01:25:00 5.8 C 89 % 4.13 C
2035 02-03-2019 01:30:00 5.8 C 89 % 4.13 C
2036 02-03-2019 01:35:00 5.8 C 89 % 4.13 C
2037 02-03-2019 01:40:00 5.8 C 90 % 4.29 C
2038 02-03-2019 01:45:00 5.8 C 90 % 4.29 C
2039 02-03-2019 01:50:00 5.7 C 90 % 4.19 C
2040 02-03-2019 01:55:00 5.7 C 90 % 4.19 C
2041 02-03-2019 02:00:00 5.7 C 90 % 4.19 C
2042 02-03-2019 02:05:00 5.7 C 90 % 4.19 C
2043 02-03-2019 02:10:00 5.7 C 91 % 4.35 C
2044 02-03-2019 02:15:00 5.7 C 91 % 4.35 C
2045 02-03-2019 02:20:00 5.7 C 91 % 4.35 C
2046 02-03-2019 02:25:00 5.6 C 90 % 4.09 C
2047 02-03-2019 02:30:00 5.6 C 91 % 4.25 C
2048 02-03-2019 02:35:00 5.6 C 91 % 4.25 C
2049 02-03-2019 02:40:00 5.6 C 91 % 4.25 C
2050 02-03-2019 02:45:00 5.6 C 91 % 4.25 C
Sensor: Nr:Datum:Temp:Feuchte:Taupunkt:
Aussen-T/F 2051 02-03-2019 02:50:00 5.6 C 91 % 4.25 C
2052 02-03-2019 02:55:00 5.6 C 91 % 4.25 C
2053 02-03-2019 03:00:00 5.6 C 91 % 4.25 C
2054 02-03-2019 03:05:00 5.6 C 91 % 4.25 C
2055 02-03-2019 03:10:00 5.6 C 91 % 4.25 C
2056 02-03-2019 03:15:00 5.6 C 91 % 4.25 C
2057 02-03-2019 03:20:00 5.6 C 91 % 4.25 C
2058 02-03-2019 03:25:00 5.6 C 91 % 4.25 C
2059 02-03-2019 03:30:00 5.7 C 91 % 4.35 C
2060 02-03-2019 03:35:00 5.7 C 91 % 4.35 C
2061 02-03-2019 03:40:00 5.7 C 90 % 4.19 C
2062 02-03-2019 03:45:00 5.7 C 90 % 4.19 C
2063 02-03-2019 03:50:00 5.7 C 90 % 4.19 C
2064 02-03-2019 03:55:00 5.7 C 90 % 4.19 C
2065 02-03-2019 04:00:00 5.7 C 90 % 4.19 C
2066 02-03-2019 04:05:00 5.7 C 91 % 4.35 C
2067 02-03-2019 04:10:00 5.7 C 91 % 4.35 C
2068 02-03-2019 04:15:00 5.6 C 90 % 4.09 C
2069 02-03-2019 04:20:00 5.6 C 91 % 4.25 C
2070 02-03-2019 04:25:00 5.6 C 91 % 4.25 C
2071 02-03-2019 04:30:00 5.7 C 91 % 4.35 C
2072 02-03-2019 04:35:00 5.7 C 91 % 4.35 C
2073 02-03-2019 04:40:00 5.7 C 91 % 4.35 C
2074 02-03-2019 04:45:00 5.8 C 92 % 4.6 C
2075 02-03-2019 04:50:00 5.8 C 91 % 4.45 C
Sensor: Nr:Datum:Temp:Feuchte:Taupunkt:
Aussen-T/F 2076 02-03-2019 04:55:00 5.8 C 91 % 4.45 C
2077 02-03-2019 05:00:00 5.8 C 91 % 4.45 C
2078 02-03-2019 05:05:00 5.9 C 91 % 4.55 C
2079 02-03-2019 05:10:00 5.9 C 91 % 4.55 C
2080 02-03-2019 05:15:00 5.9 C 91 % 4.55 C
2081 02-03-2019 05:20:00 6 C 91 % 4.65 C
2082 02-03-2019 05:25:00 6.1 C 91 % 4.74 C
2083 02-03-2019 05:30:00 6.2 C 91 % 4.84 C
2084 02-03-2019 05:35:00 6.3 C 91 % 4.94 C
2085 02-03-2019 05:40:00 6.3 C 91 % 4.94 C
2086 02-03-2019 05:45:00 6.3 C 91 % 4.94 C
2087 02-03-2019 05:50:00 6.3 C 91 % 4.94 C
2088 02-03-2019 05:55:00 6.3 C 91 % 4.94 C
2089 02-03-2019 06:00:00 6.3 C 91 % 4.94 C
2090 02-03-2019 06:05:00 6.3 C 91 % 4.94 C
2091 02-03-2019 06:10:00 6.3 C 91 % 4.94 C
2092 02-03-2019 06:15:00 6.3 C 91 % 4.94 C
2093 02-03-2019 06:20:00 6.3 C 91 % 4.94 C
2094 02-03-2019 06:25:00 6.3 C 91 % 4.94 C
2095 02-03-2019 06:30:00 6.3 C 91 % 4.94 C
2096 02-03-2019 06:35:00 6.3 C 91 % 4.94 C
2097 02-03-2019 06:40:00 6.3 C 91 % 4.94 C
2098 02-03-2019 06:45:00 6.3 C 91 % 4.94 C
2099 02-03-2019 06:50:00 6.3 C 91 % 4.94 C
2100 02-03-2019 06:55:00 6.4 C 91 % 5.04 C
Sensor: Nr:Datum:Temp:Feuchte:Taupunkt:
Aussen-T/F 2101 02-03-2019 07:00:00 6.4 C 91 % 5.04 C
2102 02-03-2019 07:05:00 6.6 C 91 % 5.24 C
2103 02-03-2019 07:10:00 6.6 C 91 % 5.24 C
2104 02-03-2019 07:15:00 6.6 C 91 % 5.24 C
2105 02-03-2019 07:20:00 6.7 C 91 % 5.34 C
2106 02-03-2019 07:25:00 6.7 C 91 % 5.34 C
2107 02-03-2019 07:30:00 6.7 C 91 % 5.34 C
2108 02-03-2019 07:35:00 6.7 C 91 % 5.34 C
2109 02-03-2019 07:40:00 6.7 C 91 % 5.34 C
2110 02-03-2019 07:45:00 6.7 C 91 % 5.34 C
2111 02-03-2019 07:50:00 6.7 C 91 % 5.34 C
2112 02-03-2019 07:55:00 6.7 C 91 % 5.34 C
2113 02-03-2019 08:00:00 6.8 C 91 % 5.44 C
2114 02-03-2019 08:05:00 6.8 C 91 % 5.44 C
2115 02-03-2019 08:10:00 6.8 C 91 % 5.44 C
2116 02-03-2019 08:15:00 6.9 C 90 % 5.38 C
2117 02-03-2019 08:20:00 6.9 C 91 % 5.54 C
2118 02-03-2019 08:25:00 7 C 91 % 5.63 C
2119 02-03-2019 08:30:00 7.1 C 90 % 5.57 C
2120 02-03-2019 08:35:00 7.1 C 90 % 5.57 C
2121 02-03-2019 08:40:00 7.1 C 90 % 5.57 C
2122 02-03-2019 08:45:00 7.2 C 90 % 5.67 C
2123 02-03-2019 08:50:00 7.2 C 90 % 5.67 C
2124 02-03-2019 08:55:00 7.3 C 90 % 5.77 C
2125 02-03-2019 09:00:00 7.3 C 90 % 5.77 C
Sensor: Nr:Datum:Temp:Feuchte:Taupunkt:
Aussen-T/F 2126 02-03-2019 09:05:00 7.4 C 90 % 5.87 C
2127 02-03-2019 09:10:00 7.5 C 90 % 5.97 C
2128 02-03-2019 09:15:00 7.6 C 89 % 5.91 C
2129 02-03-2019 09:20:00 7.6 C 89 % 5.91 C
2130 02-03-2019 09:25:00 7.7 C 89 % 6 C
2131 02-03-2019 09:30:00 7.7 C 89 % 6 C
2132 02-03-2019 09:35:00 7.8 C 89 % 6.1 C
2133 02-03-2019 09:40:00 7.8 C 88 % 5.94 C
2134 02-03-2019 09:45:00 7.8 C 88 % 5.94 C
2135 02-03-2019 09:50:00 7.9 C 88 % 6.04 C
2136 02-03-2019 09:55:00 7.9 C 88 % 6.04 C
2137 02-03-2019 10:00:00 7.9 C 88 % 6.04 C
2138 02-03-2019 10:05:00 7.9 C 88 % 6.04 C
2139 02-03-2019 10:10:00 7.9 C 88 % 6.04 C
2140 02-03-2019 10:15:00 7.9 C 88 % 6.04 C
2141 02-03-2019 10:20:00 7.9 C 88 % 6.04 C
2142 02-03-2019 10:25:00 8 C 88 % 6.14 C
2143 02-03-2019 10:30:00 8.1 C 88 % 6.24 C
2144 02-03-2019 10:35:00 8.1 C 87 % 6.07 C
2145 02-03-2019 10:40:00 8.1 C 88 % 6.24 C
2146 02-03-2019 10:45:00 8.2 C 88 % 6.33 C
2147 02-03-2019 10:50:00 8.3 C 87 % 6.27 C
2148 02-03-2019 10:55:00 8.3 C 87 % 6.27 C
2149 02-03-2019 11:00:00 8.4 C 87 % 6.37 C
2150 02-03-2019 11:05:00 8.6 C 87 % 6.56 C
Sensor: Nr:Datum:Temp:Feuchte:Taupunkt:
Aussen-T/F 2151 02-03-2019 11:10:00 8.7 C 86 % 6.49 C
2152 02-03-2019 11:15:00 8.7 C 86 % 6.49 C
2153 02-03-2019 11:20:00 8.8 C 86 % 6.59 C
2154 02-03-2019 11:25:00 8.9 C 86 % 6.69 C
2155 02-03-2019 11:30:00 9.1 C 86 % 6.89 C
2156 02-03-2019 11:35:00 9.2 C 85 % 6.81 C
2157 02-03-2019 11:40:00 9.3 C 84 % 6.74 C
2158 02-03-2019 11:45:00 9.3 C 85 % 6.91 C
2159 02-03-2019 11:50:00 9.4 C 84 % 6.84 C
2160 02-03-2019 11:55:00 9.5 C 83 % 6.76 C
2161 02-03-2019 12:00:00 9.6 C 84 % 7.03 C
2162 02-03-2019 12:05:00 9.7 C 84 % 7.13 C
2163 02-03-2019 12:10:00 9.8 C 84 % 7.23 C
2164 02-03-2019 12:15:00 10 C 83 % 7.25 C
2165 02-03-2019 12:20:00 10.1 C 83 % 7.35 C
2166 02-03-2019 12:25:00 10.1 C 83 % 7.35 C
2167 02-03-2019 12:30:00 10.1 C 82 % 7.17 C
2168 02-03-2019 12:35:00 10.1 C 82 % 7.17 C
2169 02-03-2019 12:40:00 10 C 82 % 7.07 C
2170 02-03-2019 12:45:00 9.9 C 82 % 6.98 C
2171 02-03-2019 12:50:00 9.9 C 83 % 7.15 C
2172 02-03-2019 12:55:00 10 C 82 % 7.07 C
2173 02-03-2019 13:00:00 10 C 82 % 7.07 C
2174 02-03-2019 13:05:00 10.2 C 83 % 7.45 C
2175 02-03-2019 13:10:00 10.4 C 82 % 7.46 C
Sensor: Nr:Datum:Temp:Feuchte:Taupunkt:
Aussen-T/F 2176 02-03-2019 13:15:00 10.6 C 81 % 7.48 C
2177 02-03-2019 13:20:00 10.7 C 80 % 7.4 C
2178 02-03-2019 13:25:00 10.7 C 79 % 7.21 C
2179 02-03-2019 13:30:00 10.7 C 79 % 7.21 C
2180 02-03-2019 13:35:00 10.7 C 79 % 7.21 C
2181 02-03-2019 13:40:00 10.7 C 79 % 7.21 C
2182 02-03-2019 13:45:00 10.8 C 79 % 7.31 C
2183 02-03-2019 13:50:00 11 C 78 % 7.32 C
2184 02-03-2019 13:55:00 11.1 C 78 % 7.41 C
2185 02-03-2019 14:00:00 11.1 C 77 % 7.23 C
2186 02-03-2019 14:05:00 11.2 C 77 % 7.32 C
2187 02-03-2019 14:10:00 11.2 C 77 % 7.32 C
2188 02-03-2019 14:15:00 11.3 C 76 % 7.23 C
2189 02-03-2019 14:20:00 11.4 C 75 % 7.13 C
2190 02-03-2019 14:25:00 11.4 C 75 % 7.13 C
2191 02-03-2019 14:30:00 11.4 C 75 % 7.13 C
2192 02-03-2019 14:35:00 11.5 C 76 % 7.42 C
2193 02-03-2019 14:40:00 11.6 C 75 % 7.33 C
2194 02-03-2019 14:45:00 11.6 C 75 % 7.33 C
2195 02-03-2019 14:50:00 11.6 C 75 % 7.33 C
2196 02-03-2019 14:55:00 11.6 C 74 % 7.13 C
2197 02-03-2019 15:00:00 11.7 C 74 % 7.23 C
2198 02-03-2019 15:05:00 11.7 C 74 % 7.23 C
2199 02-03-2019 15:10:00 11.8 C 73 % 7.12 C
2200 02-03-2019 15:15:00 11.8 C 73 % 7.12 C
Sensor: Nr:Datum:Temp:Feuchte:Taupunkt:
Aussen-T/F 2201 02-03-2019 15:20:00 11.8 C 72 % 6.92 C
2202 02-03-2019 15:25:00 11.9 C 72 % 7.02 C
2203 02-03-2019 15:30:00 11.9 C 72 % 7.02 C
2204 02-03-2019 15:35:00 12 C 72 % 7.12 C
2205 02-03-2019 15:40:00 12 C 71 % 6.91 C
2206 02-03-2019 15:45:00 12.1 C 72 % 7.21 C
2207 02-03-2019 15:50:00 12.2 C 72 % 7.31 C
2208 02-03-2019 15:55:00 12.2 C 71 % 7.1 C
2209 02-03-2019 16:00:00 12.3 C 70 % 6.99 C
2210 02-03-2019 16:05:00 12.3 C 70 % 6.99 C
2211 02-03-2019 16:10:00 12.3 C 70 % 6.99 C
2212 02-03-2019 16:15:00 12.5 C 70 % 7.18 C
2213 02-03-2019 16:20:00 12.6 C 70 % 7.28 C
2214 02-03-2019 16:25:00 12.6 C 70 % 7.28 C
2215 02-03-2019 16:30:00 12.6 C 70 % 7.28 C
2216 02-03-2019 16:35:00 12.4 C 70 % 7.09 C
2217 02-03-2019 16:40:00 12.3 C 71 % 7.2 C
2218 02-03-2019 16:45:00 12.2 C 71 % 7.1 C
2219 02-03-2019 16:50:00 12.1 C 71 % 7.01 C
2220 02-03-2019 16:55:00 12 C 72 % 7.12 C
2221 02-03-2019 17:00:00 11.9 C 73 % 7.22 C
2222 02-03-2019 17:05:00 11.8 C 73 % 7.12 C
2223 02-03-2019 17:10:00 11.7 C 74 % 7.23 C
2224 02-03-2019 17:15:00 11.5 C 74 % 7.03 C
2225 02-03-2019 17:20:00 11.4 C 75 % 7.13 C
Sensor: Nr:Datum:Temp:Feuchte:Taupunkt:
Aussen-T/F 2226 02-03-2019 17:25:00 11.3 C 75 % 7.04 C
2227 02-03-2019 17:30:00 11.3 C 76 % 7.23 C
2228 02-03-2019 17:35:00 11.2 C 76 % 7.13 C
2229 02-03-2019 17:40:00 11.2 C 77 % 7.32 C
2230 02-03-2019 17:45:00 11.1 C 77 % 7.23 C
2231 02-03-2019 17:50:00 11 C 78 % 7.32 C
2232 02-03-2019 17:55:00 10.9 C 78 % 7.22 C
2233 02-03-2019 18:00:00 10.8 C 78 % 7.12 C
2234 02-03-2019 18:05:00 10.8 C 79 % 7.31 C
2235 02-03-2019 18:10:00 10.7 C 79 % 7.21 C
2236 02-03-2019 18:15:00 10.7 C 80 % 7.4 C
2237 02-03-2019 18:20:00 10.6 C 80 % 7.3 C
2238 02-03-2019 18:25:00 10.6 C 80 % 7.3 C
2239 02-03-2019 18:30:00 10.5 C 81 % 7.38 C
2240 02-03-2019 18:35:00 10.5 C 81 % 7.38 C
2241 02-03-2019 18:40:00 10.4 C 82 % 7.46 C
2242 02-03-2019 18:45:00 10.4 C 82 % 7.46 C
2243 02-03-2019 18:50:00 10.3 C 82 % 7.37 C
2244 02-03-2019 18:55:00 10.3 C 83 % 7.54 C
2245 02-03-2019 19:00:00 10.2 C 84 % 7.62 C
2246 02-03-2019 19:05:00 10.1 C 85 % 7.7 C
2247 02-03-2019 19:10:00 10.1 C 85 % 7.7 C
2248 02-03-2019 19:15:00 10 C 86 % 7.77 C
2249 02-03-2019 19:20:00 9.9 C 86 % 7.67 C
2250 02-03-2019 19:25:00 9.8 C 86 % 7.57 C
Sensor: Nr:Datum:Temp:Feuchte:Taupunkt:
Aussen-T/F 2251 02-03-2019 19:30:00 9.8 C 86 % 7.57 C
2252 02-03-2019 19:35:00 9.7 C 86 % 7.47 C
2253 02-03-2019 19:40:00 9.7 C 87 % 7.64 C
2254 02-03-2019 19:45:00 9.6 C 87 % 7.55 C
2255 02-03-2019 19:50:00 9.6 C 87 % 7.55 C
2256 02-03-2019 19:55:00 9.6 C 87 % 7.55 C
2257 02-03-2019 20:00:00 9.4 C 87 % 7.35 C
2258 02-03-2019 20:05:00 9.5 C 87 % 7.45 C
2259 02-03-2019 20:10:00 9.5 C 87 % 7.45 C
2260 02-03-2019 20:15:00 9.5 C 87 % 7.45 C
2261 02-03-2019 20:20:00 9.5 C 87 % 7.45 C
2262 02-03-2019 20:25:00 9.6 C 87 % 7.55 C
2263 02-03-2019 20:30:00 9.6 C 87 % 7.55 C
2264 02-03-2019 20:35:00 9.5 C 87 % 7.45 C
2265 02-03-2019 20:40:00 9.6 C 88 % 7.71 C
2266 02-03-2019 20:45:00 9.6 C 88 % 7.71 C
2267 02-03-2019 20:50:00 9.6 C 87 % 7.55 C
2268 02-03-2019 20:55:00 9.5 C 88 % 7.61 C
2269 02-03-2019 21:00:00 9.5 C 88 % 7.61 C
2270 02-03-2019 21:05:00 9.4 C 88 % 7.52 C
2271 02-03-2019 21:10:00 9.4 C 88 % 7.52 C
2272 02-03-2019 21:15:00 9.6 C 89 % 7.88 C
2273 02-03-2019 21:20:00 9.7 C 88 % 7.81 C
2274 02-03-2019 21:25:00 9.8 C 88 % 7.91 C
2275 02-03-2019 21:30:00 9.9 C 87 % 7.84 C
Sensor: Nr:Datum:Temp:Feuchte:Taupunkt:
Aussen-T/F 2276 02-03-2019 21:35:00 10.1 C 87 % 8.04 C
2277 02-03-2019 21:40:00 10.1 C 87 % 8.04 C
2278 02-03-2019 21:45:00 10.1 C 87 % 8.04 C
2279 02-03-2019 21:50:00 10.2 C 86 % 7.97 C
2280 02-03-2019 21:55:00 10.2 C 86 % 7.97 C
2281 02-03-2019 22:00:00 10.2 C 86 % 7.97 C
2282 02-03-2019 22:05:00 10.2 C 86 % 7.97 C
2283 02-03-2019 22:10:00 10.2 C 86 % 7.97 C
2284 02-03-2019 22:15:00 10.2 C 85 % 7.79 C
2285 02-03-2019 22:20:00 10.2 C 85 % 7.79 C
2286 02-03-2019 22:25:00 10.2 C 85 % 7.79 C
2287 02-03-2019 22:30:00 10.3 C 85 % 7.89 C
2288 02-03-2019 22:35:00 10.3 C 85 % 7.89 C
2289 02-03-2019 22:40:00 10.3 C 85 % 7.89 C
2290 02-03-2019 22:45:00 10.3 C 84 % 7.72 C
2291 02-03-2019 22:50:00 10.3 C 84 % 7.72 C
2292 02-03-2019 22:55:00 10.3 C 84 % 7.72 C
2293 02-03-2019 23:00:00 10.3 C 84 % 7.72 C
2294 02-03-2019 23:05:00 10.2 C 84 % 7.62 C
2295 02-03-2019 23:10:00 10.2 C 84 % 7.62 C
2296 02-03-2019 23:15:00 10.1 C 84 % 7.52 C
2297 02-03-2019 23:20:00 10.1 C 83 % 7.35 C
2298 02-03-2019 23:25:00 10.1 C 83 % 7.35 C
2299 02-03-2019 23:30:00 9.9 C 83 % 7.15 C
2300 02-03-2019 23:35:00 9.8 C 83 % 7.05 C
Sensor: Nr:Datum:Temp:Feuchte:Taupunkt:
Aussen-T/F 2301 02-03-2019 23:40:00 9.8 C 83 % 7.05 C
2302 02-03-2019 23:45:00 9.8 C 82 % 6.88 C
2303 02-03-2019 23:50:00 9.7 C 83 % 6.96 C
2304 02-03-2019 23:55:00 9.6 C 82 % 6.68 C
2305 03-03-2019 00:00:00 9.6 C 82 % 6.68 C
2306 03-03-2019 00:05:00 9.5 C 82 % 6.59 C
2307 03-03-2019 00:10:00 9.5 C 82 % 6.59 C
2308 03-03-2019 00:15:00 9.5 C 82 % 6.59 C
2309 03-03-2019 00:20:00 9.4 C 82 % 6.49 C
2310 03-03-2019 00:25:00 9.3 C 82 % 6.39 C
2311 03-03-2019 00:30:00 9.2 C 82 % 6.29 C
2312 03-03-2019 00:35:00 8.9 C 82 % 6 C
2313 03-03-2019 00:40:00 8.7 C 83 % 5.98 C
2314 03-03-2019 00:45:00 8.5 C 84 % 5.96 C
2315 03-03-2019 00:50:00 8.3 C 85 % 5.93 C
2316 03-03-2019 00:55:00 8.3 C 86 % 6.1 C
2317 03-03-2019 01:00:00 8.3 C 87 % 6.27 C
2318 03-03-2019 01:05:00 8.4 C 87 % 6.37 C
2319 03-03-2019 01:10:00 8.6 C 87 % 6.56 C
2320 03-03-2019 01:15:00 8.8 C 87 % 6.76 C
2321 03-03-2019 01:20:00 8.9 C 86 % 6.69 C
2322 03-03-2019 01:25:00 9.1 C 86 % 6.89 C
2323 03-03-2019 01:30:00 9.3 C 86 % 7.08 C
2324 03-03-2019 01:35:00 9.4 C 85 % 7.01 C
2325 03-03-2019 01:40:00 9.7 C 84 % 7.13 C
Sensor: Nr:Datum:Temp:Feuchte:Taupunkt:
Aussen-T/F 2326 03-03-2019 01:45:00 9.8 C 83 % 7.05 C
2327 03-03-2019 01:50:00 9.9 C 83 % 7.15 C
2328 03-03-2019 01:55:00 9.9 C 82 % 6.98 C
2329 03-03-2019 02:00:00 10 C 82 % 7.07 C
2330 03-03-2019 02:05:00 10 C 82 % 7.07 C
2331 03-03-2019 02:10:00 10.1 C 81 % 6.99 C
2332 03-03-2019 02:15:00 10.1 C 81 % 6.99 C
2333 03-03-2019 02:20:00 10.1 C 81 % 6.99 C
2334 03-03-2019 02:25:00 10.1 C 81 % 6.99 C
2335 03-03-2019 02:30:00 10.1 C 81 % 6.99 C
2336 03-03-2019 02:35:00 9.9 C 81 % 6.8 C
2337 03-03-2019 02:40:00 9.9 C 81 % 6.8 C
2338 03-03-2019 02:45:00 9.9 C 81 % 6.8 C
2339 03-03-2019 02:50:00 9.8 C 81 % 6.7 C
2340 03-03-2019 02:55:00 9.8 C 82 % 6.88 C
2341 03-03-2019 03:00:00 9.8 C 81 % 6.7 C
2342 03-03-2019 03:05:00 9.8 C 81 % 6.7 C
2343 03-03-2019 03:10:00 9.9 C 81 % 6.8 C
2344 03-03-2019 03:15:00 9.9 C 81 % 6.8 C
2345 03-03-2019 03:20:00 9.9 C 81 % 6.8 C
2346 03-03-2019 03:25:00 10 C 81 % 6.89 C
2347 03-03-2019 03:30:00 10 C 81 % 6.89 C
2348 03-03-2019 03:35:00 10.1 C 81 % 6.99 C
2349 03-03-2019 03:40:00 10.1 C 81 % 6.99 C
2350 03-03-2019 03:45:00 10.1 C 81 % 6.99 C
Sensor: Nr:Datum:Temp:Feuchte:Taupunkt:
Aussen-T/F 2351 03-03-2019 03:50:00 10.2 C 81 % 7.09 C
2352 03-03-2019 03:55:00 10.2 C 81 % 7.09 C
2353 03-03-2019 04:00:00 10.2 C 81 % 7.09 C
2354 03-03-2019 04:05:00 10.2 C 81 % 7.09 C
2355 03-03-2019 04:10:00 10.2 C 81 % 7.09 C
2356 03-03-2019 04:15:00 10.2 C 81 % 7.09 C
2357 03-03-2019 04:20:00 10.2 C 81 % 7.09 C
2358 03-03-2019 04:25:00 10.3 C 81 % 7.19 C
2359 03-03-2019 04:30:00 10.3 C 81 % 7.19 C
2360 03-03-2019 04:35:00 10.3 C 81 % 7.19 C
2361 03-03-2019 04:40:00 10.2 C 81 % 7.09 C
2362 03-03-2019 04:45:00 10.2 C 81 % 7.09 C
2363 03-03-2019 04:50:00 10.2 C 81 % 7.09 C
2364 03-03-2019 04:55:00 10.2 C 80 % 6.91 C
2365 03-03-2019 05:00:00 10.2 C 80 % 6.91 C
2366 03-03-2019 05:05:00 10.3 C 80 % 7.01 C
2367 03-03-2019 05:10:00 10.2 C 80 % 6.91 C
2368 03-03-2019 05:15:00 10.2 C 80 % 6.91 C
2369 03-03-2019 05:20:00 10.2 C 80 % 6.91 C
2370 03-03-2019 05:25:00 10.2 C 80 % 6.91 C
2371 03-03-2019 05:30:00 10.2 C 80 % 6.91 C
2372 03-03-2019 05:35:00 10.2 C 80 % 6.91 C
2373 03-03-2019 05:40:00 10.2 C 79 % 6.73 C
2374 03-03-2019 05:45:00 10.2 C 79 % 6.73 C
2375 03-03-2019 05:50:00 10.2 C 80 % 6.91 C
Sensor: Nr:Datum:Temp:Feuchte:Taupunkt:
Aussen-T/F 2376 03-03-2019 05:55:00 10.2 C 80 % 6.91 C
2377 03-03-2019 06:00:00 10.2 C 80 % 6.91 C
2378 03-03-2019 06:05:00 10.1 C 80 % 6.81 C
2379 03-03-2019 06:10:00 10.1 C 81 % 6.99 C
2380 03-03-2019 06:15:00 10.1 C 81 % 6.99 C
2381 03-03-2019 06:20:00 10.1 C 81 % 6.99 C
2382 03-03-2019 06:25:00 10.1 C 81 % 6.99 C
2383 03-03-2019 06:30:00 10.1 C 81 % 6.99 C
2384 03-03-2019 06:35:00 10.1 C 81 % 6.99 C
2385 03-03-2019 06:40:00 10.1 C 81 % 6.99 C
2386 03-03-2019 06:45:00 10.1 C 81 % 6.99 C
2387 03-03-2019 06:50:00 10.1 C 81 % 6.99 C
2388 03-03-2019 06:55:00 10.1 C 81 % 6.99 C
2389 03-03-2019 07:00:00 10.1 C 81 % 6.99 C
2390 03-03-2019 07:05:00 10.1 C 81 % 6.99 C
2391 03-03-2019 07:10:00 10.1 C 81 % 6.99 C
2392 03-03-2019 07:15:00 10.1 C 81 % 6.99 C
2393 03-03-2019 07:20:00 10.1 C 81 % 6.99 C
2394 03-03-2019 07:25:00 10.1 C 81 % 6.99 C
2395 03-03-2019 07:30:00 10.1 C 81 % 6.99 C
2396 03-03-2019 07:35:00 10.1 C 81 % 6.99 C
2397 03-03-2019 07:40:00 10.2 C 81 % 7.09 C
2398 03-03-2019 07:45:00 10.2 C 81 % 7.09 C
2399 03-03-2019 07:50:00 10.2 C 81 % 7.09 C
2400 03-03-2019 07:55:00 10.2 C 81 % 7.09 C
Sensor: Nr:Datum:Temp:Feuchte:Taupunkt:
Aussen-T/F 2401 03-03-2019 08:00:00 10.2 C 81 % 7.09 C
2402 03-03-2019 08:05:00 10.2 C 81 % 7.09 C
2403 03-03-2019 08:10:00 10.3 C 81 % 7.19 C
2404 03-03-2019 08:15:00 10.3 C 81 % 7.19 C
2405 03-03-2019 08:20:00 10.3 C 81 % 7.19 C
2406 03-03-2019 08:25:00 10.3 C 81 % 7.19 C
2407 03-03-2019 08:30:00 10.3 C 82 % 7.37 C
2408 03-03-2019 08:35:00 10.3 C 82 % 7.37 C
2409 03-03-2019 08:40:00 10.3 C 82 % 7.37 C
2410 03-03-2019 08:45:00 10.4 C 82 % 7.46 C
2411 03-03-2019 08:50:00 10.4 C 82 % 7.46 C
2412 03-03-2019 08:55:00 10.5 C 82 % 7.56 C
2413 03-03-2019 09:00:00 10.6 C 82 % 7.66 C
2414 03-03-2019 09:05:00 10.7 C 81 % 7.58 C
2415 03-03-2019 09:10:00 10.8 C 82 % 7.85 C
2416 03-03-2019 09:15:00 10.9 C 81 % 7.77 C
2417 03-03-2019 09:20:00 10.9 C 81 % 7.77 C
2418 03-03-2019 09:25:00 11 C 81 % 7.87 C
2419 03-03-2019 09:30:00 10.9 C 81 % 7.77 C
2420 03-03-2019 09:35:00 10.9 C 81 % 7.77 C
2421 03-03-2019 09:40:00 10.9 C 81 % 7.77 C
2422 03-03-2019 09:45:00 10.9 C 81 % 7.77 C
2423 03-03-2019 09:50:00 10.9 C 81 % 7.77 C
2424 03-03-2019 09:55:00 11.1 C 81 % 7.97 C
2425 03-03-2019 10:00:00 11.1 C 81 % 7.97 C
Sensor: Nr:Datum:Temp:Feuchte:Taupunkt:
Aussen-T/F 2426 03-03-2019 10:05:00 11.1 C 81 % 7.97 C
2427 03-03-2019 10:10:00 11.2 C 81 % 8.06 C
2428 03-03-2019 10:15:00 11.2 C 81 % 8.06 C
2429 03-03-2019 10:20:00 11.1 C 81 % 7.97 C
2430 03-03-2019 10:25:00 11.1 C 81 % 7.97 C
2431 03-03-2019 10:30:00 11.1 C 81 % 7.97 C
2432 03-03-2019 10:35:00 11.2 C 81 % 8.06 C
2433 03-03-2019 10:40:00 11.2 C 81 % 8.06 C
2434 03-03-2019 10:45:00 11.2 C 81 % 8.06 C
2435 03-03-2019 10:50:00 11.2 C 81 % 8.06 C
2436 03-03-2019 10:55:00 11.2 C 81 % 8.06 C
2437 03-03-2019 11:00:00 11.1 C 81 % 7.97 C
2438 03-03-2019 11:05:00 11.1 C 82 % 8.15 C
2439 03-03-2019 11:10:00 11 C 82 % 8.05 C
2440 03-03-2019 11:15:00 10.9 C 82 % 7.95 C
2441 03-03-2019 11:20:00 10.9 C 82 % 7.95 C
2442 03-03-2019 11:25:00 10.9 C 82 % 7.95 C
2443 03-03-2019 11:30:00 11 C 82 % 8.05 C
2444 03-03-2019 11:35:00 11 C 82 % 8.05 C
2445 03-03-2019 11:40:00 11 C 82 % 8.05 C
2446 03-03-2019 11:45:00 11 C 82 % 8.05 C
2447 03-03-2019 11:50:00 11.1 C 83 % 8.33 C
2448 03-03-2019 11:55:00 11.1 C 82 % 8.15 C
2449 03-03-2019 12:00:00 11.1 C 83 % 8.33 C
2450 03-03-2019 12:05:00 11.1 C 82 % 8.15 C
Sensor: Nr:Datum:Temp:Feuchte:Taupunkt:
Aussen-T/F 2451 03-03-2019 12:10:00 11.1 C 82 % 8.15 C
2452 03-03-2019 12:15:00 11.1 C 82 % 8.15 C
2453 03-03-2019 12:20:00 11.2 C 82 % 8.25 C
2454 03-03-2019 12:25:00 11.2 C 82 % 8.25 C
2455 03-03-2019 12:30:00 11.3 C 82 % 8.34 C
2456 03-03-2019 12:35:00 11.3 C 82 % 8.34 C
2457 03-03-2019 12:40:00 11.3 C 82 % 8.34 C
2458 03-03-2019 12:45:00 11.3 C 82 % 8.34 C
2459 03-03-2019 12:50:00 11.3 C 82 % 8.34 C
2460 03-03-2019 12:55:00 11.4 C 82 % 8.44 C
2461 03-03-2019 13:00:00 11.4 C 82 % 8.44 C
2462 03-03-2019 13:05:00 11.6 C 81 % 8.45 C
2463 03-03-2019 13:10:00 11.6 C 81 % 8.45 C
2464 03-03-2019 13:15:00 11.7 C 81 % 8.55 C
2465 03-03-2019 13:20:00 11.7 C 81 % 8.55 C
2466 03-03-2019 13:25:00 11.8 C 80 % 8.47 C
2467 03-03-2019 13:30:00 11.8 C 80 % 8.47 C
2468 03-03-2019 13:35:00 11.8 C 80 % 8.47 C
2469 03-03-2019 13:40:00 11.8 C 80 % 8.47 C
2470 03-03-2019 13:45:00 11.8 C 80 % 8.47 C
2471 03-03-2019 13:50:00 11.9 C 80 % 8.56 C
2472 03-03-2019 13:55:00 11.9 C 80 % 8.56 C
2473 03-03-2019 14:00:00 11.9 C 79 % 8.38 C
2474 03-03-2019 14:05:00 11.9 C 79 % 8.38 C
2475 03-03-2019 14:10:00 11.9 C 80 % 8.56 C
Sensor: Nr:Datum:Temp:Feuchte:Taupunkt:
Aussen-T/F 2476 03-03-2019 14:15:00 11.9 C 80 % 8.56 C
2477 03-03-2019 14:20:00 11.8 C 80 % 8.47 C
2478 03-03-2019 14:25:00 11.8 C 80 % 8.47 C
2479 03-03-2019 14:30:00 11.8 C 80 % 8.47 C
2480 03-03-2019 14:35:00 11.7 C 80 % 8.37 C
2481 03-03-2019 14:40:00 11.7 C 80 % 8.37 C
2482 03-03-2019 14:45:00 11.7 C 80 % 8.37 C
2483 03-03-2019 14:50:00 11.7 C 81 % 8.55 C
2484 03-03-2019 14:55:00 11.7 C 81 % 8.55 C
2485 03-03-2019 15:00:00 11.7 C 81 % 8.55 C
2486 03-03-2019 15:05:00 11.7 C 80 % 8.37 C
2487 03-03-2019 15:10:00 11.7 C 80 % 8.37 C
2488 03-03-2019 15:15:00 11.8 C 81 % 8.65 C
2489 03-03-2019 15:20:00 11.8 C 81 % 8.65 C
2490 03-03-2019 15:25:00 11.8 C 81 % 8.65 C
2491 03-03-2019 15:30:00 11.7 C 81 % 8.55 C
2492 03-03-2019 15:35:00 11.7 C 82 % 8.73 C
2493 03-03-2019 15:40:00 11.7 C 82 % 8.73 C
2494 03-03-2019 15:45:00 11.6 C 82 % 8.64 C
2495 03-03-2019 15:50:00 11.6 C 82 % 8.64 C
2496 03-03-2019 15:55:00 11.6 C 82 % 8.64 C
2497 03-03-2019 16:00:00 11.6 C 82 % 8.64 C
2498 03-03-2019 16:05:00 11.6 C 82 % 8.64 C
2499 03-03-2019 16:10:00 11.6 C 82 % 8.64 C
2500 03-03-2019 16:15:00 11.6 C 82 % 8.64 C
Sensor: Nr:Datum:Temp:Feuchte:Taupunkt:
Aussen-T/F 2501 03-03-2019 16:20:00 11.6 C 82 % 8.64 C
2502 03-03-2019 16:25:00 11.7 C 82 % 8.73 C
2503 03-03-2019 16:30:00 11.7 C 81 % 8.55 C
2504 03-03-2019 16:35:00 11.8 C 81 % 8.65 C
2505 03-03-2019 16:40:00 11.8 C 81 % 8.65 C
2506 03-03-2019 16:45:00 11.8 C 81 % 8.65 C
2507 03-03-2019 16:50:00 11.8 C 81 % 8.65 C
2508 03-03-2019 16:55:00 11.8 C 81 % 8.65 C
2509 03-03-2019 17:00:00 11.8 C 81 % 8.65 C
2510 03-03-2019 17:05:00 11.8 C 81 % 8.65 C
2511 03-03-2019 17:10:00 11.8 C 80 % 8.47 C
2512 03-03-2019 17:15:00 11.8 C 80 % 8.47 C
2513 03-03-2019 17:20:00 11.8 C 80 % 8.47 C
2514 03-03-2019 17:25:00 11.8 C 80 % 8.47 C
2515 03-03-2019 17:30:00 11.9 C 79 % 8.38 C
2516 03-03-2019 17:35:00 11.9 C 79 % 8.38 C
2517 03-03-2019 17:40:00 11.9 C 79 % 8.38 C
2518 03-03-2019 17:45:00 12 C 78 % 8.29 C
2519 03-03-2019 17:50:00 12.1 C 78 % 8.38 C
2520 03-03-2019 17:55:00 12.2 C 78 % 8.48 C
2521 03-03-2019 18:00:00 12.2 C 78 % 8.48 C
2522 03-03-2019 18:05:00 12.2 C 78 % 8.48 C
2523 03-03-2019 18:10:00 12.2 C 78 % 8.48 C
2524 03-03-2019 18:15:00 12.2 C 78 % 8.48 C
2525 03-03-2019 18:20:00 12.2 C 78 % 8.48 C
Sensor: Nr:Datum:Temp:Feuchte:Taupunkt:
Aussen-T/F 2526 03-03-2019 18:25:00 12.2 C 78 % 8.48 C
2527 03-03-2019 18:30:00 12.2 C 77 % 8.29 C
2528 03-03-2019 18:35:00 12.2 C 77 % 8.29 C
2529 03-03-2019 18:40:00 12.2 C 77 % 8.29 C
2530 03-03-2019 18:45:00 12.2 C 77 % 8.29 C
2531 03-03-2019 18:50:00 12.1 C 77 % 8.2 C
2532 03-03-2019 18:55:00 12.1 C 77 % 8.2 C
2533 03-03-2019 19:00:00 12.1 C 77 % 8.2 C
2534 03-03-2019 19:05:00 12.2 C 77 % 8.29 C
2535 03-03-2019 19:10:00 12.2 C 77 % 8.29 C
2536 03-03-2019 19:15:00 12.2 C 76 % 8.1 C
2537 03-03-2019 19:20:00 12.3 C 76 % 8.2 C
2538 03-03-2019 19:25:00 12.3 C 76 % 8.2 C
2539 03-03-2019 19:30:00 12.3 C 76 % 8.2 C
2540 03-03-2019 19:35:00 12.3 C 76 % 8.2 C
2541 03-03-2019 19:40:00 12.3 C 75 % 8 C
2542 03-03-2019 19:45:00 12.4 C 75 % 8.1 C
2543 03-03-2019 19:50:00 12.4 C 75 % 8.1 C
2544 03-03-2019 19:55:00 12.4 C 75 % 8.1 C
2545 03-03-2019 20:00:00 12.3 C 75 % 8 C
2546 03-03-2019 20:05:00 12.3 C 75 % 8 C
2547 03-03-2019 20:10:00 12.3 C 75 % 8 C
2548 03-03-2019 20:15:00 12.3 C 76 % 8.2 C
2549 03-03-2019 20:20:00 12.3 C 76 % 8.2 C
2550 03-03-2019 20:25:00 12.4 C 76 % 8.29 C
Sensor: Nr:Datum:Temp:Feuchte:Taupunkt:
Aussen-T/F 2551 03-03-2019 20:30:00 12.4 C 76 % 8.29 C
2552 03-03-2019 20:35:00 12.4 C 76 % 8.29 C
2553 03-03-2019 20:40:00 12.4 C 76 % 8.29 C
2554 03-03-2019 20:45:00 12.3 C 77 % 8.39 C
2555 03-03-2019 20:50:00 12.3 C 77 % 8.39 C
2556 03-03-2019 20:55:00 12.3 C 77 % 8.39 C
2557 03-03-2019 21:00:00 12.3 C 77 % 8.39 C
2558 03-03-2019 21:05:00 12.3 C 77 % 8.39 C
2559 03-03-2019 21:10:00 12.3 C 77 % 8.39 C
2560 03-03-2019 21:15:00 12.3 C 77 % 8.39 C
2561 03-03-2019 21:20:00 12.3 C 77 % 8.39 C
2562 03-03-2019 21:25:00 12.3 C 77 % 8.39 C
2563 03-03-2019 21:30:00 12.3 C 77 % 8.39 C
2564 03-03-2019 21:35:00 12.3 C 77 % 8.39 C
2565 03-03-2019 21:40:00 12.4 C 77 % 8.49 C
2566 03-03-2019 21:45:00 12.4 C 77 % 8.49 C
2567 03-03-2019 21:50:00 12.4 C 77 % 8.49 C
2568 03-03-2019 21:55:00 12.4 C 78 % 8.68 C
2569 03-03-2019 22:00:00 12.4 C 78 % 8.68 C
2570 03-03-2019 22:05:00 12.4 C 78 % 8.68 C
2571 03-03-2019 22:10:00 12.4 C 78 % 8.68 C
2572 03-03-2019 22:15:00 12.4 C 77 % 8.49 C
2573 03-03-2019 22:20:00 12.4 C 77 % 8.49 C
2574 03-03-2019 22:25:00 12.5 C 77 % 8.58 C
2575 03-03-2019 22:30:00 12.5 C 77 % 8.58 C
Sensor: Nr:Datum:Temp:Feuchte:Taupunkt:
Aussen-T/F 2576 03-03-2019 22:35:00 12.6 C 76 % 8.49 C
2577 03-03-2019 22:40:00 12.6 C 76 % 8.49 C
2578 03-03-2019 22:45:00 12.7 C 75 % 8.39 C
2579 03-03-2019 22:50:00 12.7 C 75 % 8.39 C
2580 03-03-2019 22:55:00 12.7 C 75 % 8.39 C
2581 03-03-2019 23:00:00 12.7 C 74 % 8.19 C
2582 03-03-2019 23:05:00 12.8 C 74 % 8.29 C
2583 03-03-2019 23:10:00 12.8 C 74 % 8.29 C
2584 03-03-2019 23:15:00 12.8 C 74 % 8.29 C
2585 03-03-2019 23:20:00 12.7 C 74 % 8.19 C
2586 03-03-2019 23:25:00 12.7 C 74 % 8.19 C
2587 03-03-2019 23:30:00 12.7 C 74 % 8.19 C
2588 03-03-2019 23:35:00 12.7 C 74 % 8.19 C
2589 03-03-2019 23:40:00 12.8 C 73 % 8.09 C
2590 03-03-2019 23:45:00 12.8 C 74 % 8.29 C
2591 03-03-2019 23:50:00 12.8 C 73 % 8.09 C
2592 03-03-2019 23:55:00 12.8 C 73 % 8.09 C
2593 04-03-2019 00:00:00 12.9 C 73 % 8.18 C
2594 04-03-2019 00:05:00 12.9 C 73 % 8.18 C
2595 04-03-2019 00:10:00 12.9 C 72 % 7.98 C
2596 04-03-2019 00:15:00 13 C 72 % 8.08 C
2597 04-03-2019 00:20:00 13.1 C 72 % 8.17 C
2598 04-03-2019 00:25:00 13.1 C 71 % 7.97 C
2599 04-03-2019 00:30:00 13.2 C 71 % 8.06 C
2600 04-03-2019 00:35:00 13.2 C 70 % 7.86 C
Sensor: Nr:Datum:Temp:Feuchte:Taupunkt:
Aussen-T/F 2601 04-03-2019 00:40:00 13.2 C 71 % 8.06 C
2602 04-03-2019 00:45:00 13.2 C 70 % 7.86 C
2603 04-03-2019 00:50:00 13.3 C 70 % 7.95 C
2604 04-03-2019 00:55:00 13.3 C 70 % 7.95 C
2605 04-03-2019 01:00:00 13.3 C 69 % 7.74 C
2606 04-03-2019 01:05:00 13.3 C 70 % 7.95 C
2607 04-03-2019 01:10:00 13.3 C 70 % 7.95 C
2608 04-03-2019 01:15:00 13.3 C 70 % 7.95 C
2609 04-03-2019 01:20:00 13.3 C 69 % 7.74 C
2610 04-03-2019 01:25:00 13.3 C 69 % 7.74 C
2611 04-03-2019 01:30:00 13.4 C 68 % 7.62 C
2612 04-03-2019 01:35:00 13.6 C 67 % 7.6 C
2613 04-03-2019 01:40:00 13.8 C 67 % 7.79 C
2614 04-03-2019 01:45:00 13.8 C 67 % 7.79 C
2615 04-03-2019 01:50:00 13.9 C 67 % 7.88 C
2616 04-03-2019 01:55:00 13.8 C 69 % 8.22 C
2617 04-03-2019 02:00:00 13.6 C 70 % 8.24 C
2618 04-03-2019 02:05:00 13.3 C 71 % 8.16 C
2619 04-03-2019 02:10:00 13.2 C 72 % 8.27 C
2620 04-03-2019 02:15:00 12.9 C 74 % 8.38 C
2621 04-03-2019 02:20:00 12.8 C 75 % 8.48 C
2622 04-03-2019 02:25:00 12.6 C 76 % 8.49 C
2623 04-03-2019 02:30:00 12.5 C 77 % 8.58 C
2624 04-03-2019 02:35:00 12.3 C 77 % 8.39 C
2625 04-03-2019 02:40:00 12.3 C 78 % 8.58 C
Sensor: Nr:Datum:Temp:Feuchte:Taupunkt:
Aussen-T/F 2626 04-03-2019 02:45:00 12.2 C 78 % 8.48 C
2627 04-03-2019 02:50:00 12.2 C 78 % 8.48 C
2628 04-03-2019 02:55:00 12.1 C 79 % 8.57 C
2629 04-03-2019 03:00:00 12.1 C 79 % 8.57 C
2630 04-03-2019 03:05:00 12 C 79 % 8.48 C
2631 04-03-2019 03:10:00 11.9 C 80 % 8.56 C
2632 04-03-2019 03:15:00 11.8 C 80 % 8.47 C
2633 04-03-2019 03:20:00 11.8 C 80 % 8.47 C
2634 04-03-2019 03:25:00 11.7 C 81 % 8.55 C
2635 04-03-2019 03:30:00 11.7 C 81 % 8.55 C
2636 04-03-2019 03:35:00 11.7 C 81 % 8.55 C
2637 04-03-2019 03:40:00 11.7 C 81 % 8.55 C
2638 04-03-2019 03:45:00 11.7 C 81 % 8.55 C
2639 04-03-2019 03:50:00 11.7 C 81 % 8.55 C
2640 04-03-2019 03:55:00 11.7 C 81 % 8.55 C
2641 04-03-2019 04:00:00 11.7 C 81 % 8.55 C
2642 04-03-2019 04:05:00 11.7 C 81 % 8.55 C
2643 04-03-2019 04:10:00 11.6 C 81 % 8.45 C
2644 04-03-2019 04:15:00 11.6 C 81 % 8.45 C
2645 04-03-2019 04:20:00 11.6 C 81 % 8.45 C
2646 04-03-2019 04:25:00 11.7 C 82 % 8.73 C
2647 04-03-2019 04:30:00 11.7 C 82 % 8.73 C
2648 04-03-2019 04:35:00 11.7 C 82 % 8.73 C
2649 04-03-2019 04:40:00 11.7 C 82 % 8.73 C
2650 04-03-2019 04:45:00 11.7 C 82 % 8.73 C
Sensor: Nr:Datum:Temp:Feuchte:Taupunkt:
Aussen-T/F 2651 04-03-2019 04:50:00 11.7 C 82 % 8.73 C
2652 04-03-2019 04:55:00 11.7 C 81 % 8.55 C
2653 04-03-2019 05:00:00 11.7 C 81 % 8.55 C
2654 04-03-2019 05:05:00 11.7 C 80 % 8.37 C
2655 04-03-2019 05:10:00 11.8 C 80 % 8.47 C
2656 04-03-2019 05:15:00 11.8 C 80 % 8.47 C
2657 04-03-2019 05:20:00 11.8 C 80 % 8.47 C
2658 04-03-2019 05:25:00 11.8 C 80 % 8.47 C
2659 04-03-2019 05:30:00 11.7 C 80 % 8.37 C
2660 04-03-2019 05:35:00 11.6 C 79 % 8.09 C
2661 04-03-2019 05:40:00 11.6 C 80 % 8.27 C
2662 04-03-2019 05:45:00 11.4 C 80 % 8.08 C
2663 04-03-2019 05:50:00 11.4 C 80 % 8.08 C
2664 04-03-2019 05:55:00 11.3 C 81 % 8.16 C
2665 04-03-2019 06:00:00 11.3 C 81 % 8.16 C
2666 04-03-2019 06:05:00 11.4 C 80 % 8.08 C
2667 04-03-2019 06:10:00 11.4 C 80 % 8.08 C
2668 04-03-2019 06:15:00 11.3 C 80 % 7.98 C
2669 04-03-2019 06:20:00 11.3 C 79 % 7.8 C
2670 04-03-2019 06:25:00 11.3 C 78 % 7.61 C
2671 04-03-2019 06:30:00 11.5 C 77 % 7.61 C
2672 04-03-2019 06:35:00 11.6 C 79 % 8.09 C
2673 04-03-2019 06:40:00 11.6 C 79 % 8.09 C
2674 04-03-2019 06:45:00 11.5 C 78 % 7.8 C
2675 04-03-2019 06:50:00 11.6 C 78 % 7.9 C
Sensor: Nr:Datum:Temp:Feuchte:Taupunkt:
Aussen-T/F 2676 04-03-2019 06:55:00 11.6 C 78 % 7.9 C
2677 04-03-2019 07:00:00 11.6 C 77 % 7.71 C
2678 04-03-2019 07:05:00 11.7 C 76 % 7.62 C
2679 04-03-2019 07:10:00 11.8 C 76 % 7.71 C
2680 04-03-2019 07:15:00 11.9 C 75 % 7.62 C
2681 04-03-2019 07:20:00 12 C 74 % 7.52 C
2682 04-03-2019 07:25:00 12 C 74 % 7.52 C
2683 04-03-2019 07:30:00 12.1 C 73 % 7.41 C
2684 04-03-2019 07:35:00 12.1 C 73 % 7.41 C
2685 04-03-2019 07:40:00 12.2 C 72 % 7.31 C
2686 04-03-2019 07:45:00 12.2 C 72 % 7.31 C
2687 04-03-2019 07:50:00 12.2 C 72 % 7.31 C
2688 04-03-2019 07:55:00 12.2 C 72 % 7.31 C
2689 04-03-2019 08:00:00 12.3 C 72 % 7.4 C
2690 04-03-2019 08:05:00 12.3 C 71 % 7.2 C
2691 04-03-2019 08:10:00 12.4 C 70 % 7.09 C
2692 04-03-2019 08:15:00 12.4 C 69 % 6.88 C
2693 04-03-2019 08:20:00 12.6 C 68 % 6.86 C
2694 04-03-2019 08:25:00 12.7 C 68 % 6.95 C
2695 04-03-2019 08:30:00 12.7 C 67 % 6.74 C
2696 04-03-2019 08:35:00 12 C 75 % 7.71 C
2697 04-03-2019 08:40:00 10.7 C 77 % 6.84 C
2698 04-03-2019 08:45:00 9.7 C 80 % 6.42 C
2699 04-03-2019 08:50:00 9.2 C 80 % 5.94 C
2700 04-03-2019 08:55:00 8.9 C 81 % 5.82 C
Sensor: Nr:Datum:Temp:Feuchte:Taupunkt:
Aussen-T/F 2701 04-03-2019 09:00:00 8.9 C 79 % 5.46 C
2702 04-03-2019 09:05:00 9 C 77 % 5.19 C
2703 04-03-2019 09:10:00 9.2 C 75 % 5.01 C
2704 04-03-2019 09:15:00 9.4 C 74 % 5.01 C
2705 04-03-2019 09:20:00 9.6 C 73 % 5.01 C
2706 04-03-2019 09:25:00 9.6 C 73 % 5.01 C
2707 04-03-2019 09:30:00 9.7 C 73 % 5.1 C
2708 04-03-2019 09:35:00 9.8 C 75 % 5.59 C
2709 04-03-2019 09:40:00 9.8 C 78 % 6.15 C
2710 04-03-2019 09:45:00 9.4 C 79 % 5.95 C
2711 04-03-2019 09:50:00 9.2 C 80 % 5.94 C
2712 04-03-2019 09:55:00 9.1 C 80 % 5.84 C
2713 04-03-2019 10:00:00 9.1 C 80 % 5.84 C
2714 04-03-2019 10:05:00 9.2 C 80 % 5.94 C
2715 04-03-2019 10:10:00 9.4 C 79 % 5.95 C
2716 04-03-2019 10:15:00 9.6 C 78 % 5.96 C
2717 04-03-2019 10:20:00 9.7 C 77 % 5.87 C
2718 04-03-2019 10:25:00 9.9 C 77 % 6.06 C
2719 04-03-2019 10:30:00 10 C 76 % 5.97 C
2720 04-03-2019 10:35:00 10.1 C 76 % 6.07 C
2721 04-03-2019 10:40:00 10.2 C 76 % 6.16 C
2722 04-03-2019 10:45:00 10.3 C 75 % 6.07 C
2723 04-03-2019 10:50:00 10.6 C 74 % 6.17 C
2724 04-03-2019 10:55:00 10.8 C 71 % 5.76 C
2725 04-03-2019 11:00:00 11.1 C 70 % 5.84 C
Sensor: Nr:Datum:Temp:Feuchte:Taupunkt:
Aussen-T/F 2726 04-03-2019 11:05:00 11.3 C 68 % 5.62 C
2727 04-03-2019 11:10:00 11.6 C 67 % 5.69 C
2728 04-03-2019 11:15:00 11.7 C 66 % 5.57 C
2729 04-03-2019 11:20:00 11.7 C 65 % 5.35 C
2730 04-03-2019 11:25:00 11.6 C 68 % 5.9 C
2731 04-03-2019 11:30:00 11.2 C 70 % 5.94 C
2732 04-03-2019 11:35:00 10.9 C 71 % 5.86 C
2733 04-03-2019 11:40:00 10.8 C 71 % 5.76 C
2734 04-03-2019 11:45:00 10.9 C 72 % 6.06 C
2735 04-03-2019 11:50:00 11 C 71 % 5.95 C
2736 04-03-2019 11:55:00 11 C 71 % 5.95 C
2737 04-03-2019 12:00:00 11.2 C 69 % 5.73 C
2738 04-03-2019 12:05:00 11.3 C 68 % 5.62 C
2739 04-03-2019 12:10:00 11.4 C 68 % 5.71 C
2740 04-03-2019 12:15:00 11.6 C 68 % 5.9 C
2741 04-03-2019 12:20:00 11.8 C 67 % 5.88 C
2742 04-03-2019 12:25:00 12 C 67 % 6.07 C
2743 04-03-2019 12:30:00 11.9 C 68 % 6.19 C
2744 04-03-2019 12:35:00 11.4 C 73 % 6.74 C
2745 04-03-2019 12:40:00 10.6 C 78 % 6.93 C
2746 04-03-2019 12:45:00 9.8 C 82 % 6.88 C
2747 04-03-2019 12:50:00 9.5 C 83 % 6.76 C
2748 04-03-2019 12:55:00 9.3 C 84 % 6.74 C
2749 04-03-2019 13:00:00 8.8 C 86 % 6.59 C
2750 04-03-2019 13:05:00 8.7 C 88 % 6.83 C
Sensor: Nr:Datum:Temp:Feuchte:Taupunkt:
Aussen-T/F 2751 04-03-2019 13:10:00 9.1 C 90 % 7.55 C
2752 04-03-2019 13:15:00 9.3 C 87 % 7.25 C
2753 04-03-2019 13:20:00 9.4 C 86 % 7.18 C
2754 04-03-2019 13:25:00 9.7 C 85 % 7.3 C
2755 04-03-2019 13:30:00 9.9 C 83 % 7.15 C
2756 04-03-2019 13:35:00 10.3 C 81 % 7.19 C
2757 04-03-2019 13:40:00 10.5 C 80 % 7.2 C
2758 04-03-2019 13:45:00 10.4 C 81 % 7.28 C
2759 04-03-2019 13:50:00 10.4 C 81 % 7.28 C
2760 04-03-2019 13:55:00 10.3 C 81 % 7.19 C
2761 04-03-2019 14:00:00 10.2 C 82 % 7.27 C
2762 04-03-2019 14:05:00 10.2 C 82 % 7.27 C
2763 04-03-2019 14:10:00 10.1 C 84 % 7.52 C
2764 04-03-2019 14:15:00 9.9 C 83 % 7.15 C
2765 04-03-2019 14:20:00 9.9 C 83 % 7.15 C
2766 04-03-2019 14:25:00 9.9 C 81 % 6.8 C
2767 04-03-2019 14:30:00 9.8 C 81 % 6.7 C
2768 04-03-2019 14:35:00 9.6 C 82 % 6.68 C
2769 04-03-2019 14:40:00 9.1 C 84 % 6.54 C
2770 04-03-2019 14:45:00 8.6 C 86 % 6.39 C
2771 04-03-2019 14:50:00 8.2 C 86 % 6 C
2772 04-03-2019 14:55:00 7.8 C 86 % 5.61 C
2773 04-03-2019 15:00:00 7.6 C 85 % 5.24 C
2774 04-03-2019 15:05:00 7.4 C 85 % 5.05 C
2775 04-03-2019 15:10:00 7.2 C 86 % 5.02 C
Sensor: Nr:Datum:Temp:Feuchte:Taupunkt:
Aussen-T/F 2776 04-03-2019 15:15:00 7.2 C 86 % 5.02 C
2777 04-03-2019 15:20:00 7.1 C 86 % 4.92 C
2778 04-03-2019 15:25:00 7.1 C 86 % 4.92 C
2779 04-03-2019 15:30:00 6.9 C 85 % 4.56 C
2780 04-03-2019 15:35:00 6.9 C 84 % 4.39 C
2781 04-03-2019 15:40:00 6.9 C 84 % 4.39 C
2782 04-03-2019 15:45:00 6.9 C 83 % 4.22 C
2783 04-03-2019 15:50:00 6.9 C 82 % 4.05 C
2784 04-03-2019 15:55:00 7.1 C 81 % 4.07 C
2785 04-03-2019 16:00:00 7.3 C 81 % 4.26 C
2786 04-03-2019 16:05:00 7.4 C 81 % 4.36 C
2787 04-03-2019 16:10:00 7.4 C 81 % 4.36 C
2788 04-03-2019 16:15:00 7.6 C 81 % 4.55 C
2789 04-03-2019 16:20:00 7.6 C 80 % 4.38 C
2790 04-03-2019 16:25:00 7.6 C 80 % 4.38 C
2791 04-03-2019 16:30:00 7.6 C 79 % 4.2 C
2792 04-03-2019 16:35:00 7.6 C 79 % 4.2 C
2793 04-03-2019 16:40:00 7.6 C 78 % 4.02 C
2794 04-03-2019 16:45:00 7.6 C 79 % 4.2 C
2795 04-03-2019 16:50:00 7.6 C 79 % 4.2 C
2796 04-03-2019 16:55:00 7.6 C 78 % 4.02 C
2797 04-03-2019 17:00:00 7.6 C 78 % 4.02 C
2798 04-03-2019 17:05:00 7.6 C 78 % 4.02 C
2799 04-03-2019 17:10:00 7.6 C 78 % 4.02 C
2800 04-03-2019 17:15:00 7.5 C 79 % 4.1 C
Sensor: Nr:Datum:Temp:Feuchte:Taupunkt:
Aussen-T/F 2801 04-03-2019 17:20:00 7.4 C 78 % 3.82 C
2802 04-03-2019 17:25:00 7.4 C 79 % 4 C
2803 04-03-2019 17:30:00 7.3 C 79 % 3.91 C
2804 04-03-2019 17:35:00 7.3 C 79 % 3.91 C
2805 04-03-2019 17:40:00 7.3 C 79 % 3.91 C
2806 04-03-2019 17:45:00 7.3 C 79 % 3.91 C
2807 04-03-2019 17:50:00 7.3 C 79 % 3.91 C
2808 04-03-2019 17:55:00 7.2 C 79 % 3.81 C
2809 04-03-2019 18:00:00 7.2 C 79 % 3.81 C
2810 04-03-2019 18:05:00 7.2 C 80 % 3.99 C
2811 04-03-2019 18:10:00 7.1 C 80 % 3.89 C
2812 04-03-2019 18:15:00 7 C 80 % 3.79 C
2813 04-03-2019 18:20:00 6.9 C 81 % 3.87 C
2814 04-03-2019 18:25:00 6.9 C 81 % 3.87 C
2815 04-03-2019 18:30:00 7 C 80 % 3.79 C
2816 04-03-2019 18:35:00 6.9 C 80 % 3.7 C
2817 04-03-2019 18:40:00 6.9 C 81 % 3.87 C
2818 04-03-2019 18:45:00 6.8 C 81 % 3.77 C
2819 04-03-2019 18:50:00 6.8 C 81 % 3.77 C
2820 04-03-2019 18:55:00 6.9 C 81 % 3.87 C
2821 04-03-2019 19:00:00 6.9 C 81 % 3.87 C
2822 04-03-2019 19:05:00 6.9 C 81 % 3.87 C
2823 04-03-2019 19:10:00 6.9 C 81 % 3.87 C
2824 04-03-2019 19:15:00 6.9 C 81 % 3.87 C
2825 04-03-2019 19:20:00 6.9 C 81 % 3.87 C
Sensor: Nr:Datum:Temp:Feuchte:Taupunkt:
Aussen-T/F 2826 04-03-2019 19:25:00 6.9 C 81 % 3.87 C
2827 04-03-2019 19:30:00 6.9 C 81 % 3.87 C
2828 04-03-2019 19:35:00 6.9 C 82 % 4.05 C
2829 04-03-2019 19:40:00 6.8 C 82 % 3.95 C
2830 04-03-2019 19:45:00 6.8 C 82 % 3.95 C
2831 04-03-2019 19:50:00 6.8 C 82 % 3.95 C
2832 04-03-2019 19:55:00 6.8 C 82 % 3.95 C
2833 04-03-2019 20:00:00 6.9 C 82 % 4.05 C
2834 04-03-2019 20:05:00 6.9 C 82 % 4.05 C
2835 04-03-2019 20:10:00 6.9 C 82 % 4.05 C
2836 04-03-2019 20:15:00 7 C 81 % 3.97 C
2837 04-03-2019 20:20:00 7.1 C 81 % 4.07 C
2838 04-03-2019 20:25:00 7.1 C 81 % 4.07 C
2839 04-03-2019 20:30:00 7.1 C 81 % 4.07 C
2840 04-03-2019 20:35:00 7.1 C 81 % 4.07 C
2841 04-03-2019 20:40:00 6.9 C 81 % 3.87 C
2842 04-03-2019 20:45:00 6.9 C 82 % 4.05 C
2843 04-03-2019 20:50:00 6.8 C 82 % 3.95 C
2844 04-03-2019 20:55:00 6.7 C 82 % 3.85 C
2845 04-03-2019 21:00:00 6.6 C 83 % 3.92 C
2846 04-03-2019 21:05:00 6.6 C 82 % 3.75 C
2847 04-03-2019 21:10:00 6.6 C 83 % 3.92 C
2848 04-03-2019 21:15:00 6.6 C 83 % 3.92 C
2849 04-03-2019 21:20:00 6.6 C 83 % 3.92 C
2850 04-03-2019 21:25:00 6.6 C 83 % 3.92 C
Sensor: Nr:Datum:Temp:Feuchte:Taupunkt:
Aussen-T/F 2851 04-03-2019 21:30:00 6.6 C 83 % 3.92 C
2852 04-03-2019 21:35:00 6.6 C 83 % 3.92 C
2853 04-03-2019 21:40:00 6.6 C 84 % 4.1 C
2854 04-03-2019 21:45:00 6.6 C 84 % 4.1 C
2855 04-03-2019 21:50:00 6.7 C 84 % 4.19 C
2856 04-03-2019 21:55:00 6.7 C 84 % 4.19 C
2857 04-03-2019 22:00:00 6.9 C 85 % 4.56 C
2858 04-03-2019 22:05:00 7 C 85 % 4.66 C
2859 04-03-2019 22:10:00 7.1 C 84 % 4.58 C
2860 04-03-2019 22:15:00 7.1 C 83 % 4.41 C
2861 04-03-2019 22:20:00 7.2 C 82 % 4.34 C
2862 04-03-2019 22:25:00 7.1 C 82 % 4.24 C
2863 04-03-2019 22:30:00 7.1 C 82 % 4.24 C
2864 04-03-2019 22:35:00 7.1 C 82 % 4.24 C
2865 04-03-2019 22:40:00 7.1 C 82 % 4.24 C
2866 04-03-2019 22:45:00 7.2 C 82 % 4.34 C
2867 04-03-2019 22:50:00 7.1 C 82 % 4.24 C
2868 04-03-2019 22:55:00 7.1 C 82 % 4.24 C
2869 04-03-2019 23:00:00 7.1 C 82 % 4.24 C
2870 04-03-2019 23:05:00 7.1 C 82 % 4.24 C
2871 04-03-2019 23:10:00 6.9 C 82 % 4.05 C
2872 04-03-2019 23:15:00 6.8 C 83 % 4.12 C
2873 04-03-2019 23:20:00 6.7 C 83 % 4.02 C
2874 04-03-2019 23:25:00 6.6 C 84 % 4.1 C
2875 04-03-2019 23:30:00 6.6 C 84 % 4.1 C
Sensor: Nr:Datum:Temp:Feuchte:Taupunkt:
Aussen-T/F 2876 04-03-2019 23:35:00 6.5 C 85 % 4.17 C
2877 04-03-2019 23:40:00 6.5 C 85 % 4.17 C
2878 04-03-2019 23:45:00 6.5 C 85 % 4.17 C
2879 04-03-2019 23:50:00 6.5 C 85 % 4.17 C
2880 04-03-2019 23:55:00 6.6 C 84 % 4.1 C
2881 05-03-2019 00:00:00 6.6 C 84 % 4.1 C
2882 05-03-2019 00:05:00 6.6 C 84 % 4.1 C
2883 05-03-2019 00:10:00 6.7 C 83 % 4.02 C
2884 05-03-2019 00:15:00 6.8 C 83 % 4.12 C
2885 05-03-2019 00:20:00 6.9 C 82 % 4.05 C
2886 05-03-2019 00:25:00 6.9 C 81 % 3.87 C
2887 05-03-2019 00:30:00 7 C 81 % 3.97 C
2888 05-03-2019 00:35:00 7 C 80 % 3.79 C
2889 05-03-2019 00:40:00 7 C 80 % 3.79 C
2890 05-03-2019 00:45:00 7 C 80 % 3.79 C
2891 05-03-2019 00:50:00 7 C 80 % 3.79 C
2892 05-03-2019 00:55:00 7 C 80 % 3.79 C
2893 05-03-2019 01:00:00 6.9 C 80 % 3.7 C
2894 05-03-2019 01:05:00 6.9 C 80 % 3.7 C
2895 05-03-2019 01:10:00 6.9 C 80 % 3.7 C
2896 05-03-2019 01:15:00 6.9 C 81 % 3.87 C
2897 05-03-2019 01:20:00 6.9 C 80 % 3.7 C
2898 05-03-2019 01:25:00 6.9 C 81 % 3.87 C
2899 05-03-2019 01:30:00 6.8 C 81 % 3.77 C
2900 05-03-2019 01:35:00 6.8 C 81 % 3.77 C
Sensor: Nr:Datum:Temp:Feuchte:Taupunkt:
Aussen-T/F 2901 05-03-2019 01:40:00 6.9 C 81 % 3.87 C
2902 05-03-2019 01:45:00 6.9 C 81 % 3.87 C
2903 05-03-2019 01:50:00 6.9 C 80 % 3.7 C
2904 05-03-2019 01:55:00 6.8 C 80 % 3.6 C
2905 05-03-2019 02:00:00 6.8 C 80 % 3.6 C
2906 05-03-2019 02:05:00 6.8 C 80 % 3.6 C
2907 05-03-2019 02:10:00 6.8 C 80 % 3.6 C
2908 05-03-2019 02:15:00 6.8 C 80 % 3.6 C
2909 05-03-2019 02:20:00 6.7 C 80 % 3.5 C
2910 05-03-2019 02:25:00 6.8 C 80 % 3.6 C
2911 05-03-2019 02:30:00 6.8 C 80 % 3.6 C
2912 05-03-2019 02:35:00 6.8 C 79 % 3.42 C
2913 05-03-2019 02:40:00 6.8 C 80 % 3.6 C
2914 05-03-2019 02:45:00 6.8 C 80 % 3.6 C
2915 05-03-2019 02:50:00 6.8 C 80 % 3.6 C
2916 05-03-2019 02:55:00 6.8 C 80 % 3.6 C
2917 05-03-2019 03:00:00 6.8 C 80 % 3.6 C
2918 05-03-2019 03:05:00 6.8 C 80 % 3.6 C
2919 05-03-2019 03:10:00 6.8 C 80 % 3.6 C
2920 05-03-2019 03:15:00 6.8 C 80 % 3.6 C
2921 05-03-2019 03:20:00 6.8 C 80 % 3.6 C
2922 05-03-2019 03:25:00 6.8 C 80 % 3.6 C
2923 05-03-2019 03:30:00 6.8 C 81 % 3.77 C
2924 05-03-2019 03:35:00 6.8 C 81 % 3.77 C
2925 05-03-2019 03:40:00 6.7 C 81 % 3.68 C
Sensor: Nr:Datum:Temp:Feuchte:Taupunkt:
Aussen-T/F 2926 05-03-2019 03:45:00 6.6 C 81 % 3.58 C
2927 05-03-2019 03:50:00 6.6 C 81 % 3.58 C
2928 05-03-2019 03:55:00 6.6 C 81 % 3.58 C
2929 05-03-2019 04:00:00 6.6 C 81 % 3.58 C
2930 05-03-2019 04:05:00 6.4 C 81 % 3.38 C
2931 05-03-2019 04:10:00 6.4 C 81 % 3.38 C
2932 05-03-2019 04:15:00 6.4 C 81 % 3.38 C
2933 05-03-2019 04:20:00 6.4 C 81 % 3.38 C
2934 05-03-2019 04:25:00 6.4 C 81 % 3.38 C
2935 05-03-2019 04:30:00 6.4 C 81 % 3.38 C
2936 05-03-2019 04:35:00 6.4 C 81 % 3.38 C
2937 05-03-2019 04:40:00 6.4 C 81 % 3.38 C
2938 05-03-2019 04:45:00 6.4 C 81 % 3.38 C
2939 05-03-2019 04:50:00 6.4 C 81 % 3.38 C
2940 05-03-2019 04:55:00 6.5 C 80 % 3.31 C
2941 05-03-2019 05:00:00 6.5 C 81 % 3.48 C
2942 05-03-2019 05:05:00 6.5 C 80 % 3.31 C
2943 05-03-2019 05:10:00 6.4 C 81 % 3.38 C
2944 05-03-2019 05:15:00 6.4 C 81 % 3.38 C
2945 05-03-2019 05:20:00 6.3 C 81 % 3.29 C
2946 05-03-2019 05:25:00 6.3 C 81 % 3.29 C
2947 05-03-2019 05:30:00 6.3 C 81 % 3.29 C
2948 05-03-2019 05:35:00 6.3 C 81 % 3.29 C
2949 05-03-2019 05:40:00 6.3 C 81 % 3.29 C
2950 05-03-2019 05:45:00 6.3 C 81 % 3.29 C
Sensor: Nr:Datum:Temp:Feuchte:Taupunkt:
Aussen-T/F 2951 05-03-2019 05:50:00 6.3 C 81 % 3.29 C
2952 05-03-2019 05:55:00 6.3 C 81 % 3.29 C
2953 05-03-2019 06:00:00 6.3 C 80 % 3.11 C
2954 05-03-2019 06:05:00 6.3 C 80 % 3.11 C
2955 05-03-2019 06:10:00 6.3 C 80 % 3.11 C
2956 05-03-2019 06:15:00 6.3 C 79 % 2.93 C
2957 05-03-2019 06:20:00 6.2 C 80 % 3.01 C
2958 05-03-2019 06:25:00 6.2 C 80 % 3.01 C
2959 05-03-2019 06:30:00 6.1 C 80 % 2.92 C
2960 05-03-2019 06:35:00 6.2 C 80 % 3.01 C
2961 05-03-2019 06:40:00 6.2 C 80 % 3.01 C
2962 05-03-2019 06:45:00 6.2 C 80 % 3.01 C
2963 05-03-2019 06:50:00 6.3 C 79 % 2.93 C
2964 05-03-2019 06:55:00 6.3 C 79 % 2.93 C
2965 05-03-2019 07:00:00 6.3 C 79 % 2.93 C
2966 05-03-2019 07:05:00 6.3 C 79 % 2.93 C
2967 05-03-2019 07:10:00 6.3 C 80 % 3.11 C
2968 05-03-2019 07:15:00 6.3 C 80 % 3.11 C
2969 05-03-2019 07:20:00 6.4 C 80 % 3.21 C
2970 05-03-2019 07:25:00 6.4 C 79 % 3.03 C
2971 05-03-2019 07:30:00 6.5 C 79 % 3.13 C
2972 05-03-2019 07:35:00 6.6 C 79 % 3.23 C
2973 05-03-2019 07:40:00 6.6 C 79 % 3.23 C
2974 05-03-2019 07:45:00 6.6 C 79 % 3.23 C
2975 05-03-2019 07:50:00 6.7 C 79 % 3.32 C
Sensor: Nr:Datum:Temp:Feuchte:Taupunkt:
Aussen-T/F 2976 05-03-2019 07:55:00 6.7 C 79 % 3.32 C
2977 05-03-2019 08:00:00 6.7 C 80 % 3.5 C
2978 05-03-2019 08:05:00 6.6 C 80 % 3.4 C
2979 05-03-2019 08:10:00 6.6 C 80 % 3.4 C
2980 05-03-2019 08:15:00 6.6 C 80 % 3.4 C
2981 05-03-2019 08:20:00 6.6 C 80 % 3.4 C
2982 05-03-2019 08:25:00 6.6 C 80 % 3.4 C
2983 05-03-2019 08:30:00 6.6 C 80 % 3.4 C
2984 05-03-2019 08:35:00 6.7 C 81 % 3.68 C
2985 05-03-2019 08:40:00 6.7 C 80 % 3.5 C
2986 05-03-2019 08:45:00 6.7 C 80 % 3.5 C
2987 05-03-2019 08:50:00 6.7 C 80 % 3.5 C
2988 05-03-2019 08:55:00 6.6 C 82 % 3.75 C
2989 05-03-2019 09:00:00 6.6 C 83 % 3.92 C
2990 05-03-2019 09:05:00 6.5 C 83 % 3.83 C
2991 05-03-2019 09:10:00 6.5 C 82 % 3.66 C
2992 05-03-2019 09:15:00 6.6 C 82 % 3.75 C
2993 05-03-2019 09:20:00 6.6 C 82 % 3.75 C
2994 05-03-2019 09:25:00 6.6 C 83 % 3.92 C
2995 05-03-2019 09:30:00 6.6 C 83 % 3.92 C
2996 05-03-2019 09:35:00 6.5 C 84 % 4 C
2997 05-03-2019 09:40:00 6.4 C 84 % 3.9 C
2998 05-03-2019 09:45:00 6.4 C 84 % 3.9 C
2999 05-03-2019 09:50:00 6.4 C 85 % 4.07 C
3000 05-03-2019 09:55:00 6.4 C 85 % 4.07 C
Sensor: Nr:Datum:Temp:Feuchte:Taupunkt:
Aussen-T/F 3001 05-03-2019 10:00:00 6.4 C 85 % 4.07 C
3002 05-03-2019 10:05:00 6.5 C 85 % 4.17 C
3003 05-03-2019 10:10:00 6.5 C 86 % 4.33 C
3004 05-03-2019 10:15:00 6.6 C 86 % 4.43 C
3005 05-03-2019 10:20:00 6.6 C 85 % 4.26 C
3006 05-03-2019 10:25:00 6.6 C 85 % 4.26 C
3007 05-03-2019 10:30:00 6.7 C 85 % 4.36 C
3008 05-03-2019 10:35:00 6.7 C 85 % 4.36 C
3009 05-03-2019 10:40:00 6.7 C 85 % 4.36 C
3010 05-03-2019 10:45:00 6.7 C 85 % 4.36 C
3011 05-03-2019 10:50:00 6.7 C 85 % 4.36 C
3012 05-03-2019 10:55:00 6.8 C 85 % 4.46 C
3013 05-03-2019 11:00:00 6.8 C 85 % 4.46 C
3014 05-03-2019 11:05:00 6.9 C 85 % 4.56 C
3015 05-03-2019 11:10:00 6.9 C 85 % 4.56 C
3016 05-03-2019 11:15:00 6.9 C 85 % 4.56 C
3017 05-03-2019 11:20:00 6.9 C 84 % 4.39 C
3018 05-03-2019 11:25:00 7 C 85 % 4.66 C
3019 05-03-2019 11:30:00 7 C 85 % 4.66 C
3020 05-03-2019 11:35:00 7 C 84 % 4.49 C
3021 05-03-2019 11:40:00 7.1 C 84 % 4.58 C
3022 05-03-2019 11:45:00 7.1 C 84 % 4.58 C
3023 05-03-2019 11:50:00 7.1 C 83 % 4.41 C
3024 05-03-2019 11:55:00 7.2 C 83 % 4.51 C
3025 05-03-2019 12:00:00 7.2 C 83 % 4.51 C
Sensor: Nr:Datum:Temp:Feuchte:Taupunkt:
Aussen-T/F 3026 05-03-2019 12:05:00 7.2 C 83 % 4.51 C
3027 05-03-2019 12:10:00 7.3 C 82 % 4.44 C
3028 05-03-2019 12:15:00 7.3 C 82 % 4.44 C
3029 05-03-2019 12:20:00 7.3 C 81 % 4.26 C
3030 05-03-2019 12:25:00 7.3 C 81 % 4.26 C
3031 05-03-2019 12:30:00 7.3 C 81 % 4.26 C
3032 05-03-2019 12:35:00 7.3 C 81 % 4.26 C
3033 05-03-2019 12:40:00 7.3 C 81 % 4.26 C
3034 05-03-2019 12:45:00 7.3 C 81 % 4.26 C
3035 05-03-2019 12:50:00 7.4 C 82 % 4.53 C
3036 05-03-2019 12:55:00 7.4 C 81 % 4.36 C
3037 05-03-2019 13:00:00 7.5 C 81 % 4.46 C
3038 05-03-2019 13:05:00 7.6 C 81 % 4.55 C
3039 05-03-2019 13:10:00 7.7 C 81 % 4.65 C
3040 05-03-2019 13:15:00 7.8 C 80 % 4.57 C
3041 05-03-2019 13:20:00 7.9 C 80 % 4.67 C
3042 05-03-2019 13:25:00 8 C 80 % 4.77 C
3043 05-03-2019 13:30:00 8.1 C 80 % 4.86 C
3044 05-03-2019 13:35:00 8.1 C 79 % 4.68 C
3045 05-03-2019 13:40:00 8.2 C 79 % 4.78 C
3046 05-03-2019 13:45:00 8.2 C 79 % 4.78 C
3047 05-03-2019 13:50:00 8.2 C 79 % 4.78 C
3048 05-03-2019 13:55:00 8.3 C 78 % 4.7 C
3049 05-03-2019 14:00:00 8.3 C 78 % 4.7 C
3050 05-03-2019 14:05:00 8.3 C 78 % 4.7 C
Sensor: Nr:Datum:Temp:Feuchte:Taupunkt:
Aussen-T/F 3051 05-03-2019 14:10:00 8.5 C 78 % 4.89 C
3052 05-03-2019 14:15:00 8.6 C 78 % 4.99 C
3053 05-03-2019 14:20:00 8.7 C 78 % 5.08 C
3054 05-03-2019 14:25:00 8.7 C 78 % 5.08 C
3055 05-03-2019 14:30:00 8.7 C 78 % 5.08 C
3056 05-03-2019 14:35:00 8.8 C 77 % 5 C
3057 05-03-2019 14:40:00 8.8 C 77 % 5 C
3058 05-03-2019 14:45:00 8.8 C 77 % 5 C
3059 05-03-2019 14:50:00 8.8 C 76 % 4.81 C
3060 05-03-2019 14:55:00 8.8 C 77 % 5 C
3061 05-03-2019 15:00:00 8.8 C 76 % 4.81 C
3062 05-03-2019 15:05:00 8.8 C 76 % 4.81 C
3063 05-03-2019 15:10:00 8.8 C 76 % 4.81 C
3064 05-03-2019 15:15:00 8.9 C 76 % 4.91 C
3065 05-03-2019 15:20:00 8.8 C 76 % 4.81 C
3066 05-03-2019 15:25:00 8.9 C 76 % 4.91 C
3067 05-03-2019 15:30:00 9 C 75 % 4.81 C
3068 05-03-2019 15:35:00 9.1 C 74 % 4.72 C
3069 05-03-2019 15:40:00 9.1 C 73 % 4.52 C
3070 05-03-2019 15:45:00 9.1 C 73 % 4.52 C
3071 05-03-2019 15:50:00 9.1 C 74 % 4.72 C
3072 05-03-2019 15:55:00 9.1 C 74 % 4.72 C
3073 05-03-2019 16:00:00 9.1 C 75 % 4.91 C
3074 05-03-2019 16:05:00 9.1 C 76 % 5.1 C
3075 05-03-2019 16:10:00 9.2 C 76 % 5.2 C
Sensor: Nr:Datum:Temp:Feuchte:Taupunkt:
Aussen-T/F 3076 05-03-2019 16:15:00 9.5 C 74 % 5.1 C
3077 05-03-2019 16:20:00 9.9 C 72 % 5.1 C
3078 05-03-2019 16:25:00 10.1 C 71 % 5.09 C
3079 05-03-2019 16:30:00 10.1 C 71 % 5.09 C
3080 05-03-2019 16:35:00 10.1 C 71 % 5.09 C
3081 05-03-2019 16:40:00 10.1 C 72 % 5.29 C
3082 05-03-2019 16:45:00 10.1 C 72 % 5.29 C
3083 05-03-2019 16:50:00 10.2 C 71 % 5.18 C
3084 05-03-2019 16:55:00 10.3 C 72 % 5.48 C
3085 05-03-2019 17:00:00 10.3 C 71 % 5.28 C
3086 05-03-2019 17:05:00 10.1 C 72 % 5.29 C
3087 05-03-2019 17:10:00 10.1 C 72 % 5.29 C
3088 05-03-2019 17:15:00 10.1 C 73 % 5.49 C
3089 05-03-2019 17:20:00 10 C 71 % 4.99 C
3090 05-03-2019 17:25:00 9.7 C 72 % 4.9 C
3091 05-03-2019 17:30:00 9.3 C 74 % 4.91 C
3092 05-03-2019 17:35:00 9.1 C 75 % 4.91 C
3093 05-03-2019 17:40:00 8.7 C 76 % 4.71 C
3094 05-03-2019 17:45:00 8.4 C 77 % 4.61 C
3095 05-03-2019 17:50:00 8.2 C 78 % 4.6 C
3096 05-03-2019 17:55:00 8.1 C 79 % 4.68 C
3097 05-03-2019 18:00:00 7.8 C 79 % 4.39 C
3098 05-03-2019 18:05:00 7.7 C 80 % 4.47 C
3099 05-03-2019 18:10:00 7.5 C 80 % 4.28 C
3100 05-03-2019 18:15:00 7.3 C 81 % 4.26 C
Sensor: Nr:Datum:Temp:Feuchte:Taupunkt:
Aussen-T/F 3101 05-03-2019 18:20:00 7.2 C 81 % 4.16 C
3102 05-03-2019 18:25:00 7.1 C 81 % 4.07 C
3103 05-03-2019 18:30:00 7 C 81 % 3.97 C
3104 05-03-2019 18:35:00 6.9 C 81 % 3.87 C
3105 05-03-2019 18:40:00 6.8 C 81 % 3.77 C
3106 05-03-2019 18:45:00 6.8 C 81 % 3.77 C
3107 05-03-2019 18:50:00 6.8 C 81 % 3.77 C
3108 05-03-2019 18:55:00 6.7 C 81 % 3.68 C
3109 05-03-2019 19:00:00 6.7 C 82 % 3.85 C
3110 05-03-2019 19:05:00 6.6 C 82 % 3.75 C
3111 05-03-2019 19:10:00 6.7 C 82 % 3.85 C
3112 05-03-2019 19:15:00 6.7 C 82 % 3.85 C
3113 05-03-2019 19:20:00 6.6 C 82 % 3.75 C
3114 05-03-2019 19:25:00 6.6 C 82 % 3.75 C
3115 05-03-2019 19:30:00 6.6 C 83 % 3.92 C
3116 05-03-2019 19:35:00 6.6 C 83 % 3.92 C
3117 05-03-2019 19:40:00 6.4 C 83 % 3.73 C
3118 05-03-2019 19:45:00 6.4 C 83 % 3.73 C
3119 05-03-2019 19:50:00 6.4 C 83 % 3.73 C
3120 05-03-2019 19:55:00 6.3 C 83 % 3.63 C
3121 05-03-2019 20:00:00 6.3 C 83 % 3.63 C
3122 05-03-2019 20:05:00 6.2 C 83 % 3.53 C
3123 05-03-2019 20:10:00 6 C 84 % 3.51 C
3124 05-03-2019 20:15:00 5.8 C 84 % 3.31 C
3125 05-03-2019 20:20:00 5.7 C 84 % 3.21 C
Sensor: Nr:Datum:Temp:Feuchte:Taupunkt:
Aussen-T/F 3126 05-03-2019 20:25:00 5.5 C 85 % 3.18 C
3127 05-03-2019 20:30:00 5.3 C 85 % 2.99 C
3128 05-03-2019 20:35:00 5.2 C 86 % 3.05 C
3129 05-03-2019 20:40:00 5.1 C 87 % 3.12 C
3130 05-03-2019 20:45:00 5 C 87 % 3.02 C
3131 05-03-2019 20:50:00 4.8 C 87 % 2.82 C
3132 05-03-2019 20:55:00 4.7 C 87 % 2.73 C
3133 05-03-2019 21:00:00 4.6 C 87 % 2.63 C
3134 05-03-2019 21:05:00 4.4 C 88 % 2.59 C
3135 05-03-2019 21:10:00 4.3 C 88 % 2.49 C
3136 05-03-2019 21:15:00 4.2 C 88 % 2.39 C
3137 05-03-2019 21:20:00 4.2 C 89 % 2.55 C
3138 05-03-2019 21:25:00 4.2 C 90 % 2.71 C
3139 05-03-2019 21:30:00 4.2 C 90 % 2.71 C
3140 05-03-2019 21:35:00 4.2 C 90 % 2.71 C
3141 05-03-2019 21:40:00 4.2 C 91 % 2.87 C
3142 05-03-2019 21:45:00 4.2 C 91 % 2.87 C
3143 05-03-2019 21:50:00 4.3 C 91 % 2.96 C
3144 05-03-2019 21:55:00 4.3 C 91 % 2.96 C
3145 05-03-2019 22:00:00 4.3 C 92 % 3.12 C
3146 05-03-2019 22:05:00 4.4 C 92 % 3.22 C
3147 05-03-2019 22:10:00 4.6 C 92 % 3.42 C
3148 05-03-2019 22:15:00 4.7 C 92 % 3.51 C
3149 05-03-2019 22:20:00 4.7 C 92 % 3.51 C
3150 05-03-2019 22:25:00 4.8 C 92 % 3.61 C
Sensor: Nr:Datum:Temp:Feuchte:Taupunkt:
Aussen-T/F 3151 05-03-2019 22:30:00 4.8 C 92 % 3.61 C
3152 05-03-2019 22:35:00 4.8 C 92 % 3.61 C
3153 05-03-2019 22:40:00 4.8 C 92 % 3.61 C
3154 05-03-2019 22:45:00 4.8 C 92 % 3.61 C
3155 05-03-2019 22:50:00 4.9 C 92 % 3.71 C
3156 05-03-2019 22:55:00 4.9 C 92 % 3.71 C
3157 05-03-2019 23:00:00 4.9 C 92 % 3.71 C
3158 05-03-2019 23:05:00 5 C 92 % 3.81 C
3159 05-03-2019 23:10:00 5.1 C 92 % 3.91 C
3160 05-03-2019 23:15:00 5.2 C 92 % 4.01 C
3161 05-03-2019 23:20:00 5.2 C 92 % 4.01 C
3162 05-03-2019 23:25:00 5.3 C 92 % 4.11 C
3163 05-03-2019 23:30:00 5.4 C 92 % 4.21 C
3164 05-03-2019 23:35:00 5.4 C 92 % 4.21 C
3165 05-03-2019 23:40:00 5.4 C 92 % 4.21 C
3166 05-03-2019 23:45:00 5.4 C 92 % 4.21 C
3167 05-03-2019 23:50:00 5.4 C 92 % 4.21 C
3168 05-03-2019 23:55:00 5.5 C 92 % 4.31 C
3169 06-03-2019 00:00:00 5.5 C 92 % 4.31 C
3170 06-03-2019 00:05:00 5.5 C 92 % 4.31 C
3171 06-03-2019 00:10:00 5.5 C 92 % 4.31 C
3172 06-03-2019 00:15:00 5.6 C 92 % 4.41 C
3173 06-03-2019 00:20:00 5.6 C 92 % 4.41 C
3174 06-03-2019 00:25:00 5.6 C 92 % 4.41 C
3175 06-03-2019 00:30:00 5.7 C 91 % 4.35 C
Sensor: Nr:Datum:Temp:Feuchte:Taupunkt:
Aussen-T/F 3176 06-03-2019 00:35:00 5.7 C 91 % 4.35 C
3177 06-03-2019 00:40:00 5.7 C 91 % 4.35 C
3178 06-03-2019 00:45:00 5.7 C 91 % 4.35 C
3179 06-03-2019 00:50:00 5.8 C 92 % 4.6 C
3180 06-03-2019 00:55:00 5.9 C 92 % 4.7 C
3181 06-03-2019 01:00:00 5.9 C 92 % 4.7 C
3182 06-03-2019 01:05:00 6.1 C 92 % 4.9 C
3183 06-03-2019 01:10:00 6.1 C 92 % 4.9 C
3184 06-03-2019 01:15:00 6.1 C 91 % 4.74 C
3185 06-03-2019 01:20:00 6.1 C 91 % 4.74 C
3186 06-03-2019 01:25:00 6.1 C 91 % 4.74 C
3187 06-03-2019 01:30:00 6.1 C 91 % 4.74 C
3188 06-03-2019 01:35:00 6.1 C 91 % 4.74 C
3189 06-03-2019 01:40:00 6.1 C 92 % 4.9 C
3190 06-03-2019 01:45:00 6.2 C 92 % 5 C
3191 06-03-2019 01:50:00 6.4 C 92 % 5.2 C
3192 06-03-2019 01:55:00 6.5 C 92 % 5.3 C
3193 06-03-2019 02:00:00 6.7 C 91 % 5.34 C
3194 06-03-2019 02:05:00 6.8 C 91 % 5.44 C
3195 06-03-2019 02:10:00 6.8 C 91 % 5.44 C
3196 06-03-2019 02:15:00 6.9 C 90 % 5.38 C
3197 06-03-2019 02:20:00 7 C 90 % 5.48 C
3198 06-03-2019 02:25:00 7.1 C 90 % 5.57 C
3199 06-03-2019 02:30:00 7.1 C 90 % 5.57 C
3200 06-03-2019 02:35:00 7.2 C 89 % 5.51 C
Sensor: Nr:Datum:Temp:Feuchte:Taupunkt:
Aussen-T/F 3201 06-03-2019 02:40:00 7.2 C 89 % 5.51 C
3202 06-03-2019 02:45:00 7.2 C 89 % 5.51 C
3203 06-03-2019 02:50:00 7.2 C 89 % 5.51 C
3204 06-03-2019 02:55:00 7.2 C 89 % 5.51 C
3205 06-03-2019 03:00:00 7.2 C 89 % 5.51 C
3206 06-03-2019 03:05:00 7.2 C 89 % 5.51 C
3207 06-03-2019 03:10:00 7.2 C 89 % 5.51 C
3208 06-03-2019 03:15:00 7.1 C 89 % 5.41 C
3209 06-03-2019 03:20:00 7.1 C 89 % 5.41 C
3210 06-03-2019 03:25:00 7 C 89 % 5.31 C
3211 06-03-2019 03:30:00 6.9 C 90 % 5.38 C
3212 06-03-2019 03:35:00 6.9 C 90 % 5.38 C
3213 06-03-2019 03:40:00 6.9 C 90 % 5.38 C
3214 06-03-2019 03:45:00 6.9 C 90 % 5.38 C
3215 06-03-2019 03:50:00 6.8 C 90 % 5.28 C
3216 06-03-2019 03:55:00 6.8 C 90 % 5.28 C
3217 06-03-2019 04:00:00 6.8 C 91 % 5.44 C
3218 06-03-2019 04:05:00 6.8 C 91 % 5.44 C
3219 06-03-2019 04:10:00 6.8 C 91 % 5.44 C
3220 06-03-2019 04:15:00 6.8 C 91 % 5.44 C
3221 06-03-2019 04:20:00 6.7 C 91 % 5.34 C
3222 06-03-2019 04:25:00 6.7 C 91 % 5.34 C
3223 06-03-2019 04:30:00 6.6 C 91 % 5.24 C
3224 06-03-2019 04:35:00 6.7 C 91 % 5.34 C
3225 06-03-2019 04:40:00 6.8 C 92 % 5.59 C
Sensor: Nr:Datum:Temp:Feuchte:Taupunkt:
Aussen-T/F 3226 06-03-2019 04:45:00 6.9 C 91 % 5.54 C
3227 06-03-2019 04:50:00 7.1 C 91 % 5.73 C
3228 06-03-2019 04:55:00 7.1 C 90 % 5.57 C
3229 06-03-2019 05:00:00 7.2 C 90 % 5.67 C
3230 06-03-2019 05:05:00 7.2 C 90 % 5.67 C
3231 06-03-2019 05:10:00 7.3 C 90 % 5.77 C
3232 06-03-2019 05:15:00 7.3 C 89 % 5.61 C
3233 06-03-2019 05:20:00 7.3 C 89 % 5.61 C
3234 06-03-2019 05:25:00 7.3 C 89 % 5.61 C
3235 06-03-2019 05:30:00 7.2 C 89 % 5.51 C
3236 06-03-2019 05:35:00 7.2 C 89 % 5.51 C
3237 06-03-2019 05:40:00 7.1 C 89 % 5.41 C
3238 06-03-2019 05:45:00 7.1 C 89 % 5.41 C
3239 06-03-2019 05:50:00 7 C 89 % 5.31 C
3240 06-03-2019 05:55:00 6.9 C 89 % 5.22 C
3241 06-03-2019 06:00:00 6.8 C 89 % 5.12 C
3242 06-03-2019 06:05:00 6.8 C 90 % 5.28 C
3243 06-03-2019 06:10:00 6.8 C 90 % 5.28 C
3244 06-03-2019 06:15:00 6.8 C 90 % 5.28 C
3245 06-03-2019 06:20:00 6.7 C 89 % 5.02 C
3246 06-03-2019 06:25:00 6.6 C 89 % 4.92 C
3247 06-03-2019 06:30:00 6.4 C 89 % 4.72 C
3248 06-03-2019 06:35:00 6.2 C 89 % 4.53 C
3249 06-03-2019 06:40:00 6 C 89 % 4.33 C
3250 06-03-2019 06:45:00 5.9 C 90 % 4.39 C
Sensor: Nr:Datum:Temp:Feuchte:Taupunkt:
Aussen-T/F 3251 06-03-2019 06:50:00 5.9 C 91 % 4.55 C
3252 06-03-2019 06:55:00 6 C 91 % 4.65 C
3253 06-03-2019 07:00:00 5.9 C 90 % 4.39 C
3254 06-03-2019 07:05:00 5.8 C 90 % 4.29 C
3255 06-03-2019 07:10:00 5.6 C 90 % 4.09 C
3256 06-03-2019 07:15:00 5.4 C 90 % 3.89 C
3257 06-03-2019 07:20:00 5.4 C 91 % 4.05 C
3258 06-03-2019 07:25:00 5.3 C 91 % 3.95 C
3259 06-03-2019 07:30:00 5.3 C 92 % 4.11 C
3260 06-03-2019 07:35:00 5.3 C 92 % 4.11 C
3261 06-03-2019 07:40:00 5.3 C 92 % 4.11 C
3262 06-03-2019 07:45:00 5.3 C 92 % 4.11 C
3263 06-03-2019 07:50:00 5.3 C 92 % 4.11 C
3264 06-03-2019 07:55:00 5.4 C 93 % 4.36 C
3265 06-03-2019 08:00:00 5.4 C 93 % 4.36 C
3266 06-03-2019 08:05:00 5.6 C 93 % 4.56 C
3267 06-03-2019 08:10:00 5.8 C 93 % 4.76 C
3268 06-03-2019 08:15:00 5.9 C 93 % 4.86 C
3269 06-03-2019 08:20:00 6.1 C 93 % 5.06 C
3270 06-03-2019 08:25:00 6.3 C 92 % 5.1 C
3271 06-03-2019 08:30:00 6.5 C 91 % 5.14 C
3272 06-03-2019 08:35:00 6.7 C 91 % 5.34 C
3273 06-03-2019 08:40:00 6.9 C 90 % 5.38 C
3274 06-03-2019 08:45:00 7.2 C 88 % 5.35 C
3275 06-03-2019 08:50:00 7.3 C 88 % 5.45 C
Sensor: Nr:Datum:Temp:Feuchte:Taupunkt:
Aussen-T/F 3276 06-03-2019 08:55:00 7.5 C 87 % 5.48 C
3277 06-03-2019 09:00:00 7.6 C 86 % 5.41 C
3278 06-03-2019 09:05:00 7.7 C 86 % 5.51 C
3279 06-03-2019 09:10:00 7.8 C 86 % 5.61 C
3280 06-03-2019 09:15:00 7.9 C 85 % 5.54 C
3281 06-03-2019 09:20:00 8 C 85 % 5.64 C
3282 06-03-2019 09:25:00 8.1 C 85 % 5.73 C
3283 06-03-2019 09:30:00 8.2 C 84 % 5.66 C
3284 06-03-2019 09:35:00 8.3 C 84 % 5.76 C
3285 06-03-2019 09:40:00 8.4 C 83 % 5.69 C
3286 06-03-2019 09:45:00 8.5 C 83 % 5.78 C
3287 06-03-2019 09:50:00 8.6 C 83 % 5.88 C
3288 06-03-2019 09:55:00 8.8 C 82 % 5.9 C
3289 06-03-2019 10:00:00 8.9 C 82 % 6 C
3290 06-03-2019 10:05:00 9.2 C 81 % 6.11 C
3291 06-03-2019 10:10:00 9.3 C 80 % 6.03 C
3292 06-03-2019 10:15:00 9.6 C 79 % 6.14 C
3293 06-03-2019 10:20:00 9.7 C 78 % 6.06 C
3294 06-03-2019 10:25:00 9.9 C 77 % 6.06 C
3295 06-03-2019 10:30:00 10.2 C 76 % 6.16 C
3296 06-03-2019 10:35:00 10.4 C 73 % 5.78 C
3297 06-03-2019 10:40:00 10.6 C 73 % 5.97 C
3298 06-03-2019 10:45:00 10.7 C 73 % 6.07 C
3299 06-03-2019 10:50:00 10.8 C 72 % 5.96 C
3300 06-03-2019 10:55:00 10.8 C 72 % 5.96 C
Sensor: Nr:Datum:Temp:Feuchte:Taupunkt:
Aussen-T/F 3301 06-03-2019 11:00:00 10.9 C 71 % 5.86 C
3302 06-03-2019 11:05:00 11.1 C 70 % 5.84 C
3303 06-03-2019 11:10:00 11.3 C 69 % 5.83 C
3304 06-03-2019 11:15:00 11.6 C 68 % 5.9 C
3305 06-03-2019 11:20:00 11.8 C 67 % 5.88 C
3306 06-03-2019 11:25:00 12.1 C 66 % 5.95 C
3307 06-03-2019 11:30:00 12.4 C 65 % 6.01 C
3308 06-03-2019 11:35:00 12.7 C 64 % 6.07 C
3309 06-03-2019 11:40:00 13 C 62 % 5.9 C
3310 06-03-2019 11:45:00 13.3 C 61 % 5.95 C
3311 06-03-2019 11:50:00 13.5 C 62 % 6.37 C
3312 06-03-2019 11:55:00 13.6 C 60 % 5.99 C
3313 06-03-2019 12:00:00 13.6 C 59 % 5.75 C
3314 06-03-2019 12:05:00 13.5 C 58 % 5.41 C
3315 06-03-2019 12:10:00 13.4 C 59 % 5.56 C
3316 06-03-2019 12:15:00 13.4 C 59 % 5.56 C
3317 06-03-2019 12:20:00 13.3 C 58 % 5.22 C
3318 06-03-2019 12:25:00 13.4 C 60 % 5.8 C
3319 06-03-2019 12:30:00 13.3 C 58 % 5.22 C
3320 06-03-2019 12:35:00 13.2 C 59 % 5.37 C
3321 06-03-2019 12:40:00 13.2 C 59 % 5.37 C
3322 06-03-2019 12:45:00 13.2 C 59 % 5.37 C
3323 06-03-2019 12:50:00 13.1 C 61 % 5.76 C
3324 06-03-2019 12:55:00 13.2 C 62 % 6.09 C
3325 06-03-2019 13:00:00 13.2 C 61 % 5.85 C
Sensor: Nr:Datum:Temp:Feuchte:Taupunkt:
Aussen-T/F 3326 06-03-2019 13:05:00 13.2 C 59 % 5.37 C
3327 06-03-2019 13:10:00 13.3 C 60 % 5.71 C
3328 06-03-2019 13:15:00 13.3 C 63 % 6.41 C
3329 06-03-2019 13:20:00 13.4 C 61 % 6.04 C
3330 06-03-2019 13:25:00 13.4 C 60 % 5.8 C
3331 06-03-2019 13:30:00 13.4 C 61 % 6.04 C
3332 06-03-2019 13:35:00 13.4 C 60 % 5.8 C
3333 06-03-2019 13:40:00 13.4 C 62 % 6.28 C
3334 06-03-2019 13:45:00 13.4 C 60 % 5.8 C
3335 06-03-2019 13:50:00 13.5 C 62 % 6.37 C
3336 06-03-2019 13:55:00 13.6 C 63 % 6.7 C
3337 06-03-2019 14:00:00 13.6 C 63 % 6.7 C
3338 06-03-2019 14:05:00 13.6 C 61 % 6.23 C
3339 06-03-2019 14:10:00 13.6 C 62 % 6.47 C
3340 06-03-2019 14:15:00 13.5 C 62 % 6.37 C
3341 06-03-2019 14:20:00 13.5 C 62 % 6.37 C
3342 06-03-2019 14:25:00 13.5 C 62 % 6.37 C
3343 06-03-2019 14:30:00 13.5 C 62 % 6.37 C
3344 06-03-2019 14:35:00 13.6 C 63 % 6.7 C
3345 06-03-2019 14:40:00 13.8 C 62 % 6.65 C
3346 06-03-2019 14:45:00 13.9 C 61 % 6.51 C
3347 06-03-2019 14:50:00 14.1 C 61 % 6.7 C
3348 06-03-2019 14:55:00 14.2 C 60 % 6.56 C
3349 06-03-2019 15:00:00 14.3 C 60 % 6.65 C
3350 06-03-2019 15:05:00 14.4 C 61 % 6.98 C
Sensor: Nr:Datum:Temp:Feuchte:Taupunkt:
Aussen-T/F 3351 06-03-2019 15:10:00 14.4 C 60 % 6.74 C
3352 06-03-2019 15:15:00 14.5 C 60 % 6.84 C
3353 06-03-2019 15:20:00 14.6 C 59 % 6.69 C
3354 06-03-2019 15:25:00 14.6 C 58 % 6.44 C
3355 06-03-2019 15:30:00 14.6 C 57 % 6.19 C
3356 06-03-2019 15:35:00 14.6 C 59 % 6.69 C
3357 06-03-2019 15:40:00 14.7 C 59 % 6.78 C
3358 06-03-2019 15:45:00 14.7 C 58 % 6.53 C
3359 06-03-2019 15:50:00 14.7 C 58 % 6.53 C
3360 06-03-2019 15:55:00 14.7 C 56 % 6.02 C
3361 06-03-2019 16:00:00 14.8 C 55 % 5.86 C
3362 06-03-2019 16:05:00 15 C 54 % 5.78 C
3363 06-03-2019 16:10:00 15.1 C 56 % 6.4 C
3364 06-03-2019 16:15:00 15.2 C 56 % 6.49 C
3365 06-03-2019 16:20:00 15.2 C 55 % 6.23 C
3366 06-03-2019 16:25:00 15.3 C 55 % 6.32 C
3367 06-03-2019 16:30:00 15.4 C 53 % 5.88 C
3368 06-03-2019 16:35:00 15.4 C 54 % 6.15 C
3369 06-03-2019 16:40:00 15.4 C 56 % 6.68 C
3370 06-03-2019 16:45:00 15.4 C 62 % 8.16 C
3371 06-03-2019 16:50:00 15.2 C 64 % 8.44 C
3372 06-03-2019 16:55:00 14.9 C 69 % 9.27 C
3373 06-03-2019 17:00:00 14.6 C 70 % 9.2 C
3374 06-03-2019 17:05:00 14.3 C 71 % 9.12 C
3375 06-03-2019 17:10:00 14.1 C 71 % 8.93 C
Sensor: Nr:Datum:Temp:Feuchte:Taupunkt:
Aussen-T/F 3376 06-03-2019 17:15:00 13.9 C 72 % 8.94 C
3377 06-03-2019 17:20:00 13.8 C 68 % 8 C
3378 06-03-2019 17:25:00 13.7 C 67 % 7.69 C
3379 06-03-2019 17:30:00 13.8 C 66 % 7.57 C
3380 06-03-2019 17:35:00 13.8 C 66 % 7.57 C
3381 06-03-2019 17:40:00 13.8 C 66 % 7.57 C
3382 06-03-2019 17:45:00 13.8 C 67 % 7.79 C
3383 06-03-2019 17:50:00 13.8 C 67 % 7.79 C
3384 06-03-2019 17:55:00 13.8 C 68 % 8 C
3385 06-03-2019 18:00:00 13.7 C 69 % 8.12 C
3386 06-03-2019 18:05:00 13.6 C 70 % 8.24 C
3387 06-03-2019 18:10:00 13.4 C 70 % 8.05 C
3388 06-03-2019 18:15:00 13.3 C 70 % 7.95 C
3389 06-03-2019 18:20:00 13.2 C 71 % 8.06 C
3390 06-03-2019 18:25:00 13.1 C 73 % 8.38 C
3391 06-03-2019 18:30:00 12.9 C 74 % 8.38 C
3392 06-03-2019 18:35:00 12.7 C 74 % 8.19 C
3393 06-03-2019 18:40:00 12.6 C 75 % 8.29 C
3394 06-03-2019 18:45:00 12.6 C 74 % 8.09 C
3395 06-03-2019 18:50:00 12.5 C 75 % 8.19 C
3396 06-03-2019 18:55:00 12.5 C 76 % 8.39 C
3397 06-03-2019 19:00:00 12.4 C 77 % 8.49 C
3398 06-03-2019 19:05:00 12.2 C 79 % 8.67 C
3399 06-03-2019 19:10:00 12 C 77 % 8.1 C
3400 06-03-2019 19:15:00 12 C 79 % 8.48 C
Sensor: Nr:Datum:Temp:Feuchte:Taupunkt:
Aussen-T/F 3401 06-03-2019 19:20:00 11.9 C 81 % 8.75 C
3402 06-03-2019 19:25:00 11.7 C 82 % 8.73 C
3403 06-03-2019 19:30:00 11.5 C 82 % 8.54 C
3404 06-03-2019 19:35:00 11.4 C 83 % 8.62 C
3405 06-03-2019 19:40:00 11.3 C 83 % 8.52 C
3406 06-03-2019 19:45:00 11.3 C 84 % 8.7 C
3407 06-03-2019 19:50:00 11.2 C 84 % 8.6 C
3408 06-03-2019 19:55:00 11 C 84 % 8.4 C
3409 06-03-2019 20:00:00 11 C 84 % 8.4 C
3410 06-03-2019 20:05:00 10.9 C 84 % 8.31 C
3411 06-03-2019 20:10:00 10.9 C 84 % 8.31 C
3412 06-03-2019 20:15:00 10.8 C 85 % 8.38 C
3413 06-03-2019 20:20:00 10.7 C 85 % 8.28 C
3414 06-03-2019 20:25:00 10.6 C 85 % 8.19 C
3415 06-03-2019 20:30:00 10.6 C 85 % 8.19 C
3416 06-03-2019 20:35:00 10.6 C 85 % 8.19 C
3417 06-03-2019 20:40:00 10.5 C 85 % 8.09 C
3418 06-03-2019 20:45:00 10.4 C 85 % 7.99 C
3419 06-03-2019 20:50:00 10.4 C 85 % 7.99 C
3420 06-03-2019 20:55:00 10.4 C 86 % 8.16 C
3421 06-03-2019 21:00:00 10.4 C 85 % 7.99 C
3422 06-03-2019 21:05:00 10.6 C 84 % 8.01 C
3423 06-03-2019 21:10:00 10.7 C 85 % 8.28 C
3424 06-03-2019 21:15:00 10.7 C 84 % 8.11 C
3425 06-03-2019 21:20:00 10.7 C 84 % 8.11 C
Sensor: Nr:Datum:Temp:Feuchte:Taupunkt:
Aussen-T/F 3426 06-03-2019 21:25:00 10.7 C 84 % 8.11 C
3427 06-03-2019 21:30:00 10.8 C 83 % 8.03 C
3428 06-03-2019 21:35:00 10.8 C 84 % 8.21 C
3429 06-03-2019 21:40:00 10.7 C 84 % 8.11 C
3430 06-03-2019 21:45:00 10.7 C 84 % 8.11 C
3431 06-03-2019 21:50:00 10.7 C 84 % 8.11 C
3432 06-03-2019 21:55:00 10.6 C 84 % 8.01 C
3433 06-03-2019 22:00:00 10.6 C 85 % 8.19 C
3434 06-03-2019 22:05:00 10.6 C 84 % 8.01 C
3435 06-03-2019 22:10:00 10.6 C 85 % 8.19 C
3436 06-03-2019 22:15:00 10.6 C 84 % 8.01 C
3437 06-03-2019 22:20:00 10.7 C 84 % 8.11 C
3438 06-03-2019 22:25:00 10.7 C 84 % 8.11 C
3439 06-03-2019 22:30:00 10.7 C 84 % 8.11 C
3440 06-03-2019 22:35:00 10.7 C 84 % 8.11 C
3441 06-03-2019 22:40:00 10.7 C 84 % 8.11 C
3442 06-03-2019 22:45:00 10.7 C 84 % 8.11 C
3443 06-03-2019 22:50:00 10.7 C 84 % 8.11 C
3444 06-03-2019 22:55:00 10.7 C 84 % 8.11 C
3445 06-03-2019 23:00:00 10.7 C 84 % 8.11 C
3446 06-03-2019 23:05:00 10.8 C 84 % 8.21 C
3447 06-03-2019 23:10:00 10.8 C 84 % 8.21 C
3448 06-03-2019 23:15:00 10.8 C 83 % 8.03 C
3449 06-03-2019 23:20:00 10.9 C 81 % 7.77 C
3450 06-03-2019 23:25:00 11.1 C 81 % 7.97 C
Sensor: Nr:Datum:Temp:Feuchte:Taupunkt:
Aussen-T/F 3451 06-03-2019 23:30:00 11.2 C 80 % 7.88 C
3452 06-03-2019 23:35:00 11.4 C 80 % 8.08 C
3453 06-03-2019 23:40:00 11.5 C 80 % 8.17 C
3454 06-03-2019 23:45:00 11.6 C 79 % 8.09 C
3455 06-03-2019 23:50:00 11.7 C 79 % 8.18 C
3456 06-03-2019 23:55:00 11.6 C 81 % 8.45 C
3457 07-03-2019 00:00:00 11.4 C 81 % 8.26 C
3458 07-03-2019 00:05:00 11.3 C 82 % 8.34 C
3459 07-03-2019 00:10:00 11.1 C 83 % 8.33 C
3460 07-03-2019 00:15:00 11.1 C 83 % 8.33 C
3461 07-03-2019 00:20:00 11.1 C 82 % 8.15 C
3462 07-03-2019 00:25:00 11.2 C 83 % 8.42 C
3463 07-03-2019 00:30:00 11.2 C 84 % 8.6 C
3464 07-03-2019 00:35:00 11.1 C 85 % 8.68 C
3465 07-03-2019 00:40:00 10.9 C 85 % 8.48 C
3466 07-03-2019 00:45:00 10.8 C 85 % 8.38 C
3467 07-03-2019 00:50:00 10.7 C 85 % 8.28 C
3468 07-03-2019 00:55:00 10.8 C 86 % 8.56 C
3469 07-03-2019 01:00:00 10.8 C 86 % 8.56 C
3470 07-03-2019 01:05:00 10.8 C 86 % 8.56 C
3471 07-03-2019 01:10:00 10.9 C 86 % 8.65 C
3472 07-03-2019 01:15:00 10.9 C 87 % 8.82 C
3473 07-03-2019 01:20:00 11 C 87 % 8.92 C
3474 07-03-2019 01:25:00 11.1 C 87 % 9.02 C
3475 07-03-2019 01:30:00 11.1 C 87 % 9.02 C
Sensor: Nr:Datum:Temp:Feuchte:Taupunkt:
Aussen-T/F 3476 07-03-2019 01:35:00 11.1 C 88 % 9.19 C
3477 07-03-2019 01:40:00 11 C 88 % 9.09 C
3478 07-03-2019 01:45:00 10.9 C 89 % 9.16 C
3479 07-03-2019 01:50:00 10.8 C 89 % 9.06 C
3480 07-03-2019 01:55:00 10.8 C 90 % 9.23 C
3481 07-03-2019 02:00:00 10.7 C 91 % 9.29 C
3482 07-03-2019 02:05:00 10.6 C 91 % 9.19 C
3483 07-03-2019 02:10:00 10.4 C 91 % 9 C
3484 07-03-2019 02:15:00 10.3 C 91 % 8.9 C
3485 07-03-2019 02:20:00 10.1 C 91 % 8.7 C
3486 07-03-2019 02:25:00 9.9 C 91 % 8.5 C
3487 07-03-2019 02:30:00 9.8 C 91 % 8.4 C
3488 07-03-2019 02:35:00 9.7 C 92 % 8.46 C
3489 07-03-2019 02:40:00 9.7 C 92 % 8.46 C
3490 07-03-2019 02:45:00 9.7 C 93 % 8.62 C
3491 07-03-2019 02:50:00 9.7 C 93 % 8.62 C
3492 07-03-2019 02:55:00 9.7 C 93 % 8.62 C
3493 07-03-2019 03:00:00 9.7 C 93 % 8.62 C
3494 07-03-2019 03:05:00 9.7 C 93 % 8.62 C
3495 07-03-2019 03:10:00 9.7 C 93 % 8.62 C
3496 07-03-2019 03:15:00 9.6 C 93 % 8.53 C
3497 07-03-2019 03:20:00 9.6 C 93 % 8.53 C
3498 07-03-2019 03:25:00 9.6 C 93 % 8.53 C
3499 07-03-2019 03:30:00 9.6 C 93 % 8.53 C
3500 07-03-2019 03:35:00 9.6 C 92 % 8.37 C
Sensor: Nr:Datum:Temp:Feuchte:Taupunkt:
Aussen-T/F 3501 07-03-2019 03:40:00 9.5 C 92 % 8.27 C
3502 07-03-2019 03:45:00 9.5 C 92 % 8.27 C
3503 07-03-2019 03:50:00 9.4 C 92 % 8.17 C
3504 07-03-2019 03:55:00 9.5 C 92 % 8.27 C
3505 07-03-2019 04:00:00 9.6 C 92 % 8.37 C
3506 07-03-2019 04:05:00 9.7 C 91 % 8.3 C
3507 07-03-2019 04:10:00 9.8 C 90 % 8.24 C
3508 07-03-2019 04:15:00 9.9 C 90 % 8.34 C
3509 07-03-2019 04:20:00 10.1 C 89 % 8.37 C
3510 07-03-2019 04:25:00 10.2 C 89 % 8.47 C
3511 07-03-2019 04:30:00 10.2 C 88 % 8.3 C
3512 07-03-2019 04:35:00 10.3 C 88 % 8.4 C
3513 07-03-2019 04:40:00 10.3 C 88 % 8.4 C
3514 07-03-2019 04:45:00 10.2 C 87 % 8.14 C
3515 07-03-2019 04:50:00 10.3 C 86 % 8.06 C
3516 07-03-2019 04:55:00 10.4 C 85 % 7.99 C
3517 07-03-2019 05:00:00 10.4 C 85 % 7.99 C
3518 07-03-2019 05:05:00 10.6 C 84 % 8.01 C
3519 07-03-2019 05:10:00 10.8 C 83 % 8.03 C
3520 07-03-2019 05:15:00 10.9 C 82 % 7.95 C
3521 07-03-2019 05:20:00 11.3 C 81 % 8.16 C
3522 07-03-2019 05:25:00 11.6 C 80 % 8.27 C
3523 07-03-2019 05:30:00 11.7 C 78 % 8 C
3524 07-03-2019 05:35:00 11.8 C 78 % 8.09 C
3525 07-03-2019 05:40:00 11.9 C 77 % 8 C
Sensor: Nr:Datum:Temp:Feuchte:Taupunkt:
Aussen-T/F 3526 07-03-2019 05:45:00 12 C 77 % 8.1 C
3527 07-03-2019 05:50:00 12.2 C 76 % 8.1 C
3528 07-03-2019 05:55:00 12.2 C 75 % 7.91 C
3529 07-03-2019 06:00:00 12.3 C 75 % 8 C
3530 07-03-2019 06:05:00 12.3 C 75 % 8 C
3531 07-03-2019 06:10:00 12.3 C 75 % 8 C
3532 07-03-2019 06:15:00 12.2 C 74 % 7.71 C
3533 07-03-2019 06:20:00 12.2 C 74 % 7.71 C
3534 07-03-2019 06:25:00 12.1 C 73 % 7.41 C
3535 07-03-2019 06:30:00 12.1 C 73 % 7.41 C
3536 07-03-2019 06:35:00 11.9 C 73 % 7.22 C
3537 07-03-2019 06:40:00 11.9 C 73 % 7.22 C
3538 07-03-2019 06:45:00 11.8 C 74 % 7.32 C
3539 07-03-2019 06:50:00 11.8 C 74 % 7.32 C
3540 07-03-2019 06:55:00 11.8 C 74 % 7.32 C
3541 07-03-2019 07:00:00 11.7 C 74 % 7.23 C
3542 07-03-2019 07:05:00 11.6 C 75 % 7.33 C
3543 07-03-2019 07:10:00 11.6 C 75 % 7.33 C
3544 07-03-2019 07:15:00 11.6 C 75 % 7.33 C
3545 07-03-2019 07:20:00 11.5 C 74 % 7.03 C
3546 07-03-2019 07:25:00 11.4 C 74 % 6.94 C
3547 07-03-2019 07:30:00 11.4 C 74 % 6.94 C
3548 07-03-2019 07:35:00 11.2 C 74 % 6.74 C
3549 07-03-2019 07:40:00 11.1 C 74 % 6.65 C
3550 07-03-2019 07:45:00 11 C 74 % 6.55 C
Sensor: Nr:Datum:Temp:Feuchte:Taupunkt:
Aussen-T/F 3551 07-03-2019 07:50:00 10.9 C 74 % 6.45 C
3552 07-03-2019 07:55:00 10.9 C 74 % 6.45 C
3553 07-03-2019 08:00:00 10.8 C 74 % 6.36 C
3554 07-03-2019 08:05:00 10.8 C 74 % 6.36 C
3555 07-03-2019 08:10:00 10.8 C 75 % 6.55 C
3556 07-03-2019 08:15:00 10.7 C 75 % 6.46 C
3557 07-03-2019 08:20:00 10.7 C 75 % 6.46 C
3558 07-03-2019 08:25:00 10.7 C 76 % 6.65 C
3559 07-03-2019 08:30:00 10.7 C 76 % 6.65 C
3560 07-03-2019 08:35:00 10.6 C 76 % 6.55 C
3561 07-03-2019 08:40:00 10.6 C 77 % 6.74 C
3562 07-03-2019 08:45:00 10.6 C 78 % 6.93 C
3563 07-03-2019 08:50:00 10.6 C 77 % 6.74 C
3564 07-03-2019 08:55:00 10.7 C 78 % 7.03 C
3565 07-03-2019 09:00:00 10.7 C 79 % 7.21 C
3566 07-03-2019 09:05:00 10.6 C 80 % 7.3 C
3567 07-03-2019 09:10:00 10.4 C 81 % 7.28 C
3568 07-03-2019 09:15:00 10.2 C 82 % 7.27 C
3569 07-03-2019 09:20:00 10.1 C 84 % 7.52 C
3570 07-03-2019 09:25:00 9.9 C 85 % 7.5 C
3571 07-03-2019 09:30:00 9.8 C 85 % 7.4 C
3572 07-03-2019 09:35:00 9.7 C 84 % 7.13 C
3573 07-03-2019 09:40:00 9.8 C 84 % 7.23 C
3574 07-03-2019 09:45:00 9.8 C 83 % 7.05 C
3575 07-03-2019 09:50:00 9.9 C 83 % 7.15 C
Sensor: Nr:Datum:Temp:Feuchte:Taupunkt:
Aussen-T/F 3576 07-03-2019 09:55:00 9.9 C 82 % 6.98 C
3577 07-03-2019 10:00:00 10 C 82 % 7.07 C
3578 07-03-2019 10:05:00 10.1 C 81 % 6.99 C
3579 07-03-2019 10:10:00 10.2 C 82 % 7.27 C
3580 07-03-2019 10:15:00 10.2 C 82 % 7.27 C
3581 07-03-2019 10:20:00 10.2 C 82 % 7.27 C
3582 07-03-2019 10:25:00 10.1 C 82 % 7.17 C
3583 07-03-2019 10:30:00 10.2 C 82 % 7.27 C
3584 07-03-2019 10:35:00 10.2 C 82 % 7.27 C
3585 07-03-2019 10:40:00 10.3 C 82 % 7.37 C
3586 07-03-2019 10:45:00 10.4 C 82 % 7.46 C
3587 07-03-2019 10:50:00 10.4 C 83 % 7.64 C
3588 07-03-2019 10:55:00 10.4 C 84 % 7.82 C
3589 07-03-2019 11:00:00 10.3 C 86 % 8.06 C
3590 07-03-2019 11:05:00 9.8 C 86 % 7.57 C
3591 07-03-2019 11:10:00 9.5 C 87 % 7.45 C
3592 07-03-2019 11:15:00 9.5 C 87 % 7.45 C
3593 07-03-2019 11:20:00 9.5 C 86 % 7.28 C
3594 07-03-2019 11:25:00 9.6 C 86 % 7.38 C
3595 07-03-2019 11:30:00 9.6 C 85 % 7.21 C
3596 07-03-2019 11:35:00 9.7 C 84 % 7.13 C
3597 07-03-2019 11:40:00 9.8 C 83 % 7.05 C
3598 07-03-2019 11:45:00 9.9 C 81 % 6.8 C
3599 07-03-2019 11:50:00 10.1 C 78 % 6.44 C
3600 07-03-2019 11:55:00 10.3 C 78 % 6.64 C
Sensor: Nr:Datum:Temp:Feuchte:Taupunkt:
Aussen-T/F 3601 07-03-2019 12:00:00 10.4 C 78 % 6.74 C
3602 07-03-2019 12:05:00 10.6 C 76 % 6.55 C
3603 07-03-2019 12:10:00 10.6 C 76 % 6.55 C
3604 07-03-2019 12:15:00 10.6 C 76 % 6.55 C
3605 07-03-2019 12:20:00 10.7 C 74 % 6.26 C
3606 07-03-2019 12:25:00 10.8 C 74 % 6.36 C
3607 07-03-2019 12:30:00 10.8 C 74 % 6.36 C
3608 07-03-2019 12:35:00 10.8 C 74 % 6.36 C
3609 07-03-2019 12:40:00 10.9 C 74 % 6.45 C
3610 07-03-2019 12:45:00 10.9 C 73 % 6.26 C
3611 07-03-2019 12:50:00 11 C 74 % 6.55 C
3612 07-03-2019 12:55:00 11.3 C 73 % 6.64 C
3613 07-03-2019 13:00:00 11.7 C 71 % 6.62 C
3614 07-03-2019 13:05:00 11.8 C 70 % 6.51 C
3615 07-03-2019 13:10:00 11.9 C 71 % 6.82 C
3616 07-03-2019 13:15:00 12.2 C 69 % 6.69 C
3617 07-03-2019 13:20:00 12.4 C 66 % 6.23 C
3618 07-03-2019 13:25:00 12.4 C 68 % 6.67 C
3619 07-03-2019 13:30:00 12.2 C 68 % 6.48 C
3620 07-03-2019 13:35:00 12 C 68 % 6.29 C
3621 07-03-2019 13:40:00 12 C 68 % 6.29 C
3622 07-03-2019 13:45:00 12.1 C 67 % 6.17 C
3623 07-03-2019 13:50:00 11.8 C 67 % 5.88 C
3624 07-03-2019 13:55:00 11.5 C 71 % 6.43 C
3625 07-03-2019 14:00:00 10.7 C 77 % 6.84 C
Sensor: Nr:Datum:Temp:Feuchte:Taupunkt:
Aussen-T/F 3626 07-03-2019 14:05:00 10.1 C 80 % 6.81 C
3627 07-03-2019 14:10:00 9.7 C 80 % 6.42 C
3628 07-03-2019 14:15:00 9.7 C 81 % 6.6 C
3629 07-03-2019 14:20:00 9.9 C 81 % 6.8 C
3630 07-03-2019 14:25:00 10.2 C 81 % 7.09 C
3631 07-03-2019 14:30:00 10.5 C 78 % 6.83 C
3632 07-03-2019 14:35:00 10.7 C 78 % 7.03 C
3633 07-03-2019 14:40:00 10.7 C 77 % 6.84 C
3634 07-03-2019 14:45:00 10.7 C 76 % 6.65 C
3635 07-03-2019 14:50:00 10.9 C 75 % 6.65 C
3636 07-03-2019 14:55:00 11.1 C 73 % 6.45 C
3637 07-03-2019 15:00:00 11.3 C 70 % 6.03 C
3638 07-03-2019 15:05:00 11.4 C 68 % 5.71 C
3639 07-03-2019 15:10:00 11.7 C 69 % 6.21 C
3640 07-03-2019 15:15:00 11.7 C 68 % 6 C
3641 07-03-2019 15:20:00 11.7 C 69 % 6.21 C
3642 07-03-2019 15:25:00 11.6 C 68 % 5.9 C
3643 07-03-2019 15:30:00 11.2 C 73 % 6.55 C
3644 07-03-2019 15:35:00 10.5 C 77 % 6.64 C
3645 07-03-2019 15:40:00 10 C 81 % 6.89 C
3646 07-03-2019 15:45:00 9.8 C 82 % 6.88 C
3647 07-03-2019 15:50:00 9.6 C 82 % 6.68 C
3648 07-03-2019 15:55:00 9.4 C 82 % 6.49 C
3649 07-03-2019 16:00:00 9.4 C 84 % 6.84 C
3650 07-03-2019 16:05:00 9.5 C 83 % 6.76 C
Sensor: Nr:Datum:Temp:Feuchte:Taupunkt:
Aussen-T/F 3651 07-03-2019 16:10:00 9.6 C 82 % 6.68 C
3652 07-03-2019 16:15:00 9.7 C 82 % 6.78 C
3653 07-03-2019 16:20:00 9.8 C 82 % 6.88 C
3654 07-03-2019 16:25:00 9.9 C 79 % 6.43 C
3655 07-03-2019 16:30:00 10.1 C 78 % 6.44 C
3656 07-03-2019 16:35:00 10.1 C 74 % 5.68 C
3657 07-03-2019 16:40:00 10.2 C 73 % 5.58 C
3658 07-03-2019 16:45:00 10.2 C 74 % 5.78 C
3659 07-03-2019 16:50:00 10.1 C 78 % 6.44 C
3660 07-03-2019 16:55:00 10 C 80 % 6.71 C
3661 07-03-2019 17:00:00 10 C 80 % 6.71 C
3662 07-03-2019 17:05:00 10.2 C 79 % 6.73 C
3663 07-03-2019 17:10:00 10.3 C 76 % 6.26 C
3664 07-03-2019 17:15:00 10.3 C 75 % 6.07 C
3665 07-03-2019 17:20:00 10.3 C 75 % 6.07 C
3666 07-03-2019 17:25:00 10.3 C 74 % 5.88 C
3667 07-03-2019 17:30:00 10.4 C 74 % 5.97 C
3668 07-03-2019 17:35:00 10.3 C 73 % 5.68 C
3669 07-03-2019 17:40:00 10.1 C 73 % 5.49 C
3670 07-03-2019 17:45:00 9.9 C 73 % 5.29 C
3671 07-03-2019 17:50:00 9.8 C 74 % 5.39 C
3672 07-03-2019 17:55:00 9.8 C 74 % 5.39 C
3673 07-03-2019 18:00:00 9.8 C 72 % 5 C
3674 07-03-2019 18:05:00 9.8 C 72 % 5 C
3675 07-03-2019 18:10:00 9.8 C 72 % 5 C
Sensor: Nr:Datum:Temp:Feuchte:Taupunkt:
Aussen-T/F 3676 07-03-2019 18:15:00 9.7 C 72 % 4.9 C
3677 07-03-2019 18:20:00 9.6 C 71 % 4.61 C
3678 07-03-2019 18:25:00 9.4 C 72 % 4.62 C
3679 07-03-2019 18:30:00 9.4 C 72 % 4.62 C
3680 07-03-2019 18:35:00 9.4 C 72 % 4.62 C
3681 07-03-2019 18:40:00 9.3 C 72 % 4.52 C
3682 07-03-2019 18:45:00 9.2 C 73 % 4.62 C
3683 07-03-2019 18:50:00 9.1 C 74 % 4.72 C
3684 07-03-2019 18:55:00 8.9 C 75 % 4.72 C
3685 07-03-2019 19:00:00 8.9 C 75 % 4.72 C
3686 07-03-2019 19:05:00 8.9 C 76 % 4.91 C
3687 07-03-2019 19:10:00 8.9 C 76 % 4.91 C
3688 07-03-2019 19:15:00 8.9 C 78 % 5.28 C
3689 07-03-2019 19:20:00 8.8 C 79 % 5.36 C
3690 07-03-2019 19:25:00 8.6 C 80 % 5.35 C
3691 07-03-2019 19:30:00 8.4 C 81 % 5.33 C
3692 07-03-2019 19:35:00 8.3 C 82 % 5.41 C
3693 07-03-2019 19:40:00 8.1 C 82 % 5.22 C
3694 07-03-2019 19:45:00 8 C 82 % 5.12 C
3695 07-03-2019 19:50:00 7.9 C 82 % 5.02 C
3696 07-03-2019 19:55:00 7.9 C 81 % 4.85 C
3697 07-03-2019 20:00:00 8.1 C 80 % 4.86 C
3698 07-03-2019 20:05:00 8.2 C 79 % 4.78 C
3699 07-03-2019 20:10:00 8.3 C 78 % 4.7 C
3700 07-03-2019 20:15:00 8.4 C 77 % 4.61 C
Sensor: Nr:Datum:Temp:Feuchte:Taupunkt:
Aussen-T/F 3701 07-03-2019 20:20:00 8.6 C 77 % 4.8 C
3702 07-03-2019 20:25:00 8.7 C 76 % 4.71 C
3703 07-03-2019 20:30:00 8.8 C 76 % 4.81 C
3704 07-03-2019 20:35:00 8.8 C 76 % 4.81 C
3705 07-03-2019 20:40:00 8.9 C 75 % 4.72 C
3706 07-03-2019 20:45:00 8.9 C 75 % 4.72 C
3707 07-03-2019 20:50:00 9 C 75 % 4.81 C
3708 07-03-2019 20:55:00 9 C 75 % 4.81 C
3709 07-03-2019 21:00:00 9.1 C 75 % 4.91 C
3710 07-03-2019 21:05:00 9.1 C 75 % 4.91 C
3711 07-03-2019 21:10:00 9.2 C 75 % 5.01 C
3712 07-03-2019 21:15:00 9.2 C 75 % 5.01 C
3713 07-03-2019 21:20:00 9.2 C 75 % 5.01 C
3714 07-03-2019 21:25:00 9.2 C 75 % 5.01 C
3715 07-03-2019 21:30:00 9.3 C 75 % 5.1 C
3716 07-03-2019 21:35:00 9.3 C 74 % 4.91 C
3717 07-03-2019 21:40:00 9.3 C 74 % 4.91 C
3718 07-03-2019 21:45:00 9.3 C 74 % 4.91 C
3719 07-03-2019 21:50:00 9.3 C 74 % 4.91 C
3720 07-03-2019 21:55:00 9.3 C 74 % 4.91 C
3721 07-03-2019 22:00:00 9.4 C 74 % 5.01 C
3722 07-03-2019 22:05:00 9.4 C 74 % 5.01 C
3723 07-03-2019 22:10:00 9.4 C 74 % 5.01 C
3724 07-03-2019 22:15:00 9.4 C 75 % 5.2 C
3725 07-03-2019 22:20:00 9.3 C 75 % 5.1 C
Sensor: Nr:Datum:Temp:Feuchte:Taupunkt:
Aussen-T/F 3726 07-03-2019 22:25:00 9.2 C 75 % 5.01 C
3727 07-03-2019 22:30:00 9.2 C 75 % 5.01 C
3728 07-03-2019 22:35:00 9.1 C 75 % 4.91 C
3729 07-03-2019 22:40:00 9.1 C 75 % 4.91 C
3730 07-03-2019 22:45:00 9 C 75 % 4.81 C
3731 07-03-2019 22:50:00 9 C 75 % 4.81 C
3732 07-03-2019 22:55:00 8.9 C 75 % 4.72 C
3733 07-03-2019 23:00:00 8.9 C 75 % 4.72 C
3734 07-03-2019 23:05:00 8.8 C 75 % 4.62 C
3735 07-03-2019 23:10:00 8.7 C 76 % 4.71 C
3736 07-03-2019 23:15:00 8.7 C 76 % 4.71 C
3737 07-03-2019 23:20:00 8.5 C 77 % 4.71 C
3738 07-03-2019 23:25:00 8.5 C 77 % 4.71 C
3739 07-03-2019 23:30:00 8.5 C 77 % 4.71 C
3740 07-03-2019 23:35:00 8.6 C 77 % 4.8 C
3741 07-03-2019 23:40:00 8.6 C 77 % 4.8 C
3742 07-03-2019 23:45:00 8.7 C 78 % 5.08 C
3743 07-03-2019 23:50:00 8.7 C 79 % 5.27 C
3744 07-03-2019 23:55:00 8.5 C 79 % 5.07 C
3745 08-03-2019 00:00:00 8.3 C 80 % 5.06 C
3746 08-03-2019 00:05:00 8.2 C 80 % 4.96 C
3747 08-03-2019 00:10:00 8.2 C 81 % 5.14 C
3748 08-03-2019 00:15:00 8.2 C 82 % 5.32 C
3749 08-03-2019 00:20:00 8 C 84 % 5.47 C
3750 08-03-2019 00:25:00 7.8 C 85 % 5.44 C
Sensor: Nr:Datum:Temp:Feuchte:Taupunkt:
Aussen-T/F 3751 08-03-2019 00:30:00 7.6 C 86 % 5.41 C
3752 08-03-2019 00:35:00 7.4 C 86 % 5.22 C
3753 08-03-2019 00:40:00 7.3 C 86 % 5.12 C
3754 08-03-2019 00:45:00 7.1 C 87 % 5.09 C
3755 08-03-2019 00:50:00 6.9 C 87 % 4.89 C
3756 08-03-2019 00:55:00 6.9 C 87 % 4.89 C
3757 08-03-2019 01:00:00 6.8 C 87 % 4.79 C
3758 08-03-2019 01:05:00 6.8 C 87 % 4.79 C
3759 08-03-2019 01:10:00 6.8 C 87 % 4.79 C
3760 08-03-2019 01:15:00 6.8 C 87 % 4.79 C
3761 08-03-2019 01:20:00 6.9 C 87 % 4.89 C
3762 08-03-2019 01:25:00 6.9 C 87 % 4.89 C
3763 08-03-2019 01:30:00 7 C 87 % 4.99 C
3764 08-03-2019 01:35:00 7.1 C 86 % 4.92 C
3765 08-03-2019 01:40:00 7.2 C 85 % 4.85 C
3766 08-03-2019 01:45:00 7.3 C 85 % 4.95 C
3767 08-03-2019 01:50:00 7.4 C 84 % 4.88 C
3768 08-03-2019 01:55:00 7.7 C 82 % 4.83 C
3769 08-03-2019 02:00:00 7.9 C 80 % 4.67 C
3770 08-03-2019 02:05:00 8 C 79 % 4.59 C
3771 08-03-2019 02:10:00 8.1 C 79 % 4.68 C
3772 08-03-2019 02:15:00 8.1 C 78 % 4.5 C
3773 08-03-2019 02:20:00 8.1 C 78 % 4.5 C
3774 08-03-2019 02:25:00 8.2 C 77 % 4.42 C
3775 08-03-2019 02:30:00 8.2 C 77 % 4.42 C
Sensor: Nr:Datum:Temp:Feuchte:Taupunkt:
Aussen-T/F 3776 08-03-2019 02:35:00 8.3 C 76 % 4.33 C
3777 08-03-2019 02:40:00 8.3 C 76 % 4.33 C
3778 08-03-2019 02:45:00 8.3 C 76 % 4.33 C
3779 08-03-2019 02:50:00 8.2 C 76 % 4.23 C
3780 08-03-2019 02:55:00 8.2 C 76 % 4.23 C
3781 08-03-2019 03:00:00 8.2 C 76 % 4.23 C
3782 08-03-2019 03:05:00 8.2 C 76 % 4.23 C
3783 08-03-2019 03:10:00 8.2 C 76 % 4.23 C
3784 08-03-2019 03:15:00 8.3 C 75 % 4.14 C
3785 08-03-2019 03:20:00 8.2 C 75 % 4.04 C
3786 08-03-2019 03:25:00 8.2 C 74 % 3.85 C
3787 08-03-2019 03:30:00 8.1 C 75 % 3.94 C
3788 08-03-2019 03:35:00 8.1 C 75 % 3.94 C
3789 08-03-2019 03:40:00 8.1 C 75 % 3.94 C
3790 08-03-2019 03:45:00 8.1 C 75 % 3.94 C
3791 08-03-2019 03:50:00 8.1 C 75 % 3.94 C
3792 08-03-2019 03:55:00 8 C 75 % 3.85 C
3793 08-03-2019 04:00:00 8 C 76 % 4.04 C
3794 08-03-2019 04:05:00 8 C 76 % 4.04 C
3795 08-03-2019 04:10:00 8 C 76 % 4.04 C
3796 08-03-2019 04:15:00 8 C 76 % 4.04 C
3797 08-03-2019 04:20:00 8.1 C 76 % 4.13 C
3798 08-03-2019 04:25:00 8.1 C 76 % 4.13 C
3799 08-03-2019 04:30:00 8.1 C 76 % 4.13 C
3800 08-03-2019 04:35:00 8 C 77 % 4.22 C
Sensor: Nr:Datum:Temp:Feuchte:Taupunkt:
Aussen-T/F 3801 08-03-2019 04:40:00 8 C 77 % 4.22 C
3802 08-03-2019 04:45:00 8.1 C 77 % 4.32 C
3803 08-03-2019 04:50:00 8.1 C 76 % 4.13 C
3804 08-03-2019 04:55:00 8.1 C 76 % 4.13 C
3805 08-03-2019 05:00:00 8.1 C 77 % 4.32 C
3806 08-03-2019 05:05:00 8 C 77 % 4.22 C
3807 08-03-2019 05:10:00 7.9 C 77 % 4.12 C
3808 08-03-2019 05:15:00 7.8 C 78 % 4.21 C
3809 08-03-2019 05:20:00 7.8 C 78 % 4.21 C
3810 08-03-2019 05:25:00 7.8 C 78 % 4.21 C
3811 08-03-2019 05:30:00 7.8 C 78 % 4.21 C
3812 08-03-2019 05:35:00 7.7 C 79 % 4.3 C
3813 08-03-2019 05:40:00 7.7 C 79 % 4.3 C
3814 08-03-2019 05:45:00 7.7 C 79 % 4.3 C
3815 08-03-2019 05:50:00 7.7 C 79 % 4.3 C
3816 08-03-2019 05:55:00 7.6 C 79 % 4.2 C
3817 08-03-2019 06:00:00 7.6 C 79 % 4.2 C
3818 08-03-2019 06:05:00 7.6 C 79 % 4.2 C
3819 08-03-2019 06:10:00 7.6 C 80 % 4.38 C
3820 08-03-2019 06:15:00 7.6 C 80 % 4.38 C
3821 08-03-2019 06:20:00 7.5 C 80 % 4.28 C
3822 08-03-2019 06:25:00 7.5 C 80 % 4.28 C
3823 08-03-2019 06:30:00 7.6 C 80 % 4.38 C
3824 08-03-2019 06:35:00 7.6 C 80 % 4.38 C
3825 08-03-2019 06:40:00 7.7 C 80 % 4.47 C
Sensor: Nr:Datum:Temp:Feuchte:Taupunkt:
Aussen-T/F 3826 08-03-2019 06:45:00 7.7 C 80 % 4.47 C
3827 08-03-2019 06:50:00 7.7 C 80 % 4.47 C
3828 08-03-2019 06:55:00 7.6 C 80 % 4.38 C
3829 08-03-2019 07:00:00 7.6 C 80 % 4.38 C
3830 08-03-2019 07:05:00 7.6 C 81 % 4.55 C
3831 08-03-2019 07:10:00 7.6 C 81 % 4.55 C
3832 08-03-2019 07:15:00 7.6 C 81 % 4.55 C
3833 08-03-2019 07:20:00 7.6 C 80 % 4.38 C
3834 08-03-2019 07:25:00 7.7 C 80 % 4.47 C
3835 08-03-2019 07:30:00 7.7 C 80 % 4.47 C
3836 08-03-2019 07:35:00 7.8 C 80 % 4.57 C
3837 08-03-2019 07:40:00 7.8 C 80 % 4.57 C
3838 08-03-2019 07:45:00 7.8 C 80 % 4.57 C
3839 08-03-2019 07:50:00 7.8 C 81 % 4.75 C
3840 08-03-2019 07:55:00 7.8 C 81 % 4.75 C
3841 08-03-2019 08:00:00 7.8 C 81 % 4.75 C
3842 08-03-2019 08:05:00 7.8 C 81 % 4.75 C
3843 08-03-2019 08:10:00 7.8 C 81 % 4.75 C
3844 08-03-2019 08:15:00 7.8 C 81 % 4.75 C
3845 08-03-2019 08:20:00 7.8 C 81 % 4.75 C
3846 08-03-2019 08:25:00 7.8 C 82 % 4.92 C
3847 08-03-2019 08:30:00 7.9 C 82 % 5.02 C
3848 08-03-2019 08:35:00 7.9 C 82 % 5.02 C
3849 08-03-2019 08:40:00 7.9 C 82 % 5.02 C
3850 08-03-2019 08:45:00 7.9 C 82 % 5.02 C
Sensor: Nr:Datum:Temp:Feuchte:Taupunkt:
Aussen-T/F 3851 08-03-2019 08:50:00 7.9 C 83 % 5.2 C
3852 08-03-2019 08:55:00 7.9 C 83 % 5.2 C
3853 08-03-2019 09:00:00 7.9 C 83 % 5.2 C
3854 08-03-2019 09:05:00 7.9 C 83 % 5.2 C
3855 08-03-2019 09:10:00 7.9 C 83 % 5.2 C
3856 08-03-2019 09:15:00 7.8 C 83 % 5.1 C
3857 08-03-2019 09:20:00 7.8 C 84 % 5.27 C
3858 08-03-2019 09:25:00 7.8 C 85 % 5.44 C
3859 08-03-2019 09:30:00 7.7 C 86 % 5.51 C
3860 08-03-2019 09:35:00 7.7 C 86 % 5.51 C
3861 08-03-2019 09:40:00 7.6 C 87 % 5.58 C
3862 08-03-2019 09:45:00 7.4 C 87 % 5.38 C
3863 08-03-2019 09:50:00 7.4 C 88 % 5.55 C
3864 08-03-2019 09:55:00 7.3 C 88 % 5.45 C
3865 08-03-2019 10:00:00 7.2 C 88 % 5.35 C
3866 08-03-2019 10:05:00 7.2 C 88 % 5.35 C
3867 08-03-2019 10:10:00 7.3 C 88 % 5.45 C
3868 08-03-2019 10:15:00 7.4 C 88 % 5.55 C
3869 08-03-2019 10:20:00 7.5 C 87 % 5.48 C
3870 08-03-2019 10:25:00 7.7 C 86 % 5.51 C
3871 08-03-2019 10:30:00 7.8 C 84 % 5.27 C
3872 08-03-2019 10:35:00 7.9 C 84 % 5.37 C
3873 08-03-2019 10:40:00 8.1 C 83 % 5.39 C
3874 08-03-2019 10:45:00 8.2 C 82 % 5.32 C
3875 08-03-2019 10:50:00 8.3 C 82 % 5.41 C
Sensor: Nr:Datum:Temp:Feuchte:Taupunkt:
Aussen-T/F 3876 08-03-2019 10:55:00 8.4 C 81 % 5.33 C
3877 08-03-2019 11:00:00 8.4 C 81 % 5.33 C
3878 08-03-2019 11:05:00 8.4 C 81 % 5.33 C
3879 08-03-2019 11:10:00 8.4 C 80 % 5.16 C
3880 08-03-2019 11:15:00 8.4 C 80 % 5.16 C
3881 08-03-2019 11:20:00 8.4 C 81 % 5.33 C
3882 08-03-2019 11:25:00 8.6 C 81 % 5.53 C
3883 08-03-2019 11:30:00 8.7 C 79 % 5.27 C
3884 08-03-2019 11:35:00 8.8 C 79 % 5.36 C
3885 08-03-2019 11:40:00 8.8 C 79 % 5.36 C
3886 08-03-2019 11:45:00 8.8 C 78 % 5.18 C
3887 08-03-2019 11:50:00 9 C 77 % 5.19 C
3888 08-03-2019 11:55:00 9.2 C 76 % 5.2 C
3889 08-03-2019 12:00:00 9.3 C 73 % 4.72 C
3890 08-03-2019 12:05:00 9.5 C 71 % 4.51 C
3891 08-03-2019 12:10:00 9.5 C 70 % 4.31 C
3892 08-03-2019 12:15:00 9.3 C 72 % 4.52 C
3893 08-03-2019 12:20:00 9.1 C 73 % 4.52 C
3894 08-03-2019 12:25:00 9.1 C 73 % 4.52 C
3895 08-03-2019 12:30:00 9.1 C 74 % 4.72 C
3896 08-03-2019 12:35:00 9 C 73 % 4.43 C